<?xml version='1.0' encoding='UTF-8'?><gpx version="1.1" creator="JPX - https://github.com/jenetics/jpx" xmlns="http://www.topografix.com/GPX/1/1"><trk><trkseg><trkpt lat="43.7721652" lon="11.4241941"><ele>82.0</ele><time>2026-04-11T11:20:30.827Z</time></trkpt><trkpt lat="43.7721263" lon="11.4243557"><ele>82.0</ele><time>2026-04-11T11:20:31.835Z</time></trkpt><trkpt lat="43.7720803" lon="11.424585"><ele>82.0</ele><time>2026-04-11T11:20:32.846Z</time></trkpt><trkpt lat="43.7720281" lon="11.4247602"><ele>82.0</ele><time>2026-04-11T11:20:33.828Z</time></trkpt><trkpt lat="43.7719854" lon="11.4249426"><ele>82.0</ele><time>2026-04-11T11:20:34.84Z</time></trkpt><trkpt lat="43.7719375" lon="11.4251332"><ele>82.0</ele><time>2026-04-11T11:20:35.829Z</time></trkpt><trkpt lat="43.7718866" lon="11.4253218"><ele>82.0</ele><time>2026-04-11T11:20:36.845Z</time></trkpt><trkpt lat="43.7718442" lon="11.4255034"><ele>82.0</ele><time>2026-04-11T11:20:37.842Z</time></trkpt><trkpt lat="43.7718072" lon="11.4256731"><ele>81.75</ele><time>2026-04-11T11:20:38.834Z</time></trkpt><trkpt lat="43.7717702" lon="11.4258464"><ele>81.5</ele><time>2026-04-11T11:20:39.832Z</time></trkpt><trkpt lat="43.7717439" lon="11.426019"><ele>81.25</ele><time>2026-04-11T11:20:40.847Z</time></trkpt><trkpt lat="43.7717238" lon="11.4261963"><ele>81.0</ele><time>2026-04-11T11:20:41.84Z</time></trkpt><trkpt lat="43.7717103" lon="11.4263698"><ele>81.0</ele><time>2026-04-11T11:20:42.843Z</time></trkpt><trkpt lat="43.771698" lon="11.4265519"><ele>81.0</ele><time>2026-04-11T11:20:43.83Z</time></trkpt><trkpt lat="43.7716886" lon="11.4267277"><ele>81.0</ele><time>2026-04-11T11:20:44.834Z</time></trkpt><trkpt lat="43.7716714" lon="11.4268997"><ele>81.0</ele><time>2026-04-11T11:20:45.828Z</time></trkpt><trkpt lat="43.7716615" lon="11.4270784"><ele>81.25</ele><time>2026-04-11T11:20:46.838Z</time></trkpt><trkpt lat="43.7716484" lon="11.4272534"><ele>81.5</ele><time>2026-04-11T11:20:47.841Z</time></trkpt><trkpt lat="43.7716307" lon="11.4274138"><ele>81.75</ele><time>2026-04-11T11:20:48.83Z</time></trkpt><trkpt lat="43.7716217" lon="11.4275775"><ele>82.0</ele><time>2026-04-11T11:20:49.854Z</time></trkpt><trkpt lat="43.7716104" lon="11.4277388"><ele>82.33333333333333</ele><time>2026-04-11T11:20:50.829Z</time></trkpt><trkpt lat="43.7715827" lon="11.4280791"><ele>82.66666666666667</ele><time>2026-04-11T11:20:52.832Z</time></trkpt><trkpt lat="43.7715636" lon="11.4282542"><ele>83.0</ele><time>2026-04-11T11:20:53.847Z</time></trkpt><trkpt lat="43.7715403" lon="11.4284366"><ele>83.0</ele><time>2026-04-11T11:20:54.843Z</time></trkpt><trkpt lat="43.7715155" lon="11.4286143"><ele>83.0</ele><time>2026-04-11T11:20:55.833Z</time></trkpt><trkpt lat="43.7714972" lon="11.4287887"><ele>83.0</ele><time>2026-04-11T11:20:56.839Z</time></trkpt><trkpt lat="43.7714749" lon="11.4289636"><ele>83.0</ele><time>2026-04-11T11:20:57.843Z</time></trkpt><trkpt lat="43.7714561" lon="11.4291477"><ele>82.75</ele><time>2026-04-11T11:20:58.854Z</time></trkpt><trkpt lat="43.7714397" lon="11.429335"><ele>82.5</ele><time>2026-04-11T11:20:59.838Z</time></trkpt><trkpt lat="43.7714216" lon="11.4295324"><ele>82.25</ele><time>2026-04-11T11:21:00.844Z</time></trkpt><trkpt lat="43.7714063" lon="11.4297225"><ele>82.0</ele><time>2026-04-11T11:21:01.845Z</time></trkpt><trkpt lat="43.7713929" lon="11.4298972"><ele>82.39999999999999</ele><time>2026-04-11T11:21:02.854Z</time></trkpt><trkpt lat="43.7713838" lon="11.4300553"><ele>82.8</ele><time>2026-04-11T11:21:03.863Z</time></trkpt><trkpt lat="43.7713692" lon="11.43019"><ele>83.2</ele><time>2026-04-11T11:21:04.849Z</time></trkpt><trkpt lat="43.7713557" lon="11.4303166"><ele>83.6</ele><time>2026-04-11T11:21:05.833Z</time></trkpt><trkpt lat="43.7713337" lon="11.4304301"><ele>84.0</ele><time>2026-04-11T11:21:06.857Z</time></trkpt><trkpt lat="43.7713139" lon="11.4305378"><ele>84.0</ele><time>2026-04-11T11:21:07.852Z</time></trkpt><trkpt lat="43.7712969" lon="11.4306518"><ele>84.0</ele><time>2026-04-11T11:21:08.846Z</time></trkpt><trkpt lat="43.7712942" lon="11.4307695"><ele>84.0</ele><time>2026-04-11T11:21:09.829Z</time></trkpt><trkpt lat="43.7713166" lon="11.4308996"><ele>84.0</ele><time>2026-04-11T11:21:10.821Z</time></trkpt><trkpt lat="43.7713249" lon="11.4310498"><ele>84.0</ele><time>2026-04-11T11:21:11.834Z</time></trkpt><trkpt lat="43.7713176" lon="11.4312082"><ele>84.0</ele><time>2026-04-11T11:21:12.836Z</time></trkpt><trkpt lat="43.7712953" lon="11.4313597"><ele>84.0</ele><time>2026-04-11T11:21:13.821Z</time></trkpt><trkpt lat="43.7712756" lon="11.4315261"><ele>84.0</ele><time>2026-04-11T11:21:14.861Z</time></trkpt><trkpt lat="43.7712516" lon="11.4316879"><ele>84.0</ele><time>2026-04-11T11:21:15.82Z</time></trkpt><trkpt lat="43.7712347" lon="11.4318464"><ele>84.0</ele><time>2026-04-11T11:21:16.829Z</time></trkpt><trkpt lat="43.7712243" lon="11.4320095"><ele>84.0</ele><time>2026-04-11T11:21:17.823Z</time></trkpt><trkpt lat="43.7712103" lon="11.4321719"><ele>84.0</ele><time>2026-04-11T11:21:18.824Z</time></trkpt><trkpt lat="43.7711858" lon="11.4323405"><ele>84.0</ele><time>2026-04-11T11:21:19.84Z</time></trkpt><trkpt lat="43.7711695" lon="11.4325024"><ele>84.25</ele><time>2026-04-11T11:21:20.84Z</time></trkpt><trkpt lat="43.771151" lon="11.4326724"><ele>84.5</ele><time>2026-04-11T11:21:21.83Z</time></trkpt><trkpt lat="43.7711355" lon="11.4328401"><ele>84.75</ele><time>2026-04-11T11:21:22.827Z</time></trkpt><trkpt lat="43.7711228" lon="11.4330071"><ele>85.0</ele><time>2026-04-11T11:21:23.82Z</time></trkpt><trkpt lat="43.7711074" lon="11.4331722"><ele>85.0</ele><time>2026-04-11T11:21:24.833Z</time></trkpt><trkpt lat="43.7710946" lon="11.4333328"><ele>85.0</ele><time>2026-04-11T11:21:25.832Z</time></trkpt><trkpt lat="43.7710779" lon="11.4334894"><ele>85.0</ele><time>2026-04-11T11:21:26.834Z</time></trkpt><trkpt lat="43.7710639" lon="11.4336531"><ele>85.0</ele><time>2026-04-11T11:21:27.83Z</time></trkpt><trkpt lat="43.771049" lon="11.4338221"><ele>85.0</ele><time>2026-04-11T11:21:28.827Z</time></trkpt><trkpt lat="43.7710301" lon="11.4339911"><ele>85.0</ele><time>2026-04-11T11:21:29.821Z</time></trkpt><trkpt lat="43.7710106" lon="11.4341581"><ele>85.0</ele><time>2026-04-11T11:21:30.839Z</time></trkpt><trkpt lat="43.7709921" lon="11.4343187"><ele>85.0</ele><time>2026-04-11T11:21:31.836Z</time></trkpt><trkpt lat="43.7709702" lon="11.4344801"><ele>85.0</ele><time>2026-04-11T11:21:32.838Z</time></trkpt><trkpt lat="43.7709525" lon="11.4346351"><ele>85.0</ele><time>2026-04-11T11:21:33.846Z</time></trkpt><trkpt lat="43.7709396" lon="11.4347949"><ele>85.0</ele><time>2026-04-11T11:21:34.855Z</time></trkpt><trkpt lat="43.7709263" lon="11.434943"><ele>85.0</ele><time>2026-04-11T11:21:35.848Z</time></trkpt><trkpt lat="43.7709193" lon="11.4350826"><ele>85.0</ele><time>2026-04-11T11:21:36.845Z</time></trkpt><trkpt lat="43.7709094" lon="11.4352091"><ele>85.0</ele><time>2026-04-11T11:21:37.837Z</time></trkpt><trkpt lat="43.7708991" lon="11.4353309"><ele>85.0</ele><time>2026-04-11T11:21:38.834Z</time></trkpt><trkpt lat="43.7708867" lon="11.4354509"><ele>85.0</ele><time>2026-04-11T11:21:39.834Z</time></trkpt><trkpt lat="43.7708721" lon="11.4355768"><ele>85.0</ele><time>2026-04-11T11:21:40.844Z</time></trkpt><trkpt lat="43.7708574" lon="11.4357055"><ele>85.0</ele><time>2026-04-11T11:21:41.837Z</time></trkpt><trkpt lat="43.7708409" lon="11.4358319"><ele>85.0</ele><time>2026-04-11T11:21:42.849Z</time></trkpt><trkpt lat="43.7708304" lon="11.4359543"><ele>85.0</ele><time>2026-04-11T11:21:43.84Z</time></trkpt><trkpt lat="43.7708203" lon="11.4360628"><ele>85.0</ele><time>2026-04-11T11:21:44.844Z</time></trkpt><trkpt lat="43.7708125" lon="11.4361527"><ele>85.0</ele><time>2026-04-11T11:21:45.833Z</time></trkpt><trkpt lat="43.7707995" lon="11.4362458"><ele>85.0</ele><time>2026-04-11T11:21:46.843Z</time></trkpt><trkpt lat="43.7707897" lon="11.4363388"><ele>85.0</ele><time>2026-04-11T11:21:47.846Z</time></trkpt><trkpt lat="43.7707779" lon="11.4364337"><ele>85.0</ele><time>2026-04-11T11:21:48.842Z</time></trkpt><trkpt lat="43.7707579" lon="11.4366101"><ele>85.2</ele><time>2026-04-11T11:21:50.836Z</time></trkpt><trkpt lat="43.7707206" lon="11.4367318"><ele>85.4</ele><time>2026-04-11T11:21:52.836Z</time></trkpt><trkpt lat="43.7707045" lon="11.4368679"><ele>85.6</ele><time>2026-04-11T11:21:54.851Z</time></trkpt><trkpt lat="43.7708042" lon="11.4369169"><ele>85.8</ele><time>2026-04-11T11:21:56.838Z</time></trkpt><trkpt lat="43.7708833" lon="11.43694"><ele>86.0</ele><time>2026-04-11T11:21:57.839Z</time></trkpt><trkpt lat="43.7709571" lon="11.4369814"><ele>86.0</ele><time>2026-04-11T11:21:58.842Z</time></trkpt><trkpt lat="43.7710008" lon="11.4370661"><ele>86.0</ele><time>2026-04-11T11:21:59.843Z</time></trkpt><trkpt lat="43.7710084" lon="11.437193"><ele>86.0</ele><time>2026-04-11T11:22:00.845Z</time></trkpt><trkpt lat="43.7710125" lon="11.4373161"><ele>86.0</ele><time>2026-04-11T11:22:01.836Z</time></trkpt><trkpt lat="43.7710009" lon="11.4374402"><ele>86.0</ele><time>2026-04-11T11:22:02.833Z</time></trkpt><trkpt lat="43.7709787" lon="11.4375529"><ele>86.0</ele><time>2026-04-11T11:22:03.847Z</time></trkpt><trkpt lat="43.7709669" lon="11.4376597"><ele>86.0</ele><time>2026-04-11T11:22:04.858Z</time></trkpt><trkpt lat="43.7709552" lon="11.4377525"><ele>86.0</ele><time>2026-04-11T11:22:05.831Z</time></trkpt><trkpt lat="43.770944" lon="11.4378416"><ele>86.0</ele><time>2026-04-11T11:22:06.838Z</time></trkpt><trkpt lat="43.7709243" lon="11.4379369"><ele>86.0</ele><time>2026-04-11T11:22:07.846Z</time></trkpt><trkpt lat="43.7708873" lon="11.4380287"><ele>86.0</ele><time>2026-04-11T11:22:08.831Z</time></trkpt><trkpt lat="43.7708534" lon="11.4381096"><ele>86.0</ele><time>2026-04-11T11:22:09.854Z</time></trkpt><trkpt lat="43.770846" lon="11.4382747"><ele>85.6</ele><time>2026-04-11T11:22:11.855Z</time></trkpt><trkpt lat="43.7709258" lon="11.438332"><ele>85.19999999999999</ele><time>2026-04-11T11:22:13.828Z</time></trkpt><trkpt lat="43.7710024" lon="11.4382813"><ele>84.80000000000001</ele><time>2026-04-11T11:22:15.841Z</time></trkpt><trkpt lat="43.7710027" lon="11.4381399"><ele>84.4</ele><time>2026-04-11T11:22:17.832Z</time></trkpt><trkpt lat="43.770904" lon="11.438083"><ele>84.0</ele><time>2026-04-11T11:22:19.834Z</time></trkpt><trkpt lat="43.7708344" lon="11.4381019"><ele>84.0</ele><time>2026-04-11T11:22:20.831Z</time></trkpt><trkpt lat="43.7707682" lon="11.4381546"><ele>84.0</ele><time>2026-04-11T11:22:21.839Z</time></trkpt><trkpt lat="43.7707209" lon="11.4382487"><ele>84.0</ele><time>2026-04-11T11:22:22.848Z</time></trkpt><trkpt lat="43.7706903" lon="11.4383483"><ele>84.0</ele><time>2026-04-11T11:22:23.839Z</time></trkpt><trkpt lat="43.7706691" lon="11.4384419"><ele>84.0</ele><time>2026-04-11T11:22:24.849Z</time></trkpt><trkpt lat="43.7706638" lon="11.4385309"><ele>84.0</ele><time>2026-04-11T11:22:25.846Z</time></trkpt><trkpt lat="43.7706639" lon="11.4386243"><ele>84.0</ele><time>2026-04-11T11:22:26.836Z</time></trkpt><trkpt lat="43.7706136" lon="11.4388543"><ele>84.0</ele><time>2026-04-11T11:22:28.841Z</time></trkpt><trkpt lat="43.7705644" lon="11.4389858"><ele>84.0</ele><time>2026-04-11T11:22:29.835Z</time></trkpt><trkpt lat="43.7704882" lon="11.4391024"><ele>84.0</ele><time>2026-04-11T11:22:30.833Z</time></trkpt><trkpt lat="43.7704036" lon="11.4391988"><ele>84.0</ele><time>2026-04-11T11:22:31.832Z</time></trkpt><trkpt lat="43.7703123" lon="11.4392614"><ele>84.0</ele><time>2026-04-11T11:22:32.836Z</time></trkpt><trkpt lat="43.7702254" lon="11.4393118"><ele>83.33333333333333</ele><time>2026-04-11T11:22:33.843Z</time></trkpt><trkpt lat="43.7701466" lon="11.439363"><ele>82.66666666666667</ele><time>2026-04-11T11:22:34.823Z</time></trkpt><trkpt lat="43.7700867" lon="11.4394028"><ele>82.0</ele><time>2026-04-11T11:22:35.841Z</time></trkpt><trkpt lat="43.7700267" lon="11.4394599"><ele>81.33333333333334</ele><time>2026-04-11T11:22:37.841Z</time></trkpt><trkpt lat="43.7700053" lon="11.4396209"><ele>80.66666666666667</ele><time>2026-04-11T11:22:41.843Z</time></trkpt><trkpt lat="43.7700318" lon="11.4397523"><ele>80.0</ele><time>2026-04-11T11:22:42.837Z</time></trkpt><trkpt lat="43.770095" lon="11.4399"><ele>80.0</ele><time>2026-04-11T11:22:43.846Z</time></trkpt><trkpt lat="43.7701565" lon="11.4400421"><ele>80.0</ele><time>2026-04-11T11:22:44.847Z</time></trkpt><trkpt lat="43.770228" lon="11.4401819"><ele>80.0</ele><time>2026-04-11T11:22:45.836Z</time></trkpt><trkpt lat="43.7702986" lon="11.4403197"><ele>80.0</ele><time>2026-04-11T11:22:46.842Z</time></trkpt><trkpt lat="43.7703786" lon="11.4404482"><ele>80.0</ele><time>2026-04-11T11:22:47.831Z</time></trkpt><trkpt lat="43.7704624" lon="11.4405514"><ele>80.0</ele><time>2026-04-11T11:22:48.83Z</time></trkpt><trkpt lat="43.7705615" lon="11.4406471"><ele>80.0</ele><time>2026-04-11T11:22:49.843Z</time></trkpt><trkpt lat="43.770657" lon="11.4407275"><ele>80.0</ele><time>2026-04-11T11:22:50.836Z</time></trkpt><trkpt lat="43.7707475" lon="11.4407881"><ele>80.0</ele><time>2026-04-11T11:22:51.838Z</time></trkpt><trkpt lat="43.7708395" lon="11.440844"><ele>80.0</ele><time>2026-04-11T11:22:52.849Z</time></trkpt><trkpt lat="43.7709277" lon="11.4408977"><ele>80.0</ele><time>2026-04-11T11:22:53.843Z</time></trkpt><trkpt lat="43.7710075" lon="11.4409729"><ele>80.0</ele><time>2026-04-11T11:22:54.848Z</time></trkpt><trkpt lat="43.7710888" lon="11.4410221"><ele>80.0</ele><time>2026-04-11T11:22:55.834Z</time></trkpt><trkpt lat="43.7711564" lon="11.441062"><ele>80.0</ele><time>2026-04-11T11:22:56.832Z</time></trkpt><trkpt lat="43.7712244" lon="11.4410988"><ele>80.0</ele><time>2026-04-11T11:22:57.848Z</time></trkpt><trkpt lat="43.7712951" lon="11.4411255"><ele>80.6</ele><time>2026-04-11T11:22:58.839Z</time></trkpt><trkpt lat="43.7713686" lon="11.441157"><ele>81.2</ele><time>2026-04-11T11:22:59.841Z</time></trkpt><trkpt lat="43.7714541" lon="11.4411809"><ele>81.80000000000001</ele><time>2026-04-11T11:23:00.849Z</time></trkpt><trkpt lat="43.7715396" lon="11.4412122"><ele>82.4</ele><time>2026-04-11T11:23:01.843Z</time></trkpt><trkpt lat="43.7716344" lon="11.4412446"><ele>83.0</ele><time>2026-04-11T11:23:02.844Z</time></trkpt><trkpt lat="43.7717391" lon="11.4412791"><ele>83.2</ele><time>2026-04-11T11:23:03.835Z</time></trkpt><trkpt lat="43.7718421" lon="11.4413229"><ele>83.4</ele><time>2026-04-11T11:23:04.834Z</time></trkpt><trkpt lat="43.7719495" lon="11.4413677"><ele>83.60000000000001</ele><time>2026-04-11T11:23:05.828Z</time></trkpt><trkpt lat="43.7720584" lon="11.4414103"><ele>83.80000000000001</ele><time>2026-04-11T11:23:06.827Z</time></trkpt><trkpt lat="43.7721687" lon="11.4414575"><ele>84.0</ele><time>2026-04-11T11:23:07.828Z</time></trkpt><trkpt lat="43.7722741" lon="11.4415101"><ele>84.0</ele><time>2026-04-11T11:23:08.826Z</time></trkpt><trkpt lat="43.7723776" lon="11.4415655"><ele>84.0</ele><time>2026-04-11T11:23:09.841Z</time></trkpt><trkpt lat="43.7724782" lon="11.4416106"><ele>84.0</ele><time>2026-04-11T11:23:10.835Z</time></trkpt><trkpt lat="43.7725719" lon="11.4416588"><ele>84.0</ele><time>2026-04-11T11:23:11.834Z</time></trkpt><trkpt lat="43.772668" lon="11.4416917"><ele>84.0</ele><time>2026-04-11T11:23:12.83Z</time></trkpt><trkpt lat="43.7727686" lon="11.4417531"><ele>84.0</ele><time>2026-04-11T11:23:13.844Z</time></trkpt><trkpt lat="43.772878" lon="11.4418069"><ele>84.0</ele><time>2026-04-11T11:23:14.835Z</time></trkpt><trkpt lat="43.7729876" lon="11.4418533"><ele>84.0</ele><time>2026-04-11T11:23:15.836Z</time></trkpt><trkpt lat="43.7730902" lon="11.4419032"><ele>84.0</ele><time>2026-04-11T11:23:16.845Z</time></trkpt><trkpt lat="43.7732022" lon="11.441954"><ele>84.0</ele><time>2026-04-11T11:23:17.834Z</time></trkpt><trkpt lat="43.7733173" lon="11.442004"><ele>84.0</ele><time>2026-04-11T11:23:18.838Z</time></trkpt><trkpt lat="43.7734267" lon="11.442054"><ele>84.0</ele><time>2026-04-11T11:23:19.834Z</time></trkpt><trkpt lat="43.7735391" lon="11.4421004"><ele>84.0</ele><time>2026-04-11T11:23:20.839Z</time></trkpt><trkpt lat="43.7736493" lon="11.4421441"><ele>83.6</ele><time>2026-04-11T11:23:21.839Z</time></trkpt><trkpt lat="43.7737606" lon="11.4421944"><ele>83.2</ele><time>2026-04-11T11:23:22.837Z</time></trkpt><trkpt lat="43.7738686" lon="11.4421737"><ele>82.8</ele><time>2026-04-11T11:23:23.832Z</time></trkpt><trkpt lat="43.7739105" lon="11.4420944"><ele>82.39999999999999</ele><time>2026-04-11T11:23:24.827Z</time></trkpt><trkpt lat="43.7739396" lon="11.4420002"><ele>82.0</ele><time>2026-04-11T11:23:25.834Z</time></trkpt><trkpt lat="43.7739456" lon="11.4418909"><ele>83.0</ele><time>2026-04-11T11:23:26.83Z</time></trkpt><trkpt lat="43.7739733" lon="11.4417786"><ele>84.0</ele><time>2026-04-11T11:23:27.836Z</time></trkpt><trkpt lat="43.7739936" lon="11.4416855"><ele>85.0</ele><time>2026-04-11T11:23:28.845Z</time></trkpt><trkpt lat="43.774019" lon="11.4415842"><ele>86.0</ele><time>2026-04-11T11:23:29.83Z</time></trkpt><trkpt lat="43.7740488" lon="11.4414553"><ele>87.0</ele><time>2026-04-11T11:23:30.839Z</time></trkpt><trkpt lat="43.7740789" lon="11.4413141"><ele>88.0</ele><time>2026-04-11T11:23:31.838Z</time></trkpt><trkpt lat="43.7741117" lon="11.4411633"><ele>88.4</ele><time>2026-04-11T11:23:32.841Z</time></trkpt><trkpt lat="43.7741472" lon="11.4409989"><ele>88.80000000000001</ele><time>2026-04-11T11:23:33.842Z</time></trkpt><trkpt lat="43.7741861" lon="11.4408377"><ele>89.2</ele><time>2026-04-11T11:23:34.842Z</time></trkpt><trkpt lat="43.7742072" lon="11.4407029"><ele>89.6</ele><time>2026-04-11T11:23:35.829Z</time></trkpt><trkpt lat="43.7742198" lon="11.4406172"><ele>90.0</ele><time>2026-04-11T11:23:36.829Z</time></trkpt><trkpt lat="43.7742677" lon="11.440492"><ele>91.0</ele><time>2026-04-11T11:23:38.833Z</time></trkpt><trkpt lat="43.7744062" lon="11.4405373"><ele>92.0</ele><time>2026-04-11T11:23:40.829Z</time></trkpt><trkpt lat="43.7744907" lon="11.4405539"><ele>93.0</ele><time>2026-04-11T11:23:41.847Z</time></trkpt><trkpt lat="43.7745661" lon="11.4405658"><ele>94.0</ele><time>2026-04-11T11:23:42.839Z</time></trkpt><trkpt lat="43.7746477" lon="11.4405556"><ele>95.0</ele><time>2026-04-11T11:23:44.831Z</time></trkpt><trkpt lat="43.7747009" lon="11.4406196"><ele>95.0</ele><time>2026-04-11T11:23:49.837Z</time></trkpt><trkpt lat="43.7747738" lon="11.440753"><ele>95.0</ele><time>2026-04-11T11:23:51.827Z</time></trkpt><trkpt lat="43.7748331" lon="11.4408428"><ele>95.0</ele><time>2026-04-11T11:23:52.834Z</time></trkpt><trkpt lat="43.7749017" lon="11.440949"><ele>95.0</ele><time>2026-04-11T11:23:53.835Z</time></trkpt><trkpt lat="43.7749802" lon="11.4410544"><ele>95.0</ele><time>2026-04-11T11:23:54.838Z</time></trkpt><trkpt lat="43.7750553" lon="11.4411756"><ele>95.25</ele><time>2026-04-11T11:23:55.84Z</time></trkpt><trkpt lat="43.7751346" lon="11.4413048"><ele>95.5</ele><time>2026-04-11T11:23:56.829Z</time></trkpt><trkpt lat="43.7752154" lon="11.4414367"><ele>95.75</ele><time>2026-04-11T11:23:57.84Z</time></trkpt><trkpt lat="43.7753042" lon="11.441552"><ele>96.0</ele><time>2026-04-11T11:23:58.843Z</time></trkpt><trkpt lat="43.7753906" lon="11.4416769"><ele>96.0</ele><time>2026-04-11T11:23:59.831Z</time></trkpt><trkpt lat="43.7754792" lon="11.4417933"><ele>96.0</ele><time>2026-04-11T11:24:00.832Z</time></trkpt><trkpt lat="43.775554" lon="11.4419124"><ele>96.0</ele><time>2026-04-11T11:24:01.828Z</time></trkpt><trkpt lat="43.7756095" lon="11.4420612"><ele>96.0</ele><time>2026-04-11T11:24:02.836Z</time></trkpt><trkpt lat="43.7756144" lon="11.4422364"><ele>93.5</ele><time>2026-04-11T11:24:03.84Z</time></trkpt><trkpt lat="43.7755916" lon="11.4423873"><ele>91.0</ele><time>2026-04-11T11:24:04.831Z</time></trkpt><trkpt lat="43.7755738" lon="11.4425361"><ele>88.5</ele><time>2026-04-11T11:24:05.834Z</time></trkpt><trkpt lat="43.7755515" lon="11.4427048"><ele>86.0</ele><time>2026-04-11T11:24:06.828Z</time></trkpt><trkpt lat="43.7755142" lon="11.4428555"><ele>85.5</ele><time>2026-04-11T11:24:07.841Z</time></trkpt><trkpt lat="43.7754858" lon="11.443009"><ele>85.0</ele><time>2026-04-11T11:24:08.832Z</time></trkpt><trkpt lat="43.7754523" lon="11.4431648"><ele>84.5</ele><time>2026-04-11T11:24:09.828Z</time></trkpt><trkpt lat="43.7754166" lon="11.4433269"><ele>84.0</ele><time>2026-04-11T11:24:10.827Z</time></trkpt><trkpt lat="43.7753802" lon="11.4434843"><ele>84.0</ele><time>2026-04-11T11:24:11.841Z</time></trkpt><trkpt lat="43.7753501" lon="11.4436424"><ele>84.0</ele><time>2026-04-11T11:24:12.838Z</time></trkpt><trkpt lat="43.7753236" lon="11.443815"><ele>84.0</ele><time>2026-04-11T11:24:13.831Z</time></trkpt><trkpt lat="43.7752989" lon="11.4439973"><ele>84.0</ele><time>2026-04-11T11:24:14.844Z</time></trkpt><trkpt lat="43.7752794" lon="11.4441843"><ele>85.25</ele><time>2026-04-11T11:24:15.839Z</time></trkpt><trkpt lat="43.7752758" lon="11.4443748"><ele>86.5</ele><time>2026-04-11T11:24:16.832Z</time></trkpt><trkpt lat="43.775298" lon="11.4445701"><ele>87.75</ele><time>2026-04-11T11:24:17.83Z</time></trkpt><trkpt lat="43.7753273" lon="11.4447596"><ele>89.0</ele><time>2026-04-11T11:24:18.839Z</time></trkpt><trkpt lat="43.7753625" lon="11.4449365"><ele>89.25</ele><time>2026-04-11T11:24:19.832Z</time></trkpt><trkpt lat="43.77541" lon="11.4451118"><ele>89.5</ele><time>2026-04-11T11:24:20.835Z</time></trkpt><trkpt lat="43.7754732" lon="11.4452781"><ele>89.75</ele><time>2026-04-11T11:24:21.827Z</time></trkpt><trkpt lat="43.7755516" lon="11.4454268"><ele>90.0</ele><time>2026-04-11T11:24:22.828Z</time></trkpt><trkpt lat="43.7756408" lon="11.4455579"><ele>90.0</ele><time>2026-04-11T11:24:23.836Z</time></trkpt><trkpt lat="43.7757377" lon="11.44567"><ele>90.0</ele><time>2026-04-11T11:24:24.844Z</time></trkpt><trkpt lat="43.7758448" lon="11.4457738"><ele>90.0</ele><time>2026-04-11T11:24:25.833Z</time></trkpt><trkpt lat="43.7759575" lon="11.4458593"><ele>90.0</ele><time>2026-04-11T11:24:26.833Z</time></trkpt><trkpt lat="43.7760774" lon="11.4459332"><ele>90.75</ele><time>2026-04-11T11:24:27.837Z</time></trkpt><trkpt lat="43.7762115" lon="11.446005"><ele>91.5</ele><time>2026-04-11T11:24:28.834Z</time></trkpt><trkpt lat="43.7763446" lon="11.4460645"><ele>92.25</ele><time>2026-04-11T11:24:29.836Z</time></trkpt><trkpt lat="43.7764727" lon="11.4461094"><ele>93.0</ele><time>2026-04-11T11:24:30.844Z</time></trkpt><trkpt lat="43.7765991" lon="11.4461576"><ele>93.0</ele><time>2026-04-11T11:24:31.837Z</time></trkpt><trkpt lat="43.7767123" lon="11.4461935"><ele>93.0</ele><time>2026-04-11T11:24:32.833Z</time></trkpt><trkpt lat="43.7768097" lon="11.4462432"><ele>93.0</ele><time>2026-04-11T11:24:33.843Z</time></trkpt><trkpt lat="43.7768914" lon="11.4463049"><ele>93.0</ele><time>2026-04-11T11:24:34.856Z</time></trkpt><trkpt lat="43.7769307" lon="11.4463909"><ele>93.0</ele><time>2026-04-11T11:24:35.833Z</time></trkpt><trkpt lat="43.7769753" lon="11.4464768"><ele>93.5</ele><time>2026-04-11T11:24:36.841Z</time></trkpt><trkpt lat="43.7770266" lon="11.4465495"><ele>94.0</ele><time>2026-04-11T11:24:37.833Z</time></trkpt><trkpt lat="43.7770957" lon="11.4465552"><ele>94.5</ele><time>2026-04-11T11:24:38.828Z</time></trkpt><trkpt lat="43.7771797" lon="11.446512"><ele>95.0</ele><time>2026-04-11T11:24:39.833Z</time></trkpt><trkpt lat="43.7772612" lon="11.4464577"><ele>95.5</ele><time>2026-04-11T11:24:40.825Z</time></trkpt><trkpt lat="43.7773629" lon="11.4464415"><ele>96.0</ele><time>2026-04-11T11:24:41.835Z</time></trkpt><trkpt lat="43.7774581" lon="11.4464417"><ele>96.0</ele><time>2026-04-11T11:24:42.828Z</time></trkpt><trkpt lat="43.7775658" lon="11.4464665"><ele>96.0</ele><time>2026-04-11T11:24:43.837Z</time></trkpt><trkpt lat="43.777677" lon="11.4464947"><ele>96.0</ele><time>2026-04-11T11:24:44.837Z</time></trkpt><trkpt lat="43.7777941" lon="11.4465399"><ele>96.0</ele><time>2026-04-11T11:24:45.831Z</time></trkpt><trkpt lat="43.7779246" lon="11.4465871"><ele>95.8</ele><time>2026-04-11T11:24:46.849Z</time></trkpt><trkpt lat="43.7780431" lon="11.4466338"><ele>95.6</ele><time>2026-04-11T11:24:47.829Z</time></trkpt><trkpt lat="43.7781466" lon="11.4466714"><ele>95.4</ele><time>2026-04-11T11:24:48.838Z</time></trkpt><trkpt lat="43.7782458" lon="11.4467113"><ele>95.2</ele><time>2026-04-11T11:24:49.838Z</time></trkpt><trkpt lat="43.7783464" lon="11.4467433"><ele>95.0</ele><time>2026-04-11T11:24:50.829Z</time></trkpt><trkpt lat="43.7784469" lon="11.4467652"><ele>94.66666666666667</ele><time>2026-04-11T11:24:51.841Z</time></trkpt><trkpt lat="43.7785447" lon="11.4467984"><ele>94.33333333333334</ele><time>2026-04-11T11:24:52.838Z</time></trkpt><trkpt lat="43.7786392" lon="11.4468229"><ele>94.0</ele><time>2026-04-11T11:24:53.838Z</time></trkpt><trkpt lat="43.7787184" lon="11.4468567"><ele>93.66666666666667</ele><time>2026-04-11T11:24:54.834Z</time></trkpt><trkpt lat="43.7787927" lon="11.4468908"><ele>93.33333333333333</ele><time>2026-04-11T11:24:55.831Z</time></trkpt><trkpt lat="43.7788597" lon="11.4469485"><ele>93.0</ele><time>2026-04-11T11:24:56.842Z</time></trkpt><trkpt lat="43.7789217" lon="11.4470322"><ele>93.0</ele><time>2026-04-11T11:24:57.834Z</time></trkpt><trkpt lat="43.7789893" lon="11.4471217"><ele>93.0</ele><time>2026-04-11T11:24:58.829Z</time></trkpt><trkpt lat="43.7790423" lon="11.4471983"><ele>93.0</ele><time>2026-04-11T11:24:59.835Z</time></trkpt><trkpt lat="43.7790811" lon="11.4472934"><ele>93.0</ele><time>2026-04-11T11:25:00.845Z</time></trkpt><trkpt lat="43.7791122" lon="11.4474095"><ele>93.0</ele><time>2026-04-11T11:25:01.836Z</time></trkpt><trkpt lat="43.7791464" lon="11.4475543"><ele>93.0</ele><time>2026-04-11T11:25:02.834Z</time></trkpt><trkpt lat="43.7791864" lon="11.4477119"><ele>94.0</ele><time>2026-04-11T11:25:03.834Z</time></trkpt><trkpt lat="43.7792239" lon="11.4478717"><ele>95.0</ele><time>2026-04-11T11:25:04.837Z</time></trkpt><trkpt lat="43.7792706" lon="11.4480096"><ele>96.0</ele><time>2026-04-11T11:25:05.835Z</time></trkpt><trkpt lat="43.7793323" lon="11.4481547"><ele>97.0</ele><time>2026-04-11T11:25:06.836Z</time></trkpt><trkpt lat="43.7793944" lon="11.4482908"><ele>97.0</ele><time>2026-04-11T11:25:07.833Z</time></trkpt><trkpt lat="43.7794476" lon="11.4484116"><ele>97.0</ele><time>2026-04-11T11:25:08.839Z</time></trkpt><trkpt lat="43.7795157" lon="11.4485157"><ele>97.0</ele><time>2026-04-11T11:25:09.844Z</time></trkpt><trkpt lat="43.7795904" lon="11.448607"><ele>97.0</ele><time>2026-04-11T11:25:10.825Z</time></trkpt><trkpt lat="43.7796707" lon="11.4487037"><ele>97.0</ele><time>2026-04-11T11:25:11.828Z</time></trkpt><trkpt lat="43.7797385" lon="11.448813"><ele>100.6</ele><time>2026-04-11T11:25:12.833Z</time></trkpt><trkpt lat="43.7797899" lon="11.4489324"><ele>104.19999999999999</ele><time>2026-04-11T11:25:13.831Z</time></trkpt><trkpt lat="43.7798488" lon="11.4490447"><ele>107.8</ele><time>2026-04-11T11:25:14.826Z</time></trkpt><trkpt lat="43.7799105" lon="11.4491498"><ele>111.4</ele><time>2026-04-11T11:25:15.834Z</time></trkpt><trkpt lat="43.7799813" lon="11.4492615"><ele>115.0</ele><time>2026-04-11T11:25:16.842Z</time></trkpt><trkpt lat="43.7800628" lon="11.4493589"><ele>115.0</ele><time>2026-04-11T11:25:17.836Z</time></trkpt><trkpt lat="43.7801485" lon="11.4494434"><ele>115.0</ele><time>2026-04-11T11:25:18.829Z</time></trkpt><trkpt lat="43.7802448" lon="11.4495284"><ele>115.0</ele><time>2026-04-11T11:25:19.832Z</time></trkpt><trkpt lat="43.780337" lon="11.4496119"><ele>115.0</ele><time>2026-04-11T11:25:20.828Z</time></trkpt><trkpt lat="43.780419" lon="11.4496969"><ele>115.0</ele><time>2026-04-11T11:25:21.828Z</time></trkpt><trkpt lat="43.7804914" lon="11.449797"><ele>115.4</ele><time>2026-04-11T11:25:22.83Z</time></trkpt><trkpt lat="43.7805637" lon="11.4498975"><ele>115.8</ele><time>2026-04-11T11:25:23.827Z</time></trkpt><trkpt lat="43.7806257" lon="11.4500008"><ele>116.19999999999999</ele><time>2026-04-11T11:25:24.818Z</time></trkpt><trkpt lat="43.7806783" lon="11.4501126"><ele>116.6</ele><time>2026-04-11T11:25:25.833Z</time></trkpt><trkpt lat="43.780727" lon="11.4502222"><ele>117.0</ele><time>2026-04-11T11:25:26.844Z</time></trkpt><trkpt lat="43.7807699" lon="11.450337"><ele>117.0</ele><time>2026-04-11T11:25:27.827Z</time></trkpt><trkpt lat="43.7807993" lon="11.4504478"><ele>117.0</ele><time>2026-04-11T11:25:28.827Z</time></trkpt><trkpt lat="43.7808138" lon="11.4505582"><ele>117.0</ele><time>2026-04-11T11:25:29.824Z</time></trkpt><trkpt lat="43.7808151" lon="11.4506662"><ele>117.0</ele><time>2026-04-11T11:25:30.824Z</time></trkpt><trkpt lat="43.7807983" lon="11.4507724"><ele>117.0</ele><time>2026-04-11T11:25:31.828Z</time></trkpt><trkpt lat="43.7807571" lon="11.4508725"><ele>117.0</ele><time>2026-04-11T11:25:32.836Z</time></trkpt><trkpt lat="43.7807032" lon="11.4509674"><ele>120.0</ele><time>2026-04-11T11:25:33.841Z</time></trkpt><trkpt lat="43.7806423" lon="11.4510732"><ele>122.99999999999999</ele><time>2026-04-11T11:25:34.838Z</time></trkpt><trkpt lat="43.7805703" lon="11.4511847"><ele>125.99999999999999</ele><time>2026-04-11T11:25:35.83Z</time></trkpt><trkpt lat="43.7805081" lon="11.4513084"><ele>129.0</ele><time>2026-04-11T11:25:36.863Z</time></trkpt><trkpt lat="43.7804573" lon="11.4514476"><ele>132.0</ele><time>2026-04-11T11:25:37.831Z</time></trkpt><trkpt lat="43.7804072" lon="11.4515906"><ele>132.25</ele><time>2026-04-11T11:25:38.839Z</time></trkpt><trkpt lat="43.7803614" lon="11.4517426"><ele>132.5</ele><time>2026-04-11T11:25:39.839Z</time></trkpt><trkpt lat="43.7803282" lon="11.4518955"><ele>132.75</ele><time>2026-04-11T11:25:40.835Z</time></trkpt><trkpt lat="43.7803008" lon="11.4520521"><ele>133.0</ele><time>2026-04-11T11:25:41.837Z</time></trkpt><trkpt lat="43.7802792" lon="11.4522204"><ele>133.5</ele><time>2026-04-11T11:25:42.826Z</time></trkpt><trkpt lat="43.7802637" lon="11.4523847"><ele>134.0</ele><time>2026-04-11T11:25:43.83Z</time></trkpt><trkpt lat="43.7802497" lon="11.452543"><ele>134.5</ele><time>2026-04-11T11:25:44.831Z</time></trkpt><trkpt lat="43.7802352" lon="11.452698"><ele>135.0</ele><time>2026-04-11T11:25:45.837Z</time></trkpt><trkpt lat="43.780215" lon="11.4528591"><ele>136.75</ele><time>2026-04-11T11:25:46.831Z</time></trkpt><trkpt lat="43.7801905" lon="11.4530189"><ele>138.5</ele><time>2026-04-11T11:25:47.831Z</time></trkpt><trkpt lat="43.7801616" lon="11.4531833"><ele>140.25</ele><time>2026-04-11T11:25:48.836Z</time></trkpt><trkpt lat="43.7801327" lon="11.4533524"><ele>142.0</ele><time>2026-04-11T11:25:49.834Z</time></trkpt><trkpt lat="43.7801033" lon="11.4535134"><ele>148.25</ele><time>2026-04-11T11:25:50.844Z</time></trkpt><trkpt lat="43.7800763" lon="11.4536722"><ele>154.5</ele><time>2026-04-11T11:25:51.83Z</time></trkpt><trkpt lat="43.7800459" lon="11.4538268"><ele>160.75</ele><time>2026-04-11T11:25:52.839Z</time></trkpt><trkpt lat="43.7800136" lon="11.4539867"><ele>167.0</ele><time>2026-04-11T11:25:53.829Z</time></trkpt><trkpt lat="43.7799713" lon="11.4541374"><ele>168.25</ele><time>2026-04-11T11:25:54.839Z</time></trkpt><trkpt lat="43.7799259" lon="11.4542947"><ele>169.5</ele><time>2026-04-11T11:25:55.826Z</time></trkpt><trkpt lat="43.7798808" lon="11.4544508"><ele>170.75</ele><time>2026-04-11T11:25:56.84Z</time></trkpt><trkpt lat="43.7798304" lon="11.4546043"><ele>172.0</ele><time>2026-04-11T11:25:57.828Z</time></trkpt><trkpt lat="43.7797728" lon="11.4547646"><ele>172.0</ele><time>2026-04-11T11:25:58.833Z</time></trkpt><trkpt lat="43.7797164" lon="11.4549248"><ele>172.0</ele><time>2026-04-11T11:25:59.83Z</time></trkpt><trkpt lat="43.7796646" lon="11.455077"><ele>172.0</ele><time>2026-04-11T11:26:00.833Z</time></trkpt><trkpt lat="43.7796433" lon="11.4552376"><ele>172.0</ele><time>2026-04-11T11:26:01.835Z</time></trkpt><trkpt lat="43.7796377" lon="11.455409"><ele>173.5</ele><time>2026-04-11T11:26:02.84Z</time></trkpt><trkpt lat="43.7796419" lon="11.4555933"><ele>175.0</ele><time>2026-04-11T11:26:03.829Z</time></trkpt><trkpt lat="43.7796478" lon="11.455773"><ele>176.5</ele><time>2026-04-11T11:26:04.832Z</time></trkpt><trkpt lat="43.7796423" lon="11.4559622"><ele>178.0</ele><time>2026-04-11T11:26:05.84Z</time></trkpt><trkpt lat="43.7796363" lon="11.4561331"><ele>178.0</ele><time>2026-04-11T11:26:06.833Z</time></trkpt><trkpt lat="43.7796353" lon="11.4562853"><ele>178.0</ele><time>2026-04-11T11:26:07.821Z</time></trkpt><trkpt lat="43.7796144" lon="11.4564402"><ele>178.0</ele><time>2026-04-11T11:26:08.834Z</time></trkpt><trkpt lat="43.7795821" lon="11.4565728"><ele>178.0</ele><time>2026-04-11T11:26:09.838Z</time></trkpt><trkpt lat="43.779533" lon="11.4566847"><ele>178.0</ele><time>2026-04-11T11:26:10.833Z</time></trkpt><trkpt lat="43.7794777" lon="11.4567671"><ele>178.60000000000002</ele><time>2026-04-11T11:26:11.843Z</time></trkpt><trkpt lat="43.7794074" lon="11.4568183"><ele>179.20000000000002</ele><time>2026-04-11T11:26:12.854Z</time></trkpt><trkpt lat="43.7793266" lon="11.4568531"><ele>179.8</ele><time>2026-04-11T11:26:13.834Z</time></trkpt><trkpt lat="43.7792265" lon="11.4568905"><ele>180.4</ele><time>2026-04-11T11:26:14.84Z</time></trkpt><trkpt lat="43.7791295" lon="11.456966"><ele>181.0</ele><time>2026-04-11T11:26:15.838Z</time></trkpt><trkpt lat="43.7790263" lon="11.457052"><ele>184.75</ele><time>2026-04-11T11:26:16.839Z</time></trkpt><trkpt lat="43.7789378" lon="11.457145"><ele>188.5</ele><time>2026-04-11T11:26:17.83Z</time></trkpt><trkpt lat="43.7788501" lon="11.457265"><ele>192.25</ele><time>2026-04-11T11:26:18.824Z</time></trkpt><trkpt lat="43.7787756" lon="11.4573938"><ele>196.0</ele><time>2026-04-11T11:26:19.83Z</time></trkpt><trkpt lat="43.7787109" lon="11.4575364"><ele>196.0</ele><time>2026-04-11T11:26:20.834Z</time></trkpt><trkpt lat="43.7786729" lon="11.4576638"><ele>196.0</ele><time>2026-04-11T11:26:21.835Z</time></trkpt><trkpt lat="43.7786578" lon="11.4577923"><ele>196.0</ele><time>2026-04-11T11:26:22.834Z</time></trkpt><trkpt lat="43.7786561" lon="11.4579403"><ele>196.0</ele><time>2026-04-11T11:26:23.83Z</time></trkpt><trkpt lat="43.7786905" lon="11.4580755"><ele>196.0</ele><time>2026-04-11T11:26:24.832Z</time></trkpt><trkpt lat="43.7787304" lon="11.4582234"><ele>196.8</ele><time>2026-04-11T11:26:25.834Z</time></trkpt><trkpt lat="43.7787692" lon="11.4583793"><ele>197.60000000000002</ele><time>2026-04-11T11:26:26.844Z</time></trkpt><trkpt lat="43.7787907" lon="11.4585331"><ele>198.4</ele><time>2026-04-11T11:26:27.831Z</time></trkpt><trkpt lat="43.7788076" lon="11.45868"><ele>199.2</ele><time>2026-04-11T11:26:28.838Z</time></trkpt><trkpt lat="43.778809" lon="11.4588198"><ele>200.0</ele><time>2026-04-11T11:26:29.836Z</time></trkpt><trkpt lat="43.7788043" lon="11.4589551"><ele>200.50000000000003</ele><time>2026-04-11T11:26:30.834Z</time></trkpt><trkpt lat="43.7787816" lon="11.4590958"><ele>201.0</ele><time>2026-04-11T11:26:31.843Z</time></trkpt><trkpt lat="43.7787508" lon="11.4592197"><ele>201.5</ele><time>2026-04-11T11:26:32.835Z</time></trkpt><trkpt lat="43.7787162" lon="11.4593151"><ele>202.0</ele><time>2026-04-11T11:26:33.839Z</time></trkpt><trkpt lat="43.7786767" lon="11.4593831"><ele>202.50000000000003</ele><time>2026-04-11T11:26:34.837Z</time></trkpt><trkpt lat="43.7786293" lon="11.4594426"><ele>203.0</ele><time>2026-04-11T11:26:35.831Z</time></trkpt><trkpt lat="43.7785657" lon="11.4595027"><ele>206.0</ele><time>2026-04-11T11:26:36.836Z</time></trkpt><trkpt lat="43.778493" lon="11.4595705"><ele>209.0</ele><time>2026-04-11T11:26:37.838Z</time></trkpt><trkpt lat="43.7784131" lon="11.4596663"><ele>212.0</ele><time>2026-04-11T11:26:38.842Z</time></trkpt><trkpt lat="43.7783483" lon="11.4597912"><ele>215.0</ele><time>2026-04-11T11:26:39.838Z</time></trkpt><trkpt lat="43.7782802" lon="11.4599269"><ele>218.0</ele><time>2026-04-11T11:26:40.84Z</time></trkpt><trkpt lat="43.778203" lon="11.4600703"><ele>218.0</ele><time>2026-04-11T11:26:41.848Z</time></trkpt><trkpt lat="43.7781361" lon="11.4602234"><ele>218.0</ele><time>2026-04-11T11:26:42.833Z</time></trkpt><trkpt lat="43.7780758" lon="11.460375"><ele>218.0</ele><time>2026-04-11T11:26:43.836Z</time></trkpt><trkpt lat="43.7780207" lon="11.4605206"><ele>218.0</ele><time>2026-04-11T11:26:44.852Z</time></trkpt><trkpt lat="43.7779748" lon="11.4606682"><ele>217.75</ele><time>2026-04-11T11:26:45.841Z</time></trkpt><trkpt lat="43.7779436" lon="11.4608199"><ele>217.5</ele><time>2026-04-11T11:26:46.842Z</time></trkpt><trkpt lat="43.7779207" lon="11.4609796"><ele>217.25</ele><time>2026-04-11T11:26:47.841Z</time></trkpt><trkpt lat="43.7779027" lon="11.461136"><ele>217.0</ele><time>2026-04-11T11:26:48.836Z</time></trkpt><trkpt lat="43.7778811" lon="11.4612978"><ele>217.75</ele><time>2026-04-11T11:26:49.844Z</time></trkpt><trkpt lat="43.7778518" lon="11.4614589"><ele>218.5</ele><time>2026-04-11T11:26:50.834Z</time></trkpt><trkpt lat="43.7778162" lon="11.4616131"><ele>219.25</ele><time>2026-04-11T11:26:51.835Z</time></trkpt><trkpt lat="43.7777784" lon="11.4617679"><ele>220.0</ele><time>2026-04-11T11:26:52.847Z</time></trkpt><trkpt lat="43.77774" lon="11.4619218"><ele>219.99999999999997</ele><time>2026-04-11T11:26:53.846Z</time></trkpt><trkpt lat="43.7776985" lon="11.4620696"><ele>220.0</ele><time>2026-04-11T11:26:54.836Z</time></trkpt><trkpt lat="43.7776635" lon="11.4621881"><ele>220.0</ele><time>2026-04-11T11:26:55.836Z</time></trkpt><trkpt lat="43.7776518" lon="11.4622917"><ele>220.0</ele><time>2026-04-11T11:26:56.842Z</time></trkpt><trkpt lat="43.7776642" lon="11.4624082"><ele>219.99999999999997</ele><time>2026-04-11T11:26:58.835Z</time></trkpt><trkpt lat="43.7776765" lon="11.4625042"><ele>220.0</ele><time>2026-04-11T11:29:22.846Z</time></trkpt><trkpt lat="43.7776505" lon="11.4626846"><ele>222.83333333333331</ele><time>2026-04-11T11:29:24.848Z</time></trkpt><trkpt lat="43.7776417" lon="11.4627981"><ele>225.66666666666666</ele><time>2026-04-11T11:29:25.854Z</time></trkpt><trkpt lat="43.7776365" lon="11.4629113"><ele>228.5</ele><time>2026-04-11T11:29:26.87Z</time></trkpt><trkpt lat="43.777634" lon="11.4630348"><ele>231.33333333333331</ele><time>2026-04-11T11:29:27.851Z</time></trkpt><trkpt lat="43.7776364" lon="11.4631645"><ele>234.16666666666666</ele><time>2026-04-11T11:29:28.86Z</time></trkpt><trkpt lat="43.7776371" lon="11.4633053"><ele>237.0</ele><time>2026-04-11T11:29:29.847Z</time></trkpt><trkpt lat="43.777634" lon="11.4634535"><ele>237.6</ele><time>2026-04-11T11:29:30.87Z</time></trkpt><trkpt lat="43.7776345" lon="11.4635877"><ele>238.2</ele><time>2026-04-11T11:29:31.859Z</time></trkpt><trkpt lat="43.7776379" lon="11.4637238"><ele>238.8</ele><time>2026-04-11T11:29:32.845Z</time></trkpt><trkpt lat="43.7776469" lon="11.4638557"><ele>239.4</ele><time>2026-04-11T11:29:33.861Z</time></trkpt><trkpt lat="43.7776666" lon="11.4639772"><ele>240.0</ele><time>2026-04-11T11:29:34.855Z</time></trkpt><trkpt lat="43.7776955" lon="11.4640926"><ele>236.8</ele><time>2026-04-11T11:29:35.861Z</time></trkpt><trkpt lat="43.7777383" lon="11.4641969"><ele>233.6</ele><time>2026-04-11T11:29:36.863Z</time></trkpt><trkpt lat="43.7777981" lon="11.4643091"><ele>230.39999999999998</ele><time>2026-04-11T11:29:37.856Z</time></trkpt><trkpt lat="43.7778731" lon="11.4644184"><ele>227.2</ele><time>2026-04-11T11:29:38.851Z</time></trkpt><trkpt lat="43.7779559" lon="11.4645158"><ele>224.0</ele><time>2026-04-11T11:29:39.832Z</time></trkpt><trkpt lat="43.7780492" lon="11.4645968"><ele>225.6</ele><time>2026-04-11T11:29:40.842Z</time></trkpt><trkpt lat="43.7781473" lon="11.4646634"><ele>227.2</ele><time>2026-04-11T11:29:41.841Z</time></trkpt><trkpt lat="43.7782491" lon="11.4647114"><ele>228.79999999999998</ele><time>2026-04-11T11:29:42.834Z</time></trkpt><trkpt lat="43.77835" lon="11.4647337"><ele>230.39999999999998</ele><time>2026-04-11T11:29:43.839Z</time></trkpt><trkpt lat="43.7784539" lon="11.4647484"><ele>232.0</ele><time>2026-04-11T11:29:44.854Z</time></trkpt><trkpt lat="43.7785544" lon="11.4647563"><ele>228.8</ele><time>2026-04-11T11:29:45.836Z</time></trkpt><trkpt lat="43.7786518" lon="11.4647584"><ele>225.6</ele><time>2026-04-11T11:29:46.834Z</time></trkpt><trkpt lat="43.7787454" lon="11.4647642"><ele>222.40000000000003</ele><time>2026-04-11T11:29:47.847Z</time></trkpt><trkpt lat="43.778838" lon="11.4647651"><ele>219.20000000000002</ele><time>2026-04-11T11:29:48.839Z</time></trkpt><trkpt lat="43.7789325" lon="11.4647724"><ele>216.0</ele><time>2026-04-11T11:29:49.839Z</time></trkpt><trkpt lat="43.7790425" lon="11.4647734"><ele>216.0</ele><time>2026-04-11T11:29:50.84Z</time></trkpt><trkpt lat="43.7791539" lon="11.4647662"><ele>216.00000000000003</ele><time>2026-04-11T11:29:51.839Z</time></trkpt><trkpt lat="43.7792586" lon="11.4647456"><ele>216.00000000000003</ele><time>2026-04-11T11:29:52.845Z</time></trkpt><trkpt lat="43.7793559" lon="11.4647263"><ele>216.0</ele><time>2026-04-11T11:29:53.844Z</time></trkpt><trkpt lat="43.7794569" lon="11.4647143"><ele>216.0</ele><time>2026-04-11T11:29:54.838Z</time></trkpt><trkpt lat="43.7795521" lon="11.4647105"><ele>213.5</ele><time>2026-04-11T11:29:55.842Z</time></trkpt><trkpt lat="43.779641" lon="11.4646999"><ele>211.0</ele><time>2026-04-11T11:29:56.843Z</time></trkpt><trkpt lat="43.7797185" lon="11.4646957"><ele>208.5</ele><time>2026-04-11T11:29:57.838Z</time></trkpt><trkpt lat="43.7797859" lon="11.464683"><ele>206.0</ele><time>2026-04-11T11:29:58.839Z</time></trkpt><trkpt lat="43.7798967" lon="11.4647069"><ele>203.5</ele><time>2026-04-11T11:30:00.832Z</time></trkpt><trkpt lat="43.7799723" lon="11.464791"><ele>201.0</ele><time>2026-04-11T11:30:02.84Z</time></trkpt><trkpt lat="43.7800176" lon="11.4649261"><ele>201.0</ele><time>2026-04-11T11:30:04.837Z</time></trkpt><trkpt lat="43.7800271" lon="11.4650251"><ele>201.0</ele><time>2026-04-11T11:30:05.846Z</time></trkpt><trkpt lat="43.7800288" lon="11.4651357"><ele>201.0</ele><time>2026-04-11T11:30:06.848Z</time></trkpt><trkpt lat="43.7800354" lon="11.465265"><ele>201.0</ele><time>2026-04-11T11:30:07.833Z</time></trkpt><trkpt lat="43.7800405" lon="11.4653965"><ele>201.0</ele><time>2026-04-11T11:30:08.83Z</time></trkpt><trkpt lat="43.7800498" lon="11.4655351"><ele>201.0</ele><time>2026-04-11T11:30:09.842Z</time></trkpt><trkpt lat="43.7800563" lon="11.4656741"><ele>201.8</ele><time>2026-04-11T11:30:10.839Z</time></trkpt><trkpt lat="43.7800673" lon="11.4658206"><ele>202.60000000000002</ele><time>2026-04-11T11:30:11.836Z</time></trkpt><trkpt lat="43.780083" lon="11.4659744"><ele>203.4</ele><time>2026-04-11T11:30:12.833Z</time></trkpt><trkpt lat="43.7801028" lon="11.4661289"><ele>204.2</ele><time>2026-04-11T11:30:13.834Z</time></trkpt><trkpt lat="43.7801142" lon="11.4662776"><ele>205.0</ele><time>2026-04-11T11:30:14.835Z</time></trkpt><trkpt lat="43.7801205" lon="11.4664222"><ele>206.2</ele><time>2026-04-11T11:30:15.842Z</time></trkpt><trkpt lat="43.7801323" lon="11.4665634"><ele>207.4</ele><time>2026-04-11T11:30:16.829Z</time></trkpt><trkpt lat="43.7801474" lon="11.466706"><ele>208.60000000000002</ele><time>2026-04-11T11:30:17.842Z</time></trkpt><trkpt lat="43.780164" lon="11.4668428"><ele>209.8</ele><time>2026-04-11T11:30:18.833Z</time></trkpt><trkpt lat="43.7801877" lon="11.4669512"><ele>211.0</ele><time>2026-04-11T11:30:19.835Z</time></trkpt><trkpt lat="43.7802214" lon="11.4670525"><ele>210.49999999999997</ele><time>2026-04-11T11:30:20.836Z</time></trkpt><trkpt lat="43.7802694" lon="11.4671368"><ele>210.0</ele><time>2026-04-11T11:30:21.83Z</time></trkpt><trkpt lat="43.780328" lon="11.4671941"><ele>209.5</ele><time>2026-04-11T11:30:22.836Z</time></trkpt><trkpt lat="43.7803978" lon="11.4672333"><ele>209.0</ele><time>2026-04-11T11:30:23.838Z</time></trkpt><trkpt lat="43.7804794" lon="11.4672679"><ele>208.49999999999997</ele><time>2026-04-11T11:30:24.834Z</time></trkpt><trkpt lat="43.7805582" lon="11.4673007"><ele>208.0</ele><time>2026-04-11T11:30:25.834Z</time></trkpt><trkpt lat="43.7806244" lon="11.4673354"><ele>207.99999999999997</ele><time>2026-04-11T11:30:26.842Z</time></trkpt><trkpt lat="43.7806856" lon="11.467365"><ele>208.0</ele><time>2026-04-11T11:30:27.834Z</time></trkpt><trkpt lat="43.780748" lon="11.4673944"><ele>208.0</ele><time>2026-04-11T11:30:28.836Z</time></trkpt><trkpt lat="43.7808203" lon="11.467431"><ele>208.0</ele><time>2026-04-11T11:30:29.835Z</time></trkpt><trkpt lat="43.7809055" lon="11.4674775"><ele>207.99999999999997</ele><time>2026-04-11T11:30:30.834Z</time></trkpt><trkpt lat="43.7809965" lon="11.4675192"><ele>208.0</ele><time>2026-04-11T11:30:31.844Z</time></trkpt><trkpt lat="43.7810858" lon="11.4675464"><ele>207.4</ele><time>2026-04-11T11:30:32.833Z</time></trkpt><trkpt lat="43.7811726" lon="11.4675664"><ele>206.8</ele><time>2026-04-11T11:30:33.85Z</time></trkpt><trkpt lat="43.7812448" lon="11.4675905"><ele>206.2</ele><time>2026-04-11T11:30:34.845Z</time></trkpt><trkpt lat="43.7813078" lon="11.4676257"><ele>205.6</ele><time>2026-04-11T11:30:35.837Z</time></trkpt><trkpt lat="43.7814123" lon="11.4677085"><ele>205.0</ele><time>2026-04-11T11:30:37.838Z</time></trkpt><trkpt lat="43.7814852" lon="11.4678023"><ele>205.0</ele><time>2026-04-11T11:30:39.835Z</time></trkpt><trkpt lat="43.7815197" lon="11.4679403"><ele>205.0</ele><time>2026-04-11T11:30:41.838Z</time></trkpt><trkpt lat="43.7816085" lon="11.468062"><ele>205.0</ele><time>2026-04-11T11:30:43.83Z</time></trkpt><trkpt lat="43.7816873" lon="11.4681227"><ele>205.0</ele><time>2026-04-11T11:30:44.841Z</time></trkpt><trkpt lat="43.7817838" lon="11.4681907"><ele>205.0</ele><time>2026-04-11T11:30:45.837Z</time></trkpt><trkpt lat="43.7818751" lon="11.4682639"><ele>210.4</ele><time>2026-04-11T11:30:46.837Z</time></trkpt><trkpt lat="43.7819581" lon="11.4683534"><ele>215.8</ele><time>2026-04-11T11:30:47.838Z</time></trkpt><trkpt lat="43.7820283" lon="11.4684597"><ele>221.2</ele><time>2026-04-11T11:30:48.843Z</time></trkpt><trkpt lat="43.7820789" lon="11.4685681"><ele>226.6</ele><time>2026-04-11T11:30:49.824Z</time></trkpt><trkpt lat="43.7821338" lon="11.4686787"><ele>232.0</ele><time>2026-04-11T11:30:50.827Z</time></trkpt><trkpt lat="43.782185" lon="11.4687967"><ele>232.66666666666666</ele><time>2026-04-11T11:30:51.834Z</time></trkpt><trkpt lat="43.7822378" lon="11.4689006"><ele>233.33333333333331</ele><time>2026-04-11T11:30:52.832Z</time></trkpt><trkpt lat="43.7822964" lon="11.4689895"><ele>234.0</ele><time>2026-04-11T11:30:53.828Z</time></trkpt><trkpt lat="43.7823532" lon="11.4690768"><ele>234.66666666666669</ele><time>2026-04-11T11:30:54.824Z</time></trkpt><trkpt lat="43.7824067" lon="11.469149"><ele>235.33333333333334</ele><time>2026-04-11T11:30:55.838Z</time></trkpt><trkpt lat="43.782511" lon="11.4691679"><ele>236.0</ele><time>2026-04-11T11:30:57.833Z</time></trkpt><trkpt lat="43.7825831" lon="11.4690807"><ele>236.00000000000003</ele><time>2026-04-11T11:30:59.845Z</time></trkpt><trkpt lat="43.7826024" lon="11.4689874"><ele>236.0</ele><time>2026-04-11T11:31:00.838Z</time></trkpt><trkpt lat="43.7826278" lon="11.4688771"><ele>236.0</ele><time>2026-04-11T11:31:01.84Z</time></trkpt><trkpt lat="43.7826429" lon="11.468755"><ele>236.0</ele><time>2026-04-11T11:31:02.838Z</time></trkpt><trkpt lat="43.7826662" lon="11.4686372"><ele>236.00000000000003</ele><time>2026-04-11T11:31:03.847Z</time></trkpt><trkpt lat="43.7826824" lon="11.468513"><ele>236.0</ele><time>2026-04-11T11:31:04.828Z</time></trkpt><trkpt lat="43.7827057" lon="11.4683933"><ele>238.16666666666669</ele><time>2026-04-11T11:31:05.835Z</time></trkpt><trkpt lat="43.7827408" lon="11.4682941"><ele>240.33333333333334</ele><time>2026-04-11T11:31:06.832Z</time></trkpt><trkpt lat="43.7827888" lon="11.4681956"><ele>242.5</ele><time>2026-04-11T11:31:07.833Z</time></trkpt><trkpt lat="43.7828363" lon="11.4681126"><ele>244.66666666666669</ele><time>2026-04-11T11:31:08.83Z</time></trkpt><trkpt lat="43.7828981" lon="11.4680251"><ele>246.83333333333334</ele><time>2026-04-11T11:31:09.838Z</time></trkpt><trkpt lat="43.7829594" lon="11.4679407"><ele>249.0</ele><time>2026-04-11T11:31:10.84Z</time></trkpt><trkpt lat="43.7830212" lon="11.4678581"><ele>249.0</ele><time>2026-04-11T11:31:11.836Z</time></trkpt><trkpt lat="43.7830796" lon="11.467778"><ele>249.0</ele><time>2026-04-11T11:31:12.837Z</time></trkpt><trkpt lat="43.7831444" lon="11.4676994"><ele>249.0</ele><time>2026-04-11T11:31:13.829Z</time></trkpt><trkpt lat="43.783204" lon="11.4676083"><ele>249.0</ele><time>2026-04-11T11:31:14.832Z</time></trkpt><trkpt lat="43.7832583" lon="11.4675238"><ele>249.0</ele><time>2026-04-11T11:31:15.841Z</time></trkpt><trkpt lat="43.7833209" lon="11.4674235"><ele>249.0</ele><time>2026-04-11T11:31:16.842Z</time></trkpt><trkpt lat="43.7833828" lon="11.4673194"><ele>249.0</ele><time>2026-04-11T11:31:17.834Z</time></trkpt><trkpt lat="43.7834401" lon="11.4672188"><ele>248.99999999999997</ele><time>2026-04-11T11:31:18.839Z</time></trkpt><trkpt lat="43.7835009" lon="11.4671231"><ele>248.99999999999997</ele><time>2026-04-11T11:31:19.827Z</time></trkpt><trkpt lat="43.783561" lon="11.46703"><ele>249.0</ele><time>2026-04-11T11:31:20.832Z</time></trkpt><trkpt lat="43.7836248" lon="11.4669501"><ele>249.0</ele><time>2026-04-11T11:31:21.837Z</time></trkpt><trkpt lat="43.7837006" lon="11.4668691"><ele>252.39999999999998</ele><time>2026-04-11T11:31:22.835Z</time></trkpt><trkpt lat="43.7837722" lon="11.4668006"><ele>255.79999999999998</ele><time>2026-04-11T11:31:23.826Z</time></trkpt><trkpt lat="43.7838454" lon="11.4667263"><ele>259.20000000000005</ele><time>2026-04-11T11:31:24.836Z</time></trkpt><trkpt lat="43.7839174" lon="11.466639"><ele>262.6</ele><time>2026-04-11T11:31:25.833Z</time></trkpt><trkpt lat="43.7839863" lon="11.4665508"><ele>266.0</ele><time>2026-04-11T11:31:26.84Z</time></trkpt><trkpt lat="43.7840426" lon="11.4664558"><ele>266.0</ele><time>2026-04-11T11:31:27.832Z</time></trkpt><trkpt lat="43.7840895" lon="11.4663592"><ele>266.0</ele><time>2026-04-11T11:31:28.838Z</time></trkpt><trkpt lat="43.784128" lon="11.4662743"><ele>266.0</ele><time>2026-04-11T11:31:29.834Z</time></trkpt><trkpt lat="43.7841881" lon="11.4661495"><ele>266.0</ele><time>2026-04-11T11:31:31.832Z</time></trkpt><trkpt lat="43.7842566" lon="11.4661217"><ele>266.0</ele><time>2026-04-11T11:31:33.828Z</time></trkpt><trkpt lat="43.784286" lon="11.4662072"><ele>266.0</ele><time>2026-04-11T11:31:35.834Z</time></trkpt><trkpt lat="43.7842818" lon="11.4663109"><ele>266.0</ele><time>2026-04-11T11:31:36.828Z</time></trkpt><trkpt lat="43.7842548" lon="11.4664306"><ele>266.0</ele><time>2026-04-11T11:31:37.843Z</time></trkpt><trkpt lat="43.7842176" lon="11.4665526"><ele>266.0</ele><time>2026-04-11T11:31:38.828Z</time></trkpt><trkpt lat="43.7841756" lon="11.4666851"><ele>266.0</ele><time>2026-04-11T11:31:39.842Z</time></trkpt><trkpt lat="43.7841451" lon="11.466827"><ele>266.0</ele><time>2026-04-11T11:31:40.835Z</time></trkpt><trkpt lat="43.7841172" lon="11.4669876"><ele>269.75</ele><time>2026-04-11T11:31:41.83Z</time></trkpt><trkpt lat="43.7840941" lon="11.4671676"><ele>273.5</ele><time>2026-04-11T11:31:42.832Z</time></trkpt><trkpt lat="43.784082" lon="11.4673503"><ele>277.25</ele><time>2026-04-11T11:31:43.831Z</time></trkpt><trkpt lat="43.7840713" lon="11.467524"><ele>281.0</ele><time>2026-04-11T11:31:44.838Z</time></trkpt><trkpt lat="43.7840541" lon="11.4677066"><ele>281.0</ele><time>2026-04-11T11:31:45.857Z</time></trkpt><trkpt lat="43.7840315" lon="11.4678839"><ele>281.0</ele><time>2026-04-11T11:31:46.83Z</time></trkpt><trkpt lat="43.7840081" lon="11.4680431"><ele>281.0</ele><time>2026-04-11T11:31:47.833Z</time></trkpt><trkpt lat="43.7840018" lon="11.4681851"><ele>281.0</ele><time>2026-04-11T11:31:48.833Z</time></trkpt><trkpt lat="43.78401" lon="11.4683128"><ele>281.0</ele><time>2026-04-11T11:31:49.821Z</time></trkpt><trkpt lat="43.7840525" lon="11.4684673"><ele>283.0</ele><time>2026-04-11T11:31:50.829Z</time></trkpt><trkpt lat="43.7840834" lon="11.4686138"><ele>285.0</ele><time>2026-04-11T11:31:51.832Z</time></trkpt><trkpt lat="43.7841104" lon="11.468762"><ele>287.0</ele><time>2026-04-11T11:31:52.843Z</time></trkpt><trkpt lat="43.7841275" lon="11.4689165"><ele>289.0</ele><time>2026-04-11T11:31:53.828Z</time></trkpt><trkpt lat="43.7841239" lon="11.4690719"><ele>291.0</ele><time>2026-04-11T11:31:54.828Z</time></trkpt><trkpt lat="43.784108" lon="11.4692322"><ele>292.25</ele><time>2026-04-11T11:31:55.848Z</time></trkpt><trkpt lat="43.7840798" lon="11.4693832"><ele>293.5</ele><time>2026-04-11T11:31:56.832Z</time></trkpt><trkpt lat="43.7840383" lon="11.4695357"><ele>294.75</ele><time>2026-04-11T11:31:57.827Z</time></trkpt><trkpt lat="43.7839992" lon="11.4696813"><ele>296.0</ele><time>2026-04-11T11:31:58.837Z</time></trkpt><trkpt lat="43.7839524" lon="11.4698251"><ele>298.2</ele><time>2026-04-11T11:31:59.826Z</time></trkpt><trkpt lat="43.7839038" lon="11.4699674"><ele>300.40000000000003</ele><time>2026-04-11T11:32:00.838Z</time></trkpt><trkpt lat="43.7838558" lon="11.4701043"><ele>302.6</ele><time>2026-04-11T11:32:01.836Z</time></trkpt><trkpt lat="43.7838035" lon="11.4702429"><ele>304.8</ele><time>2026-04-11T11:32:02.829Z</time></trkpt><trkpt lat="43.7837553" lon="11.4703788"><ele>307.0</ele><time>2026-04-11T11:32:03.839Z</time></trkpt><trkpt lat="43.7837098" lon="11.4705185"><ele>308.8333333333333</ele><time>2026-04-11T11:32:04.833Z</time></trkpt><trkpt lat="43.7836734" lon="11.4706437"><ele>310.66666666666663</ele><time>2026-04-11T11:32:05.841Z</time></trkpt><trkpt lat="43.7836502" lon="11.4707576"><ele>312.5</ele><time>2026-04-11T11:32:06.833Z</time></trkpt><trkpt lat="43.7836564" lon="11.4708522"><ele>314.3333333333333</ele><time>2026-04-11T11:32:07.845Z</time></trkpt><trkpt lat="43.7836804" lon="11.4709538"><ele>316.1666666666667</ele><time>2026-04-11T11:32:08.843Z</time></trkpt><trkpt lat="43.7837312" lon="11.4710465"><ele>318.0</ele><time>2026-04-11T11:32:09.838Z</time></trkpt><trkpt lat="43.7837927" lon="11.4711574"><ele>317.0</ele><time>2026-04-11T11:32:10.832Z</time></trkpt><trkpt lat="43.7838627" lon="11.4712771"><ele>316.0</ele><time>2026-04-11T11:32:11.848Z</time></trkpt><trkpt lat="43.7839361" lon="11.4713935"><ele>315.0</ele><time>2026-04-11T11:32:12.826Z</time></trkpt><trkpt lat="43.7840094" lon="11.4715065"><ele>314.0</ele><time>2026-04-11T11:32:13.844Z</time></trkpt><trkpt lat="43.7840818" lon="11.4716307"><ele>313.0</ele><time>2026-04-11T11:32:14.839Z</time></trkpt><trkpt lat="43.7841395" lon="11.4717664"><ele>313.0</ele><time>2026-04-11T11:32:15.83Z</time></trkpt><trkpt lat="43.7841839" lon="11.4719148"><ele>313.0</ele><time>2026-04-11T11:32:16.827Z</time></trkpt><trkpt lat="43.7842219" lon="11.4720711"><ele>313.0</ele><time>2026-04-11T11:32:17.839Z</time></trkpt><trkpt lat="43.7842578" lon="11.4722198"><ele>313.0</ele><time>2026-04-11T11:32:18.837Z</time></trkpt><trkpt lat="43.7842925" lon="11.4723659"><ele>312.0</ele><time>2026-04-11T11:32:19.832Z</time></trkpt><trkpt lat="43.7843248" lon="11.4725055"><ele>311.0</ele><time>2026-04-11T11:32:20.839Z</time></trkpt><trkpt lat="43.784357" lon="11.4726387"><ele>310.0</ele><time>2026-04-11T11:32:21.825Z</time></trkpt><trkpt lat="43.7843822" lon="11.4727746"><ele>309.0</ele><time>2026-04-11T11:32:22.831Z</time></trkpt><trkpt lat="43.7844088" lon="11.4729088"><ele>308.0</ele><time>2026-04-11T11:32:23.832Z</time></trkpt><trkpt lat="43.7844336" lon="11.4730331"><ele>309.85714285714283</ele><time>2026-04-11T11:32:24.836Z</time></trkpt><trkpt lat="43.7844398" lon="11.4731578"><ele>311.7142857142857</ele><time>2026-04-11T11:32:25.834Z</time></trkpt><trkpt lat="43.7844312" lon="11.4732728"><ele>313.57142857142856</ele><time>2026-04-11T11:32:26.839Z</time></trkpt><trkpt lat="43.7844399" lon="11.473361"><ele>315.42857142857144</ele><time>2026-04-11T11:32:27.834Z</time></trkpt><trkpt lat="43.7844751" lon="11.4734387"><ele>317.2857142857143</ele><time>2026-04-11T11:32:28.835Z</time></trkpt><trkpt lat="43.7845302" lon="11.473491"><ele>319.1428571428571</ele><time>2026-04-11T11:32:29.832Z</time></trkpt><trkpt lat="43.7845929" lon="11.4735474"><ele>321.0</ele><time>2026-04-11T11:32:30.834Z</time></trkpt><trkpt lat="43.7846526" lon="11.4735884"><ele>321.0</ele><time>2026-04-11T11:32:31.835Z</time></trkpt><trkpt lat="43.784722" lon="11.4736207"><ele>321.0</ele><time>2026-04-11T11:32:32.83Z</time></trkpt><trkpt lat="43.7847973" lon="11.4736252"><ele>321.0</ele><time>2026-04-11T11:32:33.833Z</time></trkpt><trkpt lat="43.7848737" lon="11.4736212"><ele>321.0</ele><time>2026-04-11T11:32:34.841Z</time></trkpt><trkpt lat="43.7849358" lon="11.4735915"><ele>321.0</ele><time>2026-04-11T11:32:35.832Z</time></trkpt><trkpt lat="43.7850373" lon="11.4735397"><ele>321.0</ele><time>2026-04-11T11:32:37.84Z</time></trkpt><trkpt lat="43.7851193" lon="11.4735532"><ele>321.0</ele><time>2026-04-11T11:32:39.83Z</time></trkpt><trkpt lat="43.7851684" lon="11.4736869"><ele>321.0</ele><time>2026-04-11T11:32:41.847Z</time></trkpt><trkpt lat="43.7851808" lon="11.4737837"><ele>321.0</ele><time>2026-04-11T11:32:42.832Z</time></trkpt><trkpt lat="43.7851874" lon="11.4738957"><ele>321.0</ele><time>2026-04-11T11:32:43.831Z</time></trkpt><trkpt lat="43.7851936" lon="11.4739971"><ele>321.0</ele><time>2026-04-11T11:32:44.832Z</time></trkpt><trkpt lat="43.785205" lon="11.4741048"><ele>321.0</ele><time>2026-04-11T11:32:45.828Z</time></trkpt><trkpt lat="43.7852309" lon="11.4742136"><ele>320.3333333333333</ele><time>2026-04-11T11:32:46.832Z</time></trkpt><trkpt lat="43.7852766" lon="11.4743262"><ele>319.6666666666667</ele><time>2026-04-11T11:32:47.843Z</time></trkpt><trkpt lat="43.7853336" lon="11.4744198"><ele>319.0</ele><time>2026-04-11T11:32:48.839Z</time></trkpt><trkpt lat="43.7853921" lon="11.4745177"><ele>318.33333333333337</ele><time>2026-04-11T11:32:49.838Z</time></trkpt><trkpt lat="43.7854395" lon="11.4746168"><ele>317.6666666666667</ele><time>2026-04-11T11:32:50.843Z</time></trkpt><trkpt lat="43.7854663" lon="11.4747168"><ele>317.0</ele><time>2026-04-11T11:32:51.836Z</time></trkpt><trkpt lat="43.7854718" lon="11.4748219"><ele>317.0</ele><time>2026-04-11T11:32:52.842Z</time></trkpt><trkpt lat="43.7854569" lon="11.4749364"><ele>317.0</ele><time>2026-04-11T11:32:53.834Z</time></trkpt><trkpt lat="43.7854373" lon="11.4750576"><ele>317.0</ele><time>2026-04-11T11:32:54.839Z</time></trkpt><trkpt lat="43.785422" lon="11.4751841"><ele>317.0</ele><time>2026-04-11T11:32:55.838Z</time></trkpt><trkpt lat="43.7854064" lon="11.4753073"><ele>317.0</ele><time>2026-04-11T11:32:56.837Z</time></trkpt><trkpt lat="43.78539" lon="11.4754378"><ele>316.6</ele><time>2026-04-11T11:32:57.841Z</time></trkpt><trkpt lat="43.785358" lon="11.4755677"><ele>316.2</ele><time>2026-04-11T11:32:58.849Z</time></trkpt><trkpt lat="43.7853044" lon="11.4756857"><ele>315.8</ele><time>2026-04-11T11:32:59.836Z</time></trkpt><trkpt lat="43.7852328" lon="11.4757967"><ele>315.4</ele><time>2026-04-11T11:33:00.839Z</time></trkpt><trkpt lat="43.785159" lon="11.4759014"><ele>315.0</ele><time>2026-04-11T11:33:01.837Z</time></trkpt><trkpt lat="43.7850896" lon="11.4760137"><ele>315.0</ele><time>2026-04-11T11:33:02.839Z</time></trkpt><trkpt lat="43.7850255" lon="11.4761291"><ele>315.0</ele><time>2026-04-11T11:33:03.845Z</time></trkpt><trkpt lat="43.7849774" lon="11.4762409"><ele>315.0</ele><time>2026-04-11T11:33:04.842Z</time></trkpt><trkpt lat="43.7849407" lon="11.4763499"><ele>315.0</ele><time>2026-04-11T11:33:05.844Z</time></trkpt><trkpt lat="43.7849124" lon="11.4764479"><ele>315.0</ele><time>2026-04-11T11:33:06.836Z</time></trkpt><trkpt lat="43.7849077" lon="11.4765381"><ele>315.0</ele><time>2026-04-11T11:33:07.84Z</time></trkpt><trkpt lat="43.784911" lon="11.4766506"><ele>315.0</ele><time>2026-04-11T11:33:08.846Z</time></trkpt><trkpt lat="43.7849145" lon="11.4767705"><ele>315.0</ele><time>2026-04-11T11:33:09.826Z</time></trkpt><trkpt lat="43.7849194" lon="11.4768935"><ele>315.0</ele><time>2026-04-11T11:33:10.838Z</time></trkpt><trkpt lat="43.7849283" lon="11.4770269"><ele>315.0</ele><time>2026-04-11T11:33:11.849Z</time></trkpt><trkpt lat="43.7849325" lon="11.4771612"><ele>315.0</ele><time>2026-04-11T11:33:12.832Z</time></trkpt><trkpt lat="43.7849294" lon="11.4772934"><ele>315.0</ele><time>2026-04-11T11:33:13.828Z</time></trkpt><trkpt lat="43.7849227" lon="11.4774284"><ele>315.0</ele><time>2026-04-11T11:33:14.832Z</time></trkpt><trkpt lat="43.7849088" lon="11.4775578"><ele>315.0</ele><time>2026-04-11T11:33:15.837Z</time></trkpt><trkpt lat="43.7848957" lon="11.4776861"><ele>315.0</ele><time>2026-04-11T11:33:16.847Z</time></trkpt><trkpt lat="43.7849102" lon="11.4778288"><ele>315.0</ele><time>2026-04-11T11:33:17.842Z</time></trkpt><trkpt lat="43.7849358" lon="11.4779838"><ele>315.0</ele><time>2026-04-11T11:33:18.845Z</time></trkpt><trkpt lat="43.7849665" lon="11.478141"><ele>315.0</ele><time>2026-04-11T11:33:19.84Z</time></trkpt><trkpt lat="43.7849977" lon="11.4782993"><ele>315.0</ele><time>2026-04-11T11:33:20.833Z</time></trkpt><trkpt lat="43.7850221" lon="11.4784639"><ele>315.0</ele><time>2026-04-11T11:33:21.837Z</time></trkpt><trkpt lat="43.785045" lon="11.478636"><ele>316.0</ele><time>2026-04-11T11:33:22.842Z</time></trkpt><trkpt lat="43.7850722" lon="11.4788151"><ele>317.0</ele><time>2026-04-11T11:33:23.841Z</time></trkpt><trkpt lat="43.7850987" lon="11.4790008"><ele>318.0</ele><time>2026-04-11T11:33:24.846Z</time></trkpt><trkpt lat="43.7851237" lon="11.4791907"><ele>319.0</ele><time>2026-04-11T11:33:25.839Z</time></trkpt><trkpt lat="43.7851432" lon="11.4793808"><ele>319.0</ele><time>2026-04-11T11:33:26.833Z</time></trkpt><trkpt lat="43.7851557" lon="11.4795581"><ele>319.0</ele><time>2026-04-11T11:33:27.843Z</time></trkpt><trkpt lat="43.785169" lon="11.4797004"><ele>319.0</ele><time>2026-04-11T11:33:28.84Z</time></trkpt><trkpt lat="43.7851848" lon="11.4798313"><ele>319.0</ele><time>2026-04-11T11:33:29.84Z</time></trkpt><trkpt lat="43.7852102" lon="11.4799506"><ele>319.0</ele><time>2026-04-11T11:33:30.848Z</time></trkpt><trkpt lat="43.785236" lon="11.4800725"><ele>318.5</ele><time>2026-04-11T11:33:31.832Z</time></trkpt><trkpt lat="43.7852598" lon="11.4801841"><ele>318.0</ele><time>2026-04-11T11:33:32.829Z</time></trkpt><trkpt lat="43.7852829" lon="11.4802963"><ele>317.5</ele><time>2026-04-11T11:33:33.835Z</time></trkpt><trkpt lat="43.7853042" lon="11.4804126"><ele>317.0</ele><time>2026-04-11T11:33:34.838Z</time></trkpt><trkpt lat="43.7853302" lon="11.4805142"><ele>316.5</ele><time>2026-04-11T11:33:35.839Z</time></trkpt><trkpt lat="43.7853588" lon="11.4806123"><ele>316.0</ele><time>2026-04-11T11:33:36.845Z</time></trkpt><trkpt lat="43.7853943" lon="11.4807141"><ele>316.0</ele><time>2026-04-11T11:33:37.848Z</time></trkpt><trkpt lat="43.7854326" lon="11.4808195"><ele>316.0</ele><time>2026-04-11T11:33:38.84Z</time></trkpt><trkpt lat="43.7854751" lon="11.4809283"><ele>316.0</ele><time>2026-04-11T11:33:39.845Z</time></trkpt><trkpt lat="43.7855188" lon="11.4810352"><ele>316.0</ele><time>2026-04-11T11:33:40.839Z</time></trkpt><trkpt lat="43.7855728" lon="11.4811468"><ele>316.0</ele><time>2026-04-11T11:33:41.857Z</time></trkpt><trkpt lat="43.7856289" lon="11.4812648"><ele>317.66666666666663</ele><time>2026-04-11T11:33:42.84Z</time></trkpt><trkpt lat="43.785675" lon="11.481384"><ele>319.3333333333333</ele><time>2026-04-11T11:33:43.831Z</time></trkpt><trkpt lat="43.7857181" lon="11.4815054"><ele>321.0</ele><time>2026-04-11T11:33:44.831Z</time></trkpt><trkpt lat="43.7857487" lon="11.481621"><ele>322.6666666666667</ele><time>2026-04-11T11:33:45.843Z</time></trkpt><trkpt lat="43.7857695" lon="11.4817277"><ele>324.33333333333337</ele><time>2026-04-11T11:33:46.837Z</time></trkpt><trkpt lat="43.7857791" lon="11.4818303"><ele>326.0</ele><time>2026-04-11T11:33:47.844Z</time></trkpt><trkpt lat="43.785772" lon="11.4819382"><ele>326.0</ele><time>2026-04-11T11:33:48.834Z</time></trkpt><trkpt lat="43.7857532" lon="11.4820465"><ele>326.0</ele><time>2026-04-11T11:33:49.833Z</time></trkpt><trkpt lat="43.7857247" lon="11.4821449"><ele>326.0</ele><time>2026-04-11T11:33:50.825Z</time></trkpt><trkpt lat="43.7856851" lon="11.4822311"><ele>326.0</ele><time>2026-04-11T11:33:51.836Z</time></trkpt><trkpt lat="43.7856357" lon="11.4823214"><ele>326.0</ele><time>2026-04-11T11:33:52.83Z</time></trkpt><trkpt lat="43.7855743" lon="11.4824014"><ele>326.0</ele><time>2026-04-11T11:33:53.829Z</time></trkpt><trkpt lat="43.7855073" lon="11.4824689"><ele>326.0</ele><time>2026-04-11T11:33:54.834Z</time></trkpt><trkpt lat="43.785436" lon="11.482521"><ele>326.0</ele><time>2026-04-11T11:33:55.849Z</time></trkpt><trkpt lat="43.7853606" lon="11.4825554"><ele>326.0</ele><time>2026-04-11T11:33:56.837Z</time></trkpt><trkpt lat="43.7852797" lon="11.4825973"><ele>326.0</ele><time>2026-04-11T11:33:57.848Z</time></trkpt><trkpt lat="43.7852057" lon="11.4826715"><ele>326.0</ele><time>2026-04-11T11:33:58.833Z</time></trkpt><trkpt lat="43.7851465" lon="11.4827602"><ele>326.0</ele><time>2026-04-11T11:33:59.827Z</time></trkpt><trkpt lat="43.7850877" lon="11.4828939"><ele>329.5</ele><time>2026-04-11T11:34:00.841Z</time></trkpt><trkpt lat="43.7850296" lon="11.4830647"><ele>333.0</ele><time>2026-04-11T11:34:01.84Z</time></trkpt><trkpt lat="43.7849685" lon="11.483253"><ele>336.5</ele><time>2026-04-11T11:34:02.837Z</time></trkpt><trkpt lat="43.7849075" lon="11.4834519"><ele>340.0</ele><time>2026-04-11T11:34:03.838Z</time></trkpt><trkpt lat="43.7848439" lon="11.4836576"><ele>339.3333333333333</ele><time>2026-04-11T11:34:04.842Z</time></trkpt><trkpt lat="43.7847752" lon="11.4838554"><ele>338.6666666666667</ele><time>2026-04-11T11:34:05.842Z</time></trkpt><trkpt lat="43.7846931" lon="11.4840466"><ele>338.0</ele><time>2026-04-11T11:34:06.831Z</time></trkpt><trkpt lat="43.7846072" lon="11.4842342"><ele>338.0</ele><time>2026-04-11T11:34:07.839Z</time></trkpt><trkpt lat="43.784516" lon="11.4844213"><ele>338.0</ele><time>2026-04-11T11:34:08.839Z</time></trkpt><trkpt lat="43.7844192" lon="11.4845943"><ele>338.0</ele><time>2026-04-11T11:34:09.837Z</time></trkpt><trkpt lat="43.7843078" lon="11.4847676"><ele>341.0</ele><time>2026-04-11T11:34:10.839Z</time></trkpt><trkpt lat="43.7841906" lon="11.4849377"><ele>344.0</ele><time>2026-04-11T11:34:11.836Z</time></trkpt><trkpt lat="43.7840737" lon="11.4851012"><ele>347.0</ele><time>2026-04-11T11:34:12.85Z</time></trkpt><trkpt lat="43.783957" lon="11.4852611"><ele>347.0</ele><time>2026-04-11T11:34:13.839Z</time></trkpt><trkpt lat="43.7838462" lon="11.4854183"><ele>347.0</ele><time>2026-04-11T11:34:14.842Z</time></trkpt><trkpt lat="43.7837403" lon="11.4855627"><ele>347.0</ele><time>2026-04-11T11:34:15.83Z</time></trkpt><trkpt lat="43.783638" lon="11.4857103"><ele>348.40000000000003</ele><time>2026-04-11T11:34:16.838Z</time></trkpt><trkpt lat="43.7835375" lon="11.4858503"><ele>349.8</ele><time>2026-04-11T11:34:17.844Z</time></trkpt><trkpt lat="43.7834491" lon="11.4859707"><ele>351.2</ele><time>2026-04-11T11:34:18.839Z</time></trkpt><trkpt lat="43.7833766" lon="11.4860641"><ele>352.6</ele><time>2026-04-11T11:34:19.837Z</time></trkpt><trkpt lat="43.7833329" lon="11.4861335"><ele>354.0</ele><time>2026-04-11T11:34:20.85Z</time></trkpt><trkpt lat="43.7833444" lon="11.486265"><ele>355.2</ele><time>2026-04-11T11:34:22.855Z</time></trkpt><trkpt lat="43.7833849" lon="11.4863339"><ele>356.4</ele><time>2026-04-11T11:34:23.834Z</time></trkpt><trkpt lat="43.7834423" lon="11.4864174"><ele>357.6</ele><time>2026-04-11T11:34:24.835Z</time></trkpt><trkpt lat="43.783512" lon="11.4865194"><ele>358.8</ele><time>2026-04-11T11:34:25.835Z</time></trkpt><trkpt lat="43.7835828" lon="11.4866394"><ele>360.0</ele><time>2026-04-11T11:34:26.841Z</time></trkpt><trkpt lat="43.7836562" lon="11.4867598"><ele>360.0</ele><time>2026-04-11T11:34:27.833Z</time></trkpt><trkpt lat="43.7837267" lon="11.4868842"><ele>360.0</ele><time>2026-04-11T11:34:28.838Z</time></trkpt><trkpt lat="43.7838062" lon="11.4870107"><ele>360.0</ele><time>2026-04-11T11:34:29.835Z</time></trkpt><trkpt lat="43.7838837" lon="11.4871344"><ele>360.0</ele><time>2026-04-11T11:34:30.836Z</time></trkpt><trkpt lat="43.7839516" lon="11.4872469"><ele>361.3333333333333</ele><time>2026-04-11T11:34:31.829Z</time></trkpt><trkpt lat="43.7840044" lon="11.4873548"><ele>362.6666666666667</ele><time>2026-04-11T11:34:32.842Z</time></trkpt><trkpt lat="43.7840557" lon="11.4874611"><ele>364.0</ele><time>2026-04-11T11:34:33.831Z</time></trkpt><trkpt lat="43.7841042" lon="11.4875658"><ele>365.33333333333337</ele><time>2026-04-11T11:34:34.829Z</time></trkpt><trkpt lat="43.7841532" lon="11.4876661"><ele>366.6666666666667</ele><time>2026-04-11T11:34:35.833Z</time></trkpt><trkpt lat="43.7842079" lon="11.4877544"><ele>368.0</ele><time>2026-04-11T11:34:36.83Z</time></trkpt><trkpt lat="43.7842651" lon="11.4878654"><ele>368.75</ele><time>2026-04-11T11:34:37.836Z</time></trkpt><trkpt lat="43.7843238" lon="11.4879963"><ele>369.5</ele><time>2026-04-11T11:34:38.846Z</time></trkpt><trkpt lat="43.7843749" lon="11.4881398"><ele>370.25</ele><time>2026-04-11T11:34:39.836Z</time></trkpt><trkpt lat="43.7844297" lon="11.4882923"><ele>371.0</ele><time>2026-04-11T11:34:40.837Z</time></trkpt><trkpt lat="43.7844837" lon="11.4884468"><ele>371.20000000000005</ele><time>2026-04-11T11:34:41.839Z</time></trkpt><trkpt lat="43.784543" lon="11.4885972"><ele>371.40000000000003</ele><time>2026-04-11T11:34:42.835Z</time></trkpt><trkpt lat="43.7846079" lon="11.488736"><ele>371.6</ele><time>2026-04-11T11:34:43.843Z</time></trkpt><trkpt lat="43.7846704" lon="11.4888436"><ele>371.8</ele><time>2026-04-11T11:34:44.835Z</time></trkpt><trkpt lat="43.7847328" lon="11.4889248"><ele>372.0</ele><time>2026-04-11T11:34:45.835Z</time></trkpt><trkpt lat="43.784791" lon="11.4889874"><ele>372.0</ele><time>2026-04-11T11:34:46.858Z</time></trkpt><trkpt lat="43.7848491" lon="11.489042"><ele>372.0</ele><time>2026-04-11T11:34:47.84Z</time></trkpt><trkpt lat="43.784903" lon="11.4891109"><ele>372.0</ele><time>2026-04-11T11:34:48.834Z</time></trkpt><trkpt lat="43.7849748" lon="11.4891614"><ele>372.0</ele><time>2026-04-11T11:34:49.846Z</time></trkpt><trkpt lat="43.7850572" lon="11.4891905"><ele>372.0</ele><time>2026-04-11T11:34:50.837Z</time></trkpt><trkpt lat="43.7851382" lon="11.4892281"><ele>372.0</ele><time>2026-04-11T11:34:51.836Z</time></trkpt><trkpt lat="43.7852101" lon="11.4892761"><ele>371.3333333333333</ele><time>2026-04-11T11:34:52.83Z</time></trkpt><trkpt lat="43.7852751" lon="11.4893255"><ele>370.6666666666667</ele><time>2026-04-11T11:34:53.84Z</time></trkpt><trkpt lat="43.7853403" lon="11.4893884"><ele>370.0</ele><time>2026-04-11T11:34:54.837Z</time></trkpt><trkpt lat="43.7854048" lon="11.4894515"><ele>369.33333333333337</ele><time>2026-04-11T11:34:55.835Z</time></trkpt><trkpt lat="43.7854616" lon="11.4895222"><ele>368.6666666666667</ele><time>2026-04-11T11:34:56.847Z</time></trkpt><trkpt lat="43.7855146" lon="11.4896025"><ele>368.0</ele><time>2026-04-11T11:34:57.84Z</time></trkpt><trkpt lat="43.7855702" lon="11.4896933"><ele>368.0</ele><time>2026-04-11T11:34:58.839Z</time></trkpt><trkpt lat="43.7856254" lon="11.489812"><ele>368.0</ele><time>2026-04-11T11:34:59.837Z</time></trkpt><trkpt lat="43.7856674" lon="11.4899594"><ele>368.0</ele><time>2026-04-11T11:35:00.843Z</time></trkpt><trkpt lat="43.7857229" lon="11.4900931"><ele>368.0</ele><time>2026-04-11T11:35:01.849Z</time></trkpt><trkpt lat="43.7857806" lon="11.490217"><ele>368.0</ele><time>2026-04-11T11:35:02.841Z</time></trkpt><trkpt lat="43.7858429" lon="11.4903274"><ele>368.0</ele><time>2026-04-11T11:35:03.836Z</time></trkpt><trkpt lat="43.7859048" lon="11.4904196"><ele>368.0</ele><time>2026-04-11T11:35:04.837Z</time></trkpt><trkpt lat="43.7859632" lon="11.4905001"><ele>368.0</ele><time>2026-04-11T11:35:05.838Z</time></trkpt><trkpt lat="43.7860199" lon="11.4905858"><ele>368.0</ele><time>2026-04-11T11:35:06.832Z</time></trkpt><trkpt lat="43.7860709" lon="11.4906679"><ele>368.0</ele><time>2026-04-11T11:35:07.835Z</time></trkpt><trkpt lat="43.7861156" lon="11.4907584"><ele>368.0</ele><time>2026-04-11T11:35:08.846Z</time></trkpt><trkpt lat="43.7861592" lon="11.4908543"><ele>368.59999999999997</ele><time>2026-04-11T11:35:09.84Z</time></trkpt><trkpt lat="43.786194" lon="11.4909552"><ele>369.2</ele><time>2026-04-11T11:35:10.849Z</time></trkpt><trkpt lat="43.7862207" lon="11.4910591"><ele>369.8</ele><time>2026-04-11T11:35:11.838Z</time></trkpt><trkpt lat="43.7862436" lon="11.4911811"><ele>370.4</ele><time>2026-04-11T11:35:12.832Z</time></trkpt><trkpt lat="43.7862652" lon="11.4913157"><ele>371.0</ele><time>2026-04-11T11:35:13.837Z</time></trkpt><trkpt lat="43.7862986" lon="11.4914825"><ele>375.0</ele><time>2026-04-11T11:35:14.866Z</time></trkpt><trkpt lat="43.7863344" lon="11.4916715"><ele>379.0</ele><time>2026-04-11T11:35:15.822Z</time></trkpt><trkpt lat="43.7863701" lon="11.4918767"><ele>383.0</ele><time>2026-04-11T11:35:16.837Z</time></trkpt><trkpt lat="43.7864062" lon="11.4920688"><ele>387.0</ele><time>2026-04-11T11:35:17.838Z</time></trkpt><trkpt lat="43.7864346" lon="11.492243"><ele>389.40000000000003</ele><time>2026-04-11T11:35:18.851Z</time></trkpt><trkpt lat="43.7864566" lon="11.4923947"><ele>391.8</ele><time>2026-04-11T11:35:19.842Z</time></trkpt><trkpt lat="43.7864876" lon="11.4925368"><ele>394.2</ele><time>2026-04-11T11:35:20.833Z</time></trkpt><trkpt lat="43.7865308" lon="11.4926569"><ele>396.6</ele><time>2026-04-11T11:35:21.841Z</time></trkpt><trkpt lat="43.7865507" lon="11.492752"><ele>399.0</ele><time>2026-04-11T11:35:22.831Z</time></trkpt><trkpt lat="43.7865536" lon="11.4928395"><ele>400.79999999999995</ele><time>2026-04-11T11:35:23.846Z</time></trkpt><trkpt lat="43.7865243" lon="11.4929597"><ele>402.59999999999997</ele><time>2026-04-11T11:35:24.845Z</time></trkpt><trkpt lat="43.7864955" lon="11.4931345"><ele>404.4</ele><time>2026-04-11T11:35:25.842Z</time></trkpt><trkpt lat="43.7864657" lon="11.4932978"><ele>406.2</ele><time>2026-04-11T11:35:26.84Z</time></trkpt><trkpt lat="43.7864517" lon="11.4934043"><ele>408.0</ele><time>2026-04-11T11:35:27.836Z</time></trkpt><trkpt lat="43.7864711" lon="11.4935242"><ele>408.0</ele><time>2026-04-11T11:35:29.834Z</time></trkpt><trkpt lat="43.7865844" lon="11.4935891"><ele>408.0</ele><time>2026-04-11T11:35:31.834Z</time></trkpt><trkpt lat="43.7866529" lon="11.4936093"><ele>408.0</ele><time>2026-04-11T11:35:32.839Z</time></trkpt><trkpt lat="43.7867288" lon="11.4936094"><ele>408.0</ele><time>2026-04-11T11:35:33.837Z</time></trkpt><trkpt lat="43.7868205" lon="11.4936332"><ele>408.0</ele><time>2026-04-11T11:35:34.839Z</time></trkpt><trkpt lat="43.7869016" lon="11.4936702"><ele>408.0</ele><time>2026-04-11T11:35:35.836Z</time></trkpt><trkpt lat="43.7869506" lon="11.4937353"><ele>408.2</ele><time>2026-04-11T11:35:36.838Z</time></trkpt><trkpt lat="43.7869944" lon="11.4938423"><ele>408.4</ele><time>2026-04-11T11:35:37.829Z</time></trkpt><trkpt lat="43.7870604" lon="11.4939658"><ele>408.59999999999997</ele><time>2026-04-11T11:35:38.845Z</time></trkpt><trkpt lat="43.7871165" lon="11.4941084"><ele>408.79999999999995</ele><time>2026-04-11T11:35:39.841Z</time></trkpt><trkpt lat="43.7871817" lon="11.4942239"><ele>409.0</ele><time>2026-04-11T11:35:40.84Z</time></trkpt><trkpt lat="43.78727" lon="11.4943285"><ele>409.0</ele><time>2026-04-11T11:35:41.844Z</time></trkpt><trkpt lat="43.7873611" lon="11.494424"><ele>409.0</ele><time>2026-04-11T11:35:42.85Z</time></trkpt><trkpt lat="43.7874307" lon="11.494505"><ele>409.0</ele><time>2026-04-11T11:35:43.839Z</time></trkpt><trkpt lat="43.7874902" lon="11.4945688"><ele>409.0</ele><time>2026-04-11T11:35:44.862Z</time></trkpt><trkpt lat="43.7875299" lon="11.4946657"><ele>409.0</ele><time>2026-04-11T11:35:46.839Z</time></trkpt><trkpt lat="43.7876145" lon="11.4947091"><ele>410.79999999999995</ele><time>2026-04-11T11:35:48.835Z</time></trkpt><trkpt lat="43.7877027" lon="11.4947434"><ele>412.59999999999997</ele><time>2026-04-11T11:35:49.838Z</time></trkpt><trkpt lat="43.7877834" lon="11.494781"><ele>414.4</ele><time>2026-04-11T11:35:50.835Z</time></trkpt><trkpt lat="43.7878965" lon="11.4948374"><ele>416.2</ele><time>2026-04-11T11:35:51.84Z</time></trkpt><trkpt lat="43.788018" lon="11.4949134"><ele>418.0</ele><time>2026-04-11T11:35:52.829Z</time></trkpt><trkpt lat="43.7881246" lon="11.4949881"><ele>418.0</ele><time>2026-04-11T11:35:53.833Z</time></trkpt><trkpt lat="43.7882415" lon="11.4950674"><ele>418.0</ele><time>2026-04-11T11:35:54.843Z</time></trkpt><trkpt lat="43.788369" lon="11.4951524"><ele>418.0</ele><time>2026-04-11T11:35:55.837Z</time></trkpt><trkpt lat="43.7885039" lon="11.495244"><ele>418.0</ele><time>2026-04-11T11:35:56.832Z</time></trkpt><trkpt lat="43.7886182" lon="11.4953246"><ele>418.75</ele><time>2026-04-11T11:35:57.826Z</time></trkpt><trkpt lat="43.7887352" lon="11.4954168"><ele>419.5</ele><time>2026-04-11T11:35:58.84Z</time></trkpt><trkpt lat="43.7888593" lon="11.4955403"><ele>420.25</ele><time>2026-04-11T11:35:59.832Z</time></trkpt><trkpt lat="43.7889965" lon="11.4956591"><ele>421.0</ele><time>2026-04-11T11:36:00.833Z</time></trkpt><trkpt lat="43.7891171" lon="11.4957589"><ele>422.0</ele><time>2026-04-11T11:36:01.834Z</time></trkpt><trkpt lat="43.7892128" lon="11.495825"><ele>423.0</ele><time>2026-04-11T11:36:02.83Z</time></trkpt><trkpt lat="43.7892739" lon="11.4958882"><ele>424.0</ele><time>2026-04-11T11:36:03.836Z</time></trkpt><trkpt lat="43.7892641" lon="11.4960137"><ele>425.0</ele><time>2026-04-11T11:36:05.835Z</time></trkpt><trkpt lat="43.7892119" lon="11.4960921"><ele>426.0</ele><time>2026-04-11T11:36:06.834Z</time></trkpt><trkpt lat="43.7891407" lon="11.4961949"><ele>427.20000000000005</ele><time>2026-04-11T11:36:07.836Z</time></trkpt><trkpt lat="43.7890717" lon="11.4962913"><ele>428.40000000000003</ele><time>2026-04-11T11:36:08.837Z</time></trkpt><trkpt lat="43.7890266" lon="11.4963746"><ele>429.6</ele><time>2026-04-11T11:36:09.828Z</time></trkpt><trkpt lat="43.7889985" lon="11.4964822"><ele>430.8</ele><time>2026-04-11T11:36:10.845Z</time></trkpt><trkpt lat="43.7889786" lon="11.4966275"><ele>432.0</ele><time>2026-04-11T11:36:11.836Z</time></trkpt><trkpt lat="43.7889702" lon="11.496764"><ele>432.0</ele><time>2026-04-11T11:36:12.835Z</time></trkpt><trkpt lat="43.7889571" lon="11.4968745"><ele>432.00000000000006</ele><time>2026-04-11T11:36:13.831Z</time></trkpt><trkpt lat="43.7889254" lon="11.4969781"><ele>432.00000000000006</ele><time>2026-04-11T11:36:14.835Z</time></trkpt><trkpt lat="43.788859" lon="11.4970807"><ele>432.0</ele><time>2026-04-11T11:36:15.84Z</time></trkpt><trkpt lat="43.788781" lon="11.4971751"><ele>432.0</ele><time>2026-04-11T11:36:16.827Z</time></trkpt><trkpt lat="43.7887254" lon="11.4972916"><ele>434.0</ele><time>2026-04-11T11:36:17.847Z</time></trkpt><trkpt lat="43.7886951" lon="11.4974281"><ele>436.00000000000006</ele><time>2026-04-11T11:36:18.841Z</time></trkpt><trkpt lat="43.7886988" lon="11.4975655"><ele>438.00000000000006</ele><time>2026-04-11T11:36:19.828Z</time></trkpt><trkpt lat="43.7887303" lon="11.4976991"><ele>440.0</ele><time>2026-04-11T11:36:20.833Z</time></trkpt><trkpt lat="43.7887852" lon="11.497806"><ele>442.0</ele><time>2026-04-11T11:36:21.833Z</time></trkpt><trkpt lat="43.7888684" lon="11.4979116"><ele>441.6</ele><time>2026-04-11T11:36:22.847Z</time></trkpt><trkpt lat="43.7889693" lon="11.4979737"><ele>441.20000000000005</ele><time>2026-04-11T11:36:23.834Z</time></trkpt><trkpt lat="43.7890611" lon="11.4980015"><ele>440.8</ele><time>2026-04-11T11:36:24.832Z</time></trkpt><trkpt lat="43.7891602" lon="11.4979988"><ele>440.4</ele><time>2026-04-11T11:36:25.828Z</time></trkpt><trkpt lat="43.789271" lon="11.4979655"><ele>440.0</ele><time>2026-04-11T11:36:26.84Z</time></trkpt><trkpt lat="43.7893715" lon="11.4978671"><ele>440.0</ele><time>2026-04-11T11:36:27.829Z</time></trkpt><trkpt lat="43.7894544" lon="11.4976904"><ele>440.0</ele><time>2026-04-11T11:36:28.839Z</time></trkpt><trkpt lat="43.789508" lon="11.4974768"><ele>440.0</ele><time>2026-04-11T11:36:29.832Z</time></trkpt><trkpt lat="43.7895595" lon="11.4972747"><ele>440.0</ele><time>2026-04-11T11:36:30.836Z</time></trkpt><trkpt lat="43.7896137" lon="11.497105"><ele>440.0</ele><time>2026-04-11T11:36:31.835Z</time></trkpt><trkpt lat="43.7896847" lon="11.4969684"><ele>440.0</ele><time>2026-04-11T11:36:32.851Z</time></trkpt><trkpt lat="43.7897788" lon="11.4968486"><ele>440.0</ele><time>2026-04-11T11:36:33.84Z</time></trkpt><trkpt lat="43.7898847" lon="11.4967507"><ele>439.6</ele><time>2026-04-11T11:36:34.839Z</time></trkpt><trkpt lat="43.7899696" lon="11.4966866"><ele>439.2</ele><time>2026-04-11T11:36:35.836Z</time></trkpt><trkpt lat="43.7900562" lon="11.4966331"><ele>438.79999999999995</ele><time>2026-04-11T11:36:36.835Z</time></trkpt><trkpt lat="43.7901464" lon="11.496576"><ele>438.4</ele><time>2026-04-11T11:36:37.841Z</time></trkpt><trkpt lat="43.7902149" lon="11.4964963"><ele>438.0</ele><time>2026-04-11T11:36:38.836Z</time></trkpt><trkpt lat="43.7902694" lon="11.4964133"><ele>435.8333333333333</ele><time>2026-04-11T11:36:39.837Z</time></trkpt><trkpt lat="43.790313" lon="11.4963157"><ele>433.66666666666663</ele><time>2026-04-11T11:36:40.834Z</time></trkpt><trkpt lat="43.7903527" lon="11.496215"><ele>431.5</ele><time>2026-04-11T11:36:41.839Z</time></trkpt><trkpt lat="43.7903809" lon="11.4961154"><ele>429.3333333333333</ele><time>2026-04-11T11:36:42.84Z</time></trkpt><trkpt lat="43.7904414" lon="11.4960713"><ele>427.16666666666663</ele><time>2026-04-11T11:36:44.832Z</time></trkpt><trkpt lat="43.7905061" lon="11.4961271"><ele>425.0</ele><time>2026-04-11T11:36:46.833Z</time></trkpt><trkpt lat="43.790541" lon="11.4962012"><ele>424.99999999999994</ele><time>2026-04-11T11:36:47.83Z</time></trkpt><trkpt lat="43.7905717" lon="11.4963005"><ele>425.0</ele><time>2026-04-11T11:36:48.834Z</time></trkpt><trkpt lat="43.7905899" lon="11.496399"><ele>425.0</ele><time>2026-04-11T11:36:49.829Z</time></trkpt><trkpt lat="43.7905931" lon="11.4965004"><ele>425.0</ele><time>2026-04-11T11:36:50.829Z</time></trkpt><trkpt lat="43.7905877" lon="11.4966356"><ele>424.99999999999994</ele><time>2026-04-11T11:36:51.83Z</time></trkpt><trkpt lat="43.7905873" lon="11.4967763"><ele>425.0</ele><time>2026-04-11T11:36:52.831Z</time></trkpt><trkpt lat="43.7905879" lon="11.496906"><ele>424.99999999999994</ele><time>2026-04-11T11:36:53.838Z</time></trkpt><trkpt lat="43.7905895" lon="11.4970319"><ele>425.0</ele><time>2026-04-11T11:36:54.843Z</time></trkpt><trkpt lat="43.7905956" lon="11.4971441"><ele>425.0</ele><time>2026-04-11T11:36:55.83Z</time></trkpt><trkpt lat="43.7905984" lon="11.4972412"><ele>425.0</ele><time>2026-04-11T11:36:56.832Z</time></trkpt><trkpt lat="43.7906082" lon="11.4973516"><ele>424.99999999999994</ele><time>2026-04-11T11:36:57.834Z</time></trkpt><trkpt lat="43.7906157" lon="11.4974579"><ele>425.0</ele><time>2026-04-11T11:36:58.841Z</time></trkpt><trkpt lat="43.7906256" lon="11.4975619"><ele>424.8</ele><time>2026-04-11T11:36:59.831Z</time></trkpt><trkpt lat="43.7906267" lon="11.4976694"><ele>424.6</ele><time>2026-04-11T11:37:00.83Z</time></trkpt><trkpt lat="43.7906143" lon="11.4977632"><ele>424.4</ele><time>2026-04-11T11:37:01.825Z</time></trkpt><trkpt lat="43.7906008" lon="11.4979064"><ele>424.2</ele><time>2026-04-11T11:37:03.826Z</time></trkpt><trkpt lat="43.790665" lon="11.497928"><ele>424.0</ele><time>2026-04-11T11:37:05.842Z</time></trkpt><trkpt lat="43.7907879" lon="11.4978111"><ele>424.0</ele><time>2026-04-11T11:37:07.83Z</time></trkpt><trkpt lat="43.7908816" lon="11.4976754"><ele>424.0</ele><time>2026-04-11T11:37:08.833Z</time></trkpt><trkpt lat="43.7909433" lon="11.4975536"><ele>424.0</ele><time>2026-04-11T11:37:09.827Z</time></trkpt><trkpt lat="43.7910188" lon="11.4974676"><ele>424.0</ele><time>2026-04-11T11:37:11.832Z</time></trkpt><trkpt lat="43.7911118" lon="11.4975117"><ele>424.0</ele><time>2026-04-11T11:37:14.824Z</time></trkpt><trkpt lat="43.7911742" lon="11.4975765"><ele>425.0</ele><time>2026-04-11T11:37:15.842Z</time></trkpt><trkpt lat="43.7912318" lon="11.4976634"><ele>426.0</ele><time>2026-04-11T11:37:16.837Z</time></trkpt><trkpt lat="43.7913052" lon="11.497785"><ele>427.0</ele><time>2026-04-11T11:37:17.826Z</time></trkpt><trkpt lat="43.7913821" lon="11.4978623"><ele>428.0</ele><time>2026-04-11T11:37:18.838Z</time></trkpt><trkpt lat="43.7914577" lon="11.4979341"><ele>429.0</ele><time>2026-04-11T11:37:19.831Z</time></trkpt><trkpt lat="43.7915408" lon="11.4979974"><ele>429.2</ele><time>2026-04-11T11:37:20.838Z</time></trkpt><trkpt lat="43.7916198" lon="11.4980534"><ele>429.4</ele><time>2026-04-11T11:37:21.841Z</time></trkpt><trkpt lat="43.7916791" lon="11.4981027"><ele>429.6</ele><time>2026-04-11T11:37:22.834Z</time></trkpt><trkpt lat="43.7917464" lon="11.498142"><ele>429.8</ele><time>2026-04-11T11:37:24.836Z</time></trkpt><trkpt lat="43.7918491" lon="11.4981825"><ele>430.0</ele><time>2026-04-11T11:37:26.832Z</time></trkpt><trkpt lat="43.7919802" lon="11.4982217"><ele>429.8</ele><time>2026-04-11T11:37:28.835Z</time></trkpt><trkpt lat="43.7920471" lon="11.4982199"><ele>429.6</ele><time>2026-04-11T11:37:29.833Z</time></trkpt><trkpt lat="43.7921492" lon="11.4981214"><ele>429.4</ele><time>2026-04-11T11:37:31.825Z</time></trkpt><trkpt lat="43.7921877" lon="11.4980506"><ele>429.2</ele><time>2026-04-11T11:37:32.838Z</time></trkpt><trkpt lat="43.7922741" lon="11.4979468"><ele>429.0</ele><time>2026-04-11T11:37:34.841Z</time></trkpt><trkpt lat="43.7923398" lon="11.4978437"><ele>429.0</ele><time>2026-04-11T11:37:36.825Z</time></trkpt><trkpt lat="43.7924231" lon="11.4977822"><ele>429.0</ele><time>2026-04-11T11:37:38.869Z</time></trkpt><trkpt lat="43.792486" lon="11.4977871"><ele>429.0</ele><time>2026-04-11T11:37:39.846Z</time></trkpt><trkpt lat="43.7925653" lon="11.4978046"><ele>429.0</ele><time>2026-04-11T11:37:40.836Z</time></trkpt><trkpt lat="43.792664" lon="11.49784"><ele>429.0</ele><time>2026-04-11T11:37:41.835Z</time></trkpt><trkpt lat="43.7927792" lon="11.4978862"><ele>431.5</ele><time>2026-04-11T11:37:42.835Z</time></trkpt><trkpt lat="43.7928951" lon="11.4979316"><ele>434.0</ele><time>2026-04-11T11:37:43.85Z</time></trkpt><trkpt lat="43.7930162" lon="11.4979678"><ele>436.5</ele><time>2026-04-11T11:37:44.843Z</time></trkpt><trkpt lat="43.7931311" lon="11.4980168"><ele>439.0</ele><time>2026-04-11T11:37:45.844Z</time></trkpt><trkpt lat="43.7932403" lon="11.4980761"><ele>439.00000000000006</ele><time>2026-04-11T11:37:46.842Z</time></trkpt><trkpt lat="43.7933193" lon="11.4981296"><ele>439.0</ele><time>2026-04-11T11:37:47.838Z</time></trkpt><trkpt lat="43.7933901" lon="11.4981977"><ele>439.0</ele><time>2026-04-11T11:37:48.842Z</time></trkpt><trkpt lat="43.793459" lon="11.4982705"><ele>439.0</ele><time>2026-04-11T11:37:49.837Z</time></trkpt><trkpt lat="43.7935179" lon="11.4983576"><ele>439.00000000000006</ele><time>2026-04-11T11:37:50.831Z</time></trkpt><trkpt lat="43.7935875" lon="11.4984412"><ele>439.0</ele><time>2026-04-11T11:37:51.832Z</time></trkpt><trkpt lat="43.7936548" lon="11.4985327"><ele>440.4</ele><time>2026-04-11T11:37:52.838Z</time></trkpt><trkpt lat="43.7937196" lon="11.4986257"><ele>441.79999999999995</ele><time>2026-04-11T11:37:53.832Z</time></trkpt><trkpt lat="43.7937816" lon="11.4987188"><ele>443.20000000000005</ele><time>2026-04-11T11:37:54.844Z</time></trkpt><trkpt lat="43.7938268" lon="11.4988248"><ele>444.6</ele><time>2026-04-11T11:37:55.837Z</time></trkpt><trkpt lat="43.7938571" lon="11.4989439"><ele>446.0</ele><time>2026-04-11T11:37:56.838Z</time></trkpt><trkpt lat="43.7938908" lon="11.4990538"><ele>445.99999999999994</ele><time>2026-04-11T11:37:57.833Z</time></trkpt><trkpt lat="43.7939331" lon="11.4991418"><ele>446.0</ele><time>2026-04-11T11:37:58.833Z</time></trkpt><trkpt lat="43.7939729" lon="11.4992138"><ele>446.0</ele><time>2026-04-11T11:37:59.832Z</time></trkpt><trkpt lat="43.7940192" lon="11.4993094"><ele>446.0</ele><time>2026-04-11T11:38:00.835Z</time></trkpt><trkpt lat="43.7940652" lon="11.4994219"><ele>445.99999999999994</ele><time>2026-04-11T11:38:01.84Z</time></trkpt><trkpt lat="43.7941137" lon="11.4995335"><ele>446.0</ele><time>2026-04-11T11:38:02.834Z</time></trkpt><trkpt lat="43.7941437" lon="11.499617"><ele>445.8333333333333</ele><time>2026-04-11T11:38:03.834Z</time></trkpt><trkpt lat="43.7941605" lon="11.4997127"><ele>445.66666666666663</ele><time>2026-04-11T11:38:05.848Z</time></trkpt><trkpt lat="43.7941205" lon="11.4998059"><ele>445.5</ele><time>2026-04-11T11:38:08.831Z</time></trkpt><trkpt lat="43.7940863" lon="11.4998964"><ele>445.33333333333337</ele><time>2026-04-11T11:38:11.832Z</time></trkpt><trkpt lat="43.7940903" lon="11.4999981"><ele>445.1666666666667</ele><time>2026-04-11T11:38:14.83Z</time></trkpt><trkpt lat="43.7940913" lon="11.5001236"><ele>445.0</ele><time>2026-04-11T11:38:17.832Z</time></trkpt><trkpt lat="43.7940757" lon="11.5002257"><ele>445.0</ele><time>2026-04-11T11:38:20.832Z</time></trkpt><trkpt lat="43.7940797" lon="11.5003707"><ele>445.0</ele><time>2026-04-11T11:40:59.843Z</time></trkpt><trkpt lat="43.794107" lon="11.5004912"><ele>445.0</ele><time>2026-04-11T11:41:00.844Z</time></trkpt><trkpt lat="43.7941326" lon="11.5006337"><ele>445.0</ele><time>2026-04-11T11:41:01.848Z</time></trkpt><trkpt lat="43.7941485" lon="11.5007797"><ele>445.0</ele><time>2026-04-11T11:41:02.845Z</time></trkpt><trkpt lat="43.7941529" lon="11.5009285"><ele>445.6</ele><time>2026-04-11T11:41:03.84Z</time></trkpt><trkpt lat="43.7941491" lon="11.5010761"><ele>446.2</ele><time>2026-04-11T11:41:04.842Z</time></trkpt><trkpt lat="43.7941342" lon="11.5011999"><ele>446.79999999999995</ele><time>2026-04-11T11:41:05.846Z</time></trkpt><trkpt lat="43.7941224" lon="11.5013225"><ele>447.4</ele><time>2026-04-11T11:41:06.835Z</time></trkpt><trkpt lat="43.7941064" lon="11.501449"><ele>448.0</ele><time>2026-04-11T11:41:07.837Z</time></trkpt><trkpt lat="43.7940915" lon="11.5015977"><ele>449.0</ele><time>2026-04-11T11:41:08.84Z</time></trkpt><trkpt lat="43.7940813" lon="11.5017477"><ele>449.99999999999994</ele><time>2026-04-11T11:41:09.837Z</time></trkpt><trkpt lat="43.7940733" lon="11.5019003"><ele>450.99999999999994</ele><time>2026-04-11T11:41:10.83Z</time></trkpt><trkpt lat="43.7940673" lon="11.5020437"><ele>452.0</ele><time>2026-04-11T11:41:11.834Z</time></trkpt><trkpt lat="43.7940822" lon="11.5021652"><ele>453.0</ele><time>2026-04-11T11:41:12.846Z</time></trkpt><trkpt lat="43.7941094" lon="11.5022795"><ele>454.2</ele><time>2026-04-11T11:41:13.843Z</time></trkpt><trkpt lat="43.7941445" lon="11.5023857"><ele>455.4</ele><time>2026-04-11T11:41:14.834Z</time></trkpt><trkpt lat="43.7941988" lon="11.5024898"><ele>456.59999999999997</ele><time>2026-04-11T11:41:15.839Z</time></trkpt><trkpt lat="43.7942739" lon="11.5025823"><ele>457.79999999999995</ele><time>2026-04-11T11:41:16.838Z</time></trkpt><trkpt lat="43.794366" lon="11.5027026"><ele>459.0</ele><time>2026-04-11T11:41:17.83Z</time></trkpt><trkpt lat="43.7944702" lon="11.5028429"><ele>462.66666666666663</ele><time>2026-04-11T11:41:18.836Z</time></trkpt><trkpt lat="43.7945786" lon="11.503002"><ele>466.3333333333333</ele><time>2026-04-11T11:41:19.841Z</time></trkpt><trkpt lat="43.7946959" lon="11.5031778"><ele>470.0</ele><time>2026-04-11T11:41:20.854Z</time></trkpt><trkpt lat="43.7948033" lon="11.5033584"><ele>470.0</ele><time>2026-04-11T11:41:21.832Z</time></trkpt><trkpt lat="43.7948826" lon="11.5035174"><ele>470.0</ele><time>2026-04-11T11:41:22.841Z</time></trkpt><trkpt lat="43.7949645" lon="11.5036391"><ele>470.0</ele><time>2026-04-11T11:41:23.83Z</time></trkpt><trkpt lat="43.795059" lon="11.5037267"><ele>470.0</ele><time>2026-04-11T11:41:24.837Z</time></trkpt><trkpt lat="43.7951406" lon="11.503795"><ele>471.2</ele><time>2026-04-11T11:41:25.84Z</time></trkpt><trkpt lat="43.7952315" lon="11.5038654"><ele>472.4</ele><time>2026-04-11T11:41:26.838Z</time></trkpt><trkpt lat="43.7953216" lon="11.5039357"><ele>473.6</ele><time>2026-04-11T11:41:27.846Z</time></trkpt><trkpt lat="43.7953909" lon="11.5040022"><ele>474.8</ele><time>2026-04-11T11:41:28.836Z</time></trkpt><trkpt lat="43.7954469" lon="11.5040674"><ele>476.0</ele><time>2026-04-11T11:41:29.831Z</time></trkpt><trkpt lat="43.7955127" lon="11.504222"><ele>476.0</ele><time>2026-04-11T11:41:31.836Z</time></trkpt><trkpt lat="43.7955304" lon="11.5043126"><ele>476.0</ele><time>2026-04-11T11:41:32.838Z</time></trkpt><trkpt lat="43.7955538" lon="11.5044747"><ele>476.0</ele><time>2026-04-11T11:41:34.844Z</time></trkpt><trkpt lat="43.7955638" lon="11.5045856"><ele>476.0</ele><time>2026-04-11T11:41:35.835Z</time></trkpt><trkpt lat="43.7955743" lon="11.5047181"><ele>476.0</ele><time>2026-04-11T11:41:36.839Z</time></trkpt><trkpt lat="43.7955826" lon="11.504859"><ele>475.8333333333333</ele><time>2026-04-11T11:41:37.836Z</time></trkpt><trkpt lat="43.7955962" lon="11.5050109"><ele>475.66666666666663</ele><time>2026-04-11T11:41:38.835Z</time></trkpt><trkpt lat="43.7956128" lon="11.5051565"><ele>475.5</ele><time>2026-04-11T11:41:39.84Z</time></trkpt><trkpt lat="43.7956231" lon="11.5052737"><ele>475.33333333333337</ele><time>2026-04-11T11:41:40.831Z</time></trkpt><trkpt lat="43.7956389" lon="11.5053712"><ele>475.1666666666667</ele><time>2026-04-11T11:41:41.839Z</time></trkpt><trkpt lat="43.7956787" lon="11.5054537"><ele>475.0</ele><time>2026-04-11T11:41:42.834Z</time></trkpt><trkpt lat="43.795739" lon="11.5055125"><ele>475.50000000000006</ele><time>2026-04-11T11:41:43.824Z</time></trkpt><trkpt lat="43.7957953" lon="11.5055693"><ele>476.0</ele><time>2026-04-11T11:41:44.836Z</time></trkpt><trkpt lat="43.7958596" lon="11.5056395"><ele>476.5</ele><time>2026-04-11T11:41:46.835Z</time></trkpt><trkpt lat="43.7959363" lon="11.5056744"><ele>477.0</ele><time>2026-04-11T11:41:49.834Z</time></trkpt><trkpt lat="43.7959902" lon="11.5057496"><ele>477.50000000000006</ele><time>2026-04-11T11:41:50.834Z</time></trkpt><trkpt lat="43.7960612" lon="11.5058502"><ele>478.0</ele><time>2026-04-11T11:41:51.839Z</time></trkpt><trkpt lat="43.7961282" lon="11.5059339"><ele>478.00000000000006</ele><time>2026-04-11T11:41:52.836Z</time></trkpt><trkpt lat="43.7961881" lon="11.5059889"><ele>478.0</ele><time>2026-04-11T11:41:54.834Z</time></trkpt><trkpt lat="43.7961259" lon="11.5058948"><ele>478.00000000000006</ele><time>2026-04-11T11:42:09.82Z</time></trkpt><trkpt lat="43.7960692" lon="11.5058368"><ele>478.00000000000006</ele><time>2026-04-11T11:42:10.827Z</time></trkpt><trkpt lat="43.7960133" lon="11.5057762"><ele>478.0</ele><time>2026-04-11T11:42:11.837Z</time></trkpt><trkpt lat="43.7959573" lon="11.5057112"><ele>478.00000000000006</ele><time>2026-04-11T11:42:12.824Z</time></trkpt><trkpt lat="43.7959055" lon="11.505648"><ele>478.00000000000006</ele><time>2026-04-11T11:42:13.83Z</time></trkpt><trkpt lat="43.7958504" lon="11.5055837"><ele>478.00000000000006</ele><time>2026-04-11T11:42:14.836Z</time></trkpt><trkpt lat="43.7957912" lon="11.5055267"><ele>478.0</ele><time>2026-04-11T11:42:15.832Z</time></trkpt><trkpt lat="43.7957291" lon="11.5054683"><ele>478.00000000000006</ele><time>2026-04-11T11:42:16.837Z</time></trkpt><trkpt lat="43.7956744" lon="11.505403"><ele>478.00000000000006</ele><time>2026-04-11T11:42:17.833Z</time></trkpt><trkpt lat="43.7956379" lon="11.5053238"><ele>478.0</ele><time>2026-04-11T11:42:18.819Z</time></trkpt><trkpt lat="43.7956164" lon="11.5052235"><ele>478.00000000000006</ele><time>2026-04-11T11:42:19.828Z</time></trkpt><trkpt lat="43.7956046" lon="11.5051072"><ele>478.00000000000006</ele><time>2026-04-11T11:42:20.835Z</time></trkpt><trkpt lat="43.7955973" lon="11.5049917"><ele>477.59999999999997</ele><time>2026-04-11T11:42:21.838Z</time></trkpt><trkpt lat="43.7955875" lon="11.5048689"><ele>477.19999999999993</ele><time>2026-04-11T11:42:22.847Z</time></trkpt><trkpt lat="43.7955769" lon="11.5047425"><ele>476.8</ele><time>2026-04-11T11:42:23.841Z</time></trkpt><trkpt lat="43.7955654" lon="11.5046147"><ele>476.4</ele><time>2026-04-11T11:42:24.832Z</time></trkpt><trkpt lat="43.7955486" lon="11.5044995"><ele>476.0</ele><time>2026-04-11T11:42:25.828Z</time></trkpt><trkpt lat="43.7955416" lon="11.5043597"><ele>475.99999999999994</ele><time>2026-04-11T11:42:27.831Z</time></trkpt><trkpt lat="43.7954663" lon="11.5043853"><ele>476.0</ele><time>2026-04-11T11:42:30.841Z</time></trkpt><trkpt lat="43.7954422" lon="11.5045054"><ele>476.0</ele><time>2026-04-11T11:42:32.837Z</time></trkpt><trkpt lat="43.7954025" lon="11.5046385"><ele>476.0</ele><time>2026-04-11T11:42:35.832Z</time></trkpt><trkpt lat="43.7953844" lon="11.5047348"><ele>475.99999999999994</ele><time>2026-04-11T11:42:36.834Z</time></trkpt><trkpt lat="43.7953659" lon="11.5048379"><ele>476.0</ele><time>2026-04-11T11:42:37.829Z</time></trkpt><trkpt lat="43.795349" lon="11.5049388"><ele>475.8333333333333</ele><time>2026-04-11T11:42:38.845Z</time></trkpt><trkpt lat="43.7953265" lon="11.5050476"><ele>475.66666666666663</ele><time>2026-04-11T11:42:39.853Z</time></trkpt><trkpt lat="43.7953121" lon="11.5051528"><ele>475.5</ele><time>2026-04-11T11:42:40.834Z</time></trkpt><trkpt lat="43.795284" lon="11.5052525"><ele>475.33333333333337</ele><time>2026-04-11T11:42:41.845Z</time></trkpt><trkpt lat="43.7952601" lon="11.5053509"><ele>475.1666666666667</ele><time>2026-04-11T11:42:42.843Z</time></trkpt><trkpt lat="43.7952366" lon="11.5054553"><ele>475.0</ele><time>2026-04-11T11:42:43.833Z</time></trkpt><trkpt lat="43.7952178" lon="11.5055586"><ele>475.42857142857144</ele><time>2026-04-11T11:42:44.834Z</time></trkpt><trkpt lat="43.7951908" lon="11.5056574"><ele>475.8571428571429</ele><time>2026-04-11T11:42:45.847Z</time></trkpt><trkpt lat="43.7951694" lon="11.5057586"><ele>476.28571428571433</ele><time>2026-04-11T11:42:46.838Z</time></trkpt><trkpt lat="43.7951483" lon="11.5058516"><ele>476.7142857142858</ele><time>2026-04-11T11:42:47.837Z</time></trkpt><trkpt lat="43.7951253" lon="11.5059495"><ele>477.14285714285717</ele><time>2026-04-11T11:42:48.848Z</time></trkpt><trkpt lat="43.7950972" lon="11.5060398"><ele>477.57142857142867</ele><time>2026-04-11T11:42:49.857Z</time></trkpt><trkpt lat="43.7950753" lon="11.5061341"><ele>478.00000000000006</ele><time>2026-04-11T11:42:50.838Z</time></trkpt><trkpt lat="43.7950546" lon="11.506227"><ele>481.2</ele><time>2026-04-11T11:42:51.834Z</time></trkpt><trkpt lat="43.7950303" lon="11.5063204"><ele>484.4</ele><time>2026-04-11T11:42:52.84Z</time></trkpt><trkpt lat="43.7950143" lon="11.5064105"><ele>487.59999999999997</ele><time>2026-04-11T11:42:53.848Z</time></trkpt><trkpt lat="43.7949805" lon="11.5065635"><ele>490.79999999999995</ele><time>2026-04-11T11:42:55.839Z</time></trkpt><trkpt lat="43.7949541" lon="11.5067119"><ele>494.0</ele><time>2026-04-11T11:42:57.843Z</time></trkpt><trkpt lat="43.7949284" lon="11.5068354"><ele>494.0</ele><time>2026-04-11T11:42:59.829Z</time></trkpt><trkpt lat="43.794863" lon="11.506941"><ele>494.0</ele><time>2026-04-11T11:43:01.832Z</time></trkpt><trkpt lat="43.7948351" lon="11.5070702"><ele>494.0</ele><time>2026-04-11T11:43:03.84Z</time></trkpt><trkpt lat="43.7948263" lon="11.5072318"><ele>494.0</ele><time>2026-04-11T11:43:05.852Z</time></trkpt><trkpt lat="43.7948474" lon="11.5073968"><ele>494.0</ele><time>2026-04-11T11:43:07.842Z</time></trkpt><trkpt lat="43.7948618" lon="11.5074905"><ele>495.3333333333333</ele><time>2026-04-11T11:43:08.839Z</time></trkpt><trkpt lat="43.7948607" lon="11.5075797"><ele>496.66666666666663</ele><time>2026-04-11T11:43:09.838Z</time></trkpt><trkpt lat="43.7948355" lon="11.5077533"><ele>498.0</ele><time>2026-04-11T11:43:11.851Z</time></trkpt><trkpt lat="43.7948227" lon="11.5078447"><ele>499.33333333333337</ele><time>2026-04-11T11:43:12.835Z</time></trkpt><trkpt lat="43.794812" lon="11.5079344"><ele>500.6666666666667</ele><time>2026-04-11T11:43:13.84Z</time></trkpt><trkpt lat="43.7947935" lon="11.5080673"><ele>502.0</ele><time>2026-04-11T11:43:15.842Z</time></trkpt><trkpt lat="43.7948341" lon="11.5081745"><ele>504.1666666666667</ele><time>2026-04-11T11:43:17.83Z</time></trkpt><trkpt lat="43.7948833" lon="11.5082998"><ele>506.33333333333337</ele><time>2026-04-11T11:43:19.842Z</time></trkpt><trkpt lat="43.7949086" lon="11.5084302"><ele>508.5</ele><time>2026-04-11T11:43:21.842Z</time></trkpt><trkpt lat="43.7949497" lon="11.5085619"><ele>510.66666666666663</ele><time>2026-04-11T11:43:23.834Z</time></trkpt><trkpt lat="43.7949873" lon="11.5086455"><ele>512.8333333333333</ele><time>2026-04-11T11:43:25.833Z</time></trkpt><trkpt lat="43.7950077" lon="11.5087288"><ele>515.0</ele><time>2026-04-11T11:44:01.846Z</time></trkpt><trkpt lat="43.7949957" lon="11.508904"><ele>517.3333333333333</ele><time>2026-04-11T11:44:03.824Z</time></trkpt><trkpt lat="43.7949847" lon="11.5090687"><ele>519.6666666666666</ele><time>2026-04-11T11:44:05.845Z</time></trkpt><trkpt lat="43.7949749" lon="11.5091795"><ele>522.0</ele><time>2026-04-11T11:44:07.837Z</time></trkpt><trkpt lat="43.7949492" lon="11.5092637"><ele>524.3333333333334</ele><time>2026-04-11T11:44:11.833Z</time></trkpt><trkpt lat="43.7949012" lon="11.5093207"><ele>526.6666666666667</ele><time>2026-04-11T11:44:35.828Z</time></trkpt><trkpt lat="43.7949459" lon="11.509254"><ele>529.0</ele><time>2026-04-11T11:49:23.858Z</time></trkpt><trkpt lat="43.7949793" lon="11.5091772"><ele>529.0</ele><time>2026-04-11T11:49:30.858Z</time></trkpt><trkpt lat="43.7949717" lon="11.5090693"><ele>529.0</ele><time>2026-04-11T11:49:36.84Z</time></trkpt><trkpt lat="43.7949749" lon="11.5089669"><ele>529.0</ele><time>2026-04-11T11:49:38.851Z</time></trkpt><trkpt lat="43.7949804" lon="11.5088772"><ele>529.0</ele><time>2026-04-11T11:49:40.863Z</time></trkpt><trkpt lat="43.7949861" lon="11.5087821"><ele>529.0</ele><time>2026-04-11T11:49:42.853Z</time></trkpt><trkpt lat="43.795023" lon="11.5087031"><ele>529.0</ele><time>2026-04-11T11:49:59.838Z</time></trkpt><trkpt lat="43.7950876" lon="11.5086976"><ele>529.0</ele><time>2026-04-11T11:50:04.858Z</time></trkpt><trkpt lat="43.7951508" lon="11.5087527"><ele>529.0</ele><time>2026-04-11T11:50:08.855Z</time></trkpt><trkpt lat="43.7952311" lon="11.5088311"><ele>529.0</ele><time>2026-04-11T11:50:11.855Z</time></trkpt><trkpt lat="43.7952818" lon="11.5088941"><ele>529.0</ele><time>2026-04-11T11:50:15.847Z</time></trkpt><trkpt lat="43.7952876" lon="11.508984"><ele>529.0</ele><time>2026-04-11T11:50:35.856Z</time></trkpt><trkpt lat="43.7952085" lon="11.50904"><ele>529.0</ele><time>2026-04-11T11:50:38.839Z</time></trkpt><trkpt lat="43.795174" lon="11.5091229"><ele>529.0</ele><time>2026-04-11T11:50:41.838Z</time></trkpt><trkpt lat="43.7951704" lon="11.509218"><ele>529.0</ele><time>2026-04-11T11:50:44.85Z</time></trkpt><trkpt lat="43.7951617" lon="11.509326"><ele>529.0</ele><time>2026-04-11T11:50:47.851Z</time></trkpt><trkpt lat="43.7951619" lon="11.5094306"><ele>529.0</ele><time>2026-04-11T11:50:49.861Z</time></trkpt><trkpt lat="43.7951507" lon="11.5095334"><ele>529.0</ele><time>2026-04-11T11:50:51.851Z</time></trkpt><trkpt lat="43.7951304" lon="11.5096617"><ele>529.0</ele><time>2026-04-11T11:50:54.835Z</time></trkpt><trkpt lat="43.7950888" lon="11.5097428"><ele>529.0</ele><time>2026-04-11T11:50:56.84Z</time></trkpt><trkpt lat="43.7950412" lon="11.5098052"><ele>529.8333333333334</ele><time>2026-04-11T11:50:58.845Z</time></trkpt><trkpt lat="43.7949589" lon="11.509873"><ele>530.6666666666667</ele><time>2026-04-11T11:51:01.849Z</time></trkpt><trkpt lat="43.7948847" lon="11.5099042"><ele>531.5</ele><time>2026-04-11T11:51:04.843Z</time></trkpt><trkpt lat="43.7948412" lon="11.5100095"><ele>532.3333333333334</ele><time>2026-04-11T11:51:33.852Z</time></trkpt><trkpt lat="43.7948292" lon="11.5101079"><ele>533.1666666666666</ele><time>2026-04-11T11:51:35.847Z</time></trkpt><trkpt lat="43.7948141" lon="11.5102319"><ele>534.0</ele><time>2026-04-11T11:51:37.853Z</time></trkpt><trkpt lat="43.7947889" lon="11.5103639"><ele>534.6666666666666</ele><time>2026-04-11T11:51:39.84Z</time></trkpt><trkpt lat="43.7947534" lon="11.5104404"><ele>535.3333333333334</ele><time>2026-04-11T11:51:40.846Z</time></trkpt><trkpt lat="43.7946951" lon="11.5105521"><ele>536.0</ele><time>2026-04-11T11:51:42.843Z</time></trkpt><trkpt lat="43.7946575" lon="11.510647"><ele>536.6666666666667</ele><time>2026-04-11T11:51:44.849Z</time></trkpt><trkpt lat="43.7946474" lon="11.5107526"><ele>537.3333333333334</ele><time>2026-04-11T11:51:46.837Z</time></trkpt><trkpt lat="43.7946226" lon="11.5108921"><ele>538.0</ele><time>2026-04-11T11:52:34.855Z</time></trkpt><trkpt lat="43.7946459" lon="11.5110006"><ele>538.0</ele><time>2026-04-11T11:54:36.845Z</time></trkpt><trkpt lat="43.7946187" lon="11.5111271"><ele>538.0</ele><time>2026-04-11T11:54:38.84Z</time></trkpt><trkpt lat="43.7945798" lon="11.5112342"><ele>538.0</ele><time>2026-04-11T11:54:40.849Z</time></trkpt><trkpt lat="43.7945311" lon="11.5113367"><ele>538.0</ele><time>2026-04-11T11:54:42.866Z</time></trkpt><trkpt lat="43.7944485" lon="11.5114391"><ele>538.0</ele><time>2026-04-11T11:54:44.824Z</time></trkpt><trkpt lat="43.7943883" lon="11.511482"><ele>538.0</ele><time>2026-04-11T11:54:46.832Z</time></trkpt><trkpt lat="43.794327" lon="11.5115607"><ele>541.1999999999999</ele><time>2026-04-11T11:57:58.844Z</time></trkpt><trkpt lat="43.7942916" lon="11.5116971"><ele>544.4</ele><time>2026-04-11T11:58:00.831Z</time></trkpt><trkpt lat="43.7942566" lon="11.5118621"><ele>547.5999999999999</ele><time>2026-04-11T11:58:02.849Z</time></trkpt><trkpt lat="43.794201" lon="11.5119902"><ele>550.8</ele><time>2026-04-11T11:58:04.851Z</time></trkpt><trkpt lat="43.7941413" lon="11.5121046"><ele>554.0</ele><time>2026-04-11T11:58:06.832Z</time></trkpt><trkpt lat="43.7940833" lon="11.512203"><ele>555.5</ele><time>2026-04-11T11:58:08.868Z</time></trkpt><trkpt lat="43.7940147" lon="11.5123126"><ele>557.0</ele><time>2026-04-11T11:58:10.844Z</time></trkpt><trkpt lat="43.793941" lon="11.5123994"><ele>558.5</ele><time>2026-04-11T11:58:12.851Z</time></trkpt><trkpt lat="43.7938787" lon="11.5124183"><ele>560.0</ele><time>2026-04-11T11:58:14.838Z</time></trkpt><trkpt lat="43.793791" lon="11.5124057"><ele>561.5</ele><time>2026-04-11T12:00:01.85Z</time></trkpt><trkpt lat="43.7937243" lon="11.5124039"><ele>563.0</ele><time>2026-04-11T12:00:04.843Z</time></trkpt><trkpt lat="43.7936358" lon="11.5124182"><ele>563.0</ele><time>2026-04-11T12:00:07.843Z</time></trkpt><trkpt lat="43.793532" lon="11.5124654"><ele>563.0</ele><time>2026-04-11T12:00:09.874Z</time></trkpt><trkpt lat="43.7934459" lon="11.512525"><ele>563.0</ele><time>2026-04-11T12:00:11.859Z</time></trkpt><trkpt lat="43.793341" lon="11.5125874"><ele>563.0</ele><time>2026-04-11T12:00:13.847Z</time></trkpt><trkpt lat="43.7932447" lon="11.5126285"><ele>563.0</ele><time>2026-04-11T12:00:15.838Z</time></trkpt><trkpt lat="43.7932041" lon="11.5127083"><ele>564.1999999999999</ele><time>2026-04-11T12:00:18.844Z</time></trkpt><trkpt lat="43.7930934" lon="11.5127215"><ele>565.4</ele><time>2026-04-11T12:00:23.853Z</time></trkpt><trkpt lat="43.7929787" lon="11.512761"><ele>566.5999999999999</ele><time>2026-04-11T12:00:25.841Z</time></trkpt><trkpt lat="43.7928593" lon="11.5127387"><ele>567.8</ele><time>2026-04-11T12:00:27.852Z</time></trkpt><trkpt lat="43.7927919" lon="11.5127064"><ele>569.0</ele><time>2026-04-11T12:00:28.853Z</time></trkpt><trkpt lat="43.7927217" lon="11.5126853"><ele>568.7142857142858</ele><time>2026-04-11T12:00:29.848Z</time></trkpt><trkpt lat="43.7926515" lon="11.5126641"><ele>568.4285714285714</ele><time>2026-04-11T12:00:30.853Z</time></trkpt><trkpt lat="43.792584" lon="11.5126588"><ele>568.1428571428571</ele><time>2026-04-11T12:00:31.849Z</time></trkpt><trkpt lat="43.7925203" lon="11.5126535"><ele>567.8571428571429</ele><time>2026-04-11T12:00:32.846Z</time></trkpt><trkpt lat="43.7924299" lon="11.5126681"><ele>567.5714285714286</ele><time>2026-04-11T12:00:34.859Z</time></trkpt><trkpt lat="43.7923589" lon="11.5127081"><ele>567.2857142857143</ele><time>2026-04-11T12:00:37.84Z</time></trkpt><trkpt lat="43.7924299" lon="11.5127014"><ele>567.0</ele><time>2026-04-11T12:00:50.826Z</time></trkpt><trkpt lat="43.7924867" lon="11.5126627"><ele>567.0</ele><time>2026-04-11T12:00:52.815Z</time></trkpt><trkpt lat="43.7925738" lon="11.5126474"><ele>567.0</ele><time>2026-04-11T12:00:54.828Z</time></trkpt><trkpt lat="43.7926752" lon="11.5126474"><ele>567.0</ele><time>2026-04-11T12:00:56.828Z</time></trkpt><trkpt lat="43.792739" lon="11.5126696"><ele>567.0</ele><time>2026-04-11T12:00:57.832Z</time></trkpt><trkpt lat="43.7928062" lon="11.5127036"><ele>567.0</ele><time>2026-04-11T12:00:58.831Z</time></trkpt><trkpt lat="43.7928814" lon="11.5127368"><ele>567.0</ele><time>2026-04-11T12:00:59.829Z</time></trkpt><trkpt lat="43.7929461" lon="11.512752"><ele>567.3333333333334</ele><time>2026-04-11T12:01:00.825Z</time></trkpt><trkpt lat="43.7930251" lon="11.5127412"><ele>567.6666666666666</ele><time>2026-04-11T12:01:01.833Z</time></trkpt><trkpt lat="43.7931001" lon="11.5127174"><ele>568.0</ele><time>2026-04-11T12:01:02.829Z</time></trkpt><trkpt lat="43.7931615" lon="11.5126963"><ele>568.3333333333333</ele><time>2026-04-11T12:01:03.83Z</time></trkpt><trkpt lat="43.793268" lon="11.5126767"><ele>568.6666666666666</ele><time>2026-04-11T12:01:05.834Z</time></trkpt><trkpt lat="43.7933803" lon="11.5126785"><ele>569.0</ele><time>2026-04-11T12:01:07.838Z</time></trkpt><trkpt lat="43.7934817" lon="11.5127172"><ele>567.8</ele><time>2026-04-11T12:01:09.829Z</time></trkpt><trkpt lat="43.7935147" lon="11.5128338"><ele>566.5999999999999</ele><time>2026-04-11T12:01:12.825Z</time></trkpt><trkpt lat="43.7934909" lon="11.512934"><ele>565.4</ele><time>2026-04-11T12:01:14.82Z</time></trkpt><trkpt lat="43.7934602" lon="11.5130623"><ele>564.1999999999999</ele><time>2026-04-11T12:01:16.844Z</time></trkpt><trkpt lat="43.7934445" lon="11.5132032"><ele>563.0</ele><time>2026-04-11T12:01:18.843Z</time></trkpt><trkpt lat="43.7934193" lon="11.5133529"><ele>566.4</ele><time>2026-04-11T12:01:20.83Z</time></trkpt><trkpt lat="43.7933876" lon="11.5135192"><ele>569.8</ele><time>2026-04-11T12:01:22.832Z</time></trkpt><trkpt lat="43.7933604" lon="11.5136433"><ele>573.2</ele><time>2026-04-11T12:01:24.83Z</time></trkpt><trkpt lat="43.7933328" lon="11.5137869"><ele>576.6</ele><time>2026-04-11T12:01:26.824Z</time></trkpt><trkpt lat="43.7933649" lon="11.5139529"><ele>580.0</ele><time>2026-04-11T12:01:28.822Z</time></trkpt><trkpt lat="43.7933939" lon="11.5140429"><ele>582.3333333333334</ele><time>2026-04-11T12:01:29.836Z</time></trkpt><trkpt lat="43.7934162" lon="11.5141387"><ele>584.6666666666667</ele><time>2026-04-11T12:01:30.828Z</time></trkpt><trkpt lat="43.7934281" lon="11.5142496"><ele>587.0</ele><time>2026-04-11T12:01:31.83Z</time></trkpt><trkpt lat="43.7934449" lon="11.5143588"><ele>589.3333333333334</ele><time>2026-04-11T12:01:32.83Z</time></trkpt><trkpt lat="43.7934663" lon="11.514463"><ele>591.6666666666666</ele><time>2026-04-11T12:01:33.841Z</time></trkpt><trkpt lat="43.7934616" lon="11.5146449"><ele>594.0</ele><time>2026-04-11T12:01:35.833Z</time></trkpt><trkpt lat="43.7934372" lon="11.5147749"><ele>596.0</ele><time>2026-04-11T12:01:37.832Z</time></trkpt><trkpt lat="43.7933928" lon="11.5148959"><ele>598.0</ele><time>2026-04-11T12:01:39.838Z</time></trkpt><trkpt lat="43.7933606" lon="11.514973"><ele>600.0</ele><time>2026-04-11T12:01:41.826Z</time></trkpt><trkpt lat="43.7933392" lon="11.5150599"><ele>602.0</ele><time>2026-04-11T12:01:43.838Z</time></trkpt><trkpt lat="43.7933479" lon="11.5151709"><ele>604.0</ele><time>2026-04-11T12:01:45.835Z</time></trkpt><trkpt lat="43.7933834" lon="11.5152954"><ele>606.0</ele><time>2026-04-11T12:01:47.839Z</time></trkpt><trkpt lat="43.7934219" lon="11.5153678"><ele>605.6</ele><time>2026-04-11T12:01:48.827Z</time></trkpt><trkpt lat="43.7934974" lon="11.5154793"><ele>605.2</ele><time>2026-04-11T12:01:50.828Z</time></trkpt><trkpt lat="43.7936073" lon="11.5155238"><ele>604.8</ele><time>2026-04-11T12:01:52.827Z</time></trkpt><trkpt lat="43.7936741" lon="11.515554"><ele>604.4</ele><time>2026-04-11T12:01:53.837Z</time></trkpt><trkpt lat="43.7937417" lon="11.5156082"><ele>604.0</ele><time>2026-04-11T12:01:54.821Z</time></trkpt><trkpt lat="43.7938182" lon="11.5157528"><ele>604.0</ele><time>2026-04-11T12:01:56.843Z</time></trkpt><trkpt lat="43.7938503" lon="11.5158686"><ele>604.0</ele><time>2026-04-11T12:01:57.826Z</time></trkpt><trkpt lat="43.7938901" lon="11.5159798"><ele>604.0</ele><time>2026-04-11T12:01:58.831Z</time></trkpt><trkpt lat="43.7939319" lon="11.5161005"><ele>604.0</ele><time>2026-04-11T12:01:59.825Z</time></trkpt><trkpt lat="43.7939834" lon="11.5162234"><ele>604.0</ele><time>2026-04-11T12:02:00.826Z</time></trkpt><trkpt lat="43.7940303" lon="11.5163504"><ele>606.5</ele><time>2026-04-11T12:02:01.833Z</time></trkpt><trkpt lat="43.7940724" lon="11.5164677"><ele>609.0</ele><time>2026-04-11T12:02:02.833Z</time></trkpt><trkpt lat="43.7941113" lon="11.5165823"><ele>611.5</ele><time>2026-04-11T12:02:03.834Z</time></trkpt><trkpt lat="43.7941452" lon="11.5166671"><ele>614.0</ele><time>2026-04-11T12:02:04.83Z</time></trkpt><trkpt lat="43.794182" lon="11.5167498"><ele>616.5</ele><time>2026-04-11T12:02:05.832Z</time></trkpt><trkpt lat="43.7942258" lon="11.5168132"><ele>619.0</ele><time>2026-04-11T12:02:06.833Z</time></trkpt><trkpt lat="43.7942675" lon="11.5169578"><ele>619.0</ele><time>2026-04-11T12:02:08.834Z</time></trkpt><trkpt lat="43.7942695" lon="11.5170494"><ele>619.0</ele><time>2026-04-11T12:02:09.821Z</time></trkpt><trkpt lat="43.7942849" lon="11.5172222"><ele>619.0</ele><time>2026-04-11T12:02:11.821Z</time></trkpt><trkpt lat="43.7943058" lon="11.5173126"><ele>619.0</ele><time>2026-04-11T12:02:12.825Z</time></trkpt><trkpt lat="43.7943462" lon="11.5174003"><ele>619.0</ele><time>2026-04-11T12:02:13.825Z</time></trkpt><trkpt lat="43.7944128" lon="11.5175167"><ele>619.0</ele><time>2026-04-11T12:02:15.831Z</time></trkpt><trkpt lat="43.7944557" lon="11.5176622"><ele>618.2</ele><time>2026-04-11T12:02:17.834Z</time></trkpt><trkpt lat="43.7944648" lon="11.5178112"><ele>617.4</ele><time>2026-04-11T12:02:19.83Z</time></trkpt><trkpt lat="43.7944711" lon="11.517942"><ele>616.6</ele><time>2026-04-11T12:02:21.828Z</time></trkpt><trkpt lat="43.7945441" lon="11.518054"><ele>615.8</ele><time>2026-04-11T12:02:23.837Z</time></trkpt><trkpt lat="43.794606" lon="11.518095"><ele>615.0</ele><time>2026-04-11T12:02:24.833Z</time></trkpt><trkpt lat="43.7946692" lon="11.5181436"><ele>615.0</ele><time>2026-04-11T12:02:25.838Z</time></trkpt><trkpt lat="43.7947333" lon="11.5182175"><ele>615.0</ele><time>2026-04-11T12:02:26.835Z</time></trkpt><trkpt lat="43.7947801" lon="11.5182988"><ele>615.0</ele><time>2026-04-11T12:02:27.83Z</time></trkpt><trkpt lat="43.7948042" lon="11.5183942"><ele>615.0</ele><time>2026-04-11T12:02:28.842Z</time></trkpt><trkpt lat="43.79482" lon="11.5184889"><ele>615.0</ele><time>2026-04-11T12:02:29.823Z</time></trkpt><trkpt lat="43.7948892" lon="11.5186054"><ele>615.0</ele><time>2026-04-11T12:02:31.826Z</time></trkpt><trkpt lat="43.7949636" lon="11.5187269"><ele>614.8333333333334</ele><time>2026-04-11T12:02:33.833Z</time></trkpt><trkpt lat="43.7950154" lon="11.5188223"><ele>614.6666666666666</ele><time>2026-04-11T12:02:35.824Z</time></trkpt><trkpt lat="43.795066" lon="11.518922"><ele>614.5</ele><time>2026-04-11T12:02:37.823Z</time></trkpt><trkpt lat="43.7951186" lon="11.5190115"><ele>614.3333333333333</ele><time>2026-04-11T12:02:39.828Z</time></trkpt><trkpt lat="43.7951757" lon="11.5190862"><ele>614.1666666666666</ele><time>2026-04-11T12:02:41.833Z</time></trkpt><trkpt lat="43.795227" lon="11.5191593"><ele>614.0</ele><time>2026-04-11T12:02:43.826Z</time></trkpt><trkpt lat="43.7952779" lon="11.5192556"><ele>614.0</ele><time>2026-04-11T12:02:45.831Z</time></trkpt><trkpt lat="43.7953155" lon="11.5193672"><ele>614.0</ele><time>2026-04-11T12:02:49.838Z</time></trkpt><trkpt lat="43.7953479" lon="11.5194478"><ele>614.0</ele><time>2026-04-11T12:02:51.841Z</time></trkpt><trkpt lat="43.7953768" lon="11.5195392"><ele>614.0</ele><time>2026-04-11T12:02:53.827Z</time></trkpt><trkpt lat="43.7954317" lon="11.5196235"><ele>614.0</ele><time>2026-04-11T12:02:55.832Z</time></trkpt><trkpt lat="43.7955213" lon="11.5196113"><ele>614.0</ele><time>2026-04-11T12:02:57.825Z</time></trkpt><trkpt lat="43.7956311" lon="11.519566"><ele>616.5</ele><time>2026-04-11T12:02:59.825Z</time></trkpt><trkpt lat="43.7956938" lon="11.5195794"><ele>619.0</ele><time>2026-04-11T12:03:00.818Z</time></trkpt><trkpt lat="43.7957702" lon="11.519707"><ele>621.5</ele><time>2026-04-11T12:03:02.819Z</time></trkpt><trkpt lat="43.7958317" lon="11.5198089"><ele>624.0</ele><time>2026-04-11T12:03:04.834Z</time></trkpt><trkpt lat="43.7958933" lon="11.5198665"><ele>626.5</ele><time>2026-04-11T12:03:06.84Z</time></trkpt><trkpt lat="43.795976" lon="11.5199003"><ele>629.0</ele><time>2026-04-11T12:03:08.829Z</time></trkpt><trkpt lat="43.796074" lon="11.5198803"><ele>629.0</ele><time>2026-04-11T12:03:11.823Z</time></trkpt><trkpt lat="43.7961808" lon="11.5198574"><ele>629.0</ele><time>2026-04-11T12:03:13.819Z</time></trkpt><trkpt lat="43.7962547" lon="11.5198198"><ele>629.0</ele><time>2026-04-11T12:03:14.831Z</time></trkpt><trkpt lat="43.7963633" lon="11.5198048"><ele>629.0</ele><time>2026-04-11T12:03:16.824Z</time></trkpt><trkpt lat="43.7964802" lon="11.5198362"><ele>629.0</ele><time>2026-04-11T12:03:18.826Z</time></trkpt><trkpt lat="43.7966039" lon="11.5199006"><ele>629.0</ele><time>2026-04-11T12:03:20.829Z</time></trkpt><trkpt lat="43.7966709" lon="11.5199482"><ele>629.0</ele><time>2026-04-11T12:03:21.824Z</time></trkpt><trkpt lat="43.7967312" lon="11.5200121"><ele>629.0</ele><time>2026-04-11T12:03:22.827Z</time></trkpt><trkpt lat="43.7968073" lon="11.5200932"><ele>629.0</ele><time>2026-04-11T12:03:23.828Z</time></trkpt><trkpt lat="43.7968977" lon="11.5201876"><ele>629.0</ele><time>2026-04-11T12:03:24.838Z</time></trkpt><trkpt lat="43.796991" lon="11.5202549"><ele>629.6666666666666</ele><time>2026-04-11T12:03:25.846Z</time></trkpt><trkpt lat="43.7970518" lon="11.5203042"><ele>630.3333333333333</ele><time>2026-04-11T12:03:26.841Z</time></trkpt><trkpt lat="43.7971023" lon="11.5203724"><ele>631.0</ele><time>2026-04-11T12:03:27.829Z</time></trkpt><trkpt lat="43.7971482" lon="11.5204401"><ele>631.6666666666666</ele><time>2026-04-11T12:03:28.827Z</time></trkpt><trkpt lat="43.7971882" lon="11.5205449"><ele>632.3333333333334</ele><time>2026-04-11T12:03:29.829Z</time></trkpt><trkpt lat="43.7972193" lon="11.5206504"><ele>633.0</ele><time>2026-04-11T12:03:30.836Z</time></trkpt><trkpt lat="43.7972488" lon="11.5207626"><ele>633.0</ele><time>2026-04-11T12:03:31.823Z</time></trkpt><trkpt lat="43.797265" lon="11.5208847"><ele>633.0</ele><time>2026-04-11T12:03:32.843Z</time></trkpt><trkpt lat="43.7972857" lon="11.5210189"><ele>633.0</ele><time>2026-04-11T12:03:33.835Z</time></trkpt><trkpt lat="43.7973123" lon="11.5211284"><ele>633.0</ele><time>2026-04-11T12:03:34.831Z</time></trkpt><trkpt lat="43.7973432" lon="11.5212161"><ele>633.0</ele><time>2026-04-11T12:03:35.833Z</time></trkpt><trkpt lat="43.7973742" lon="11.5213096"><ele>633.0</ele><time>2026-04-11T12:03:36.829Z</time></trkpt><trkpt lat="43.7974147" lon="11.5214068"><ele>634.3333333333334</ele><time>2026-04-11T12:03:37.839Z</time></trkpt><trkpt lat="43.7974819" lon="11.5214969"><ele>635.6666666666666</ele><time>2026-04-11T12:03:38.826Z</time></trkpt><trkpt lat="43.7975398" lon="11.5215908"><ele>637.0</ele><time>2026-04-11T12:03:39.832Z</time></trkpt><trkpt lat="43.7975968" lon="11.5216681"><ele>638.3333333333333</ele><time>2026-04-11T12:03:40.845Z</time></trkpt><trkpt lat="43.797668" lon="11.5216865"><ele>639.6666666666666</ele><time>2026-04-11T12:03:41.834Z</time></trkpt><trkpt lat="43.7977629" lon="11.5216672"><ele>641.0</ele><time>2026-04-11T12:03:42.835Z</time></trkpt><trkpt lat="43.7978818" lon="11.5216235"><ele>641.0</ele><time>2026-04-11T12:03:43.836Z</time></trkpt><trkpt lat="43.7979932" lon="11.5215769"><ele>641.0</ele><time>2026-04-11T12:03:44.826Z</time></trkpt><trkpt lat="43.798089" lon="11.5215449"><ele>641.0</ele><time>2026-04-11T12:03:45.827Z</time></trkpt><trkpt lat="43.7981767" lon="11.5215261"><ele>641.0</ele><time>2026-04-11T12:03:46.83Z</time></trkpt><trkpt lat="43.7982577" lon="11.5215421"><ele>641.0</ele><time>2026-04-11T12:03:47.83Z</time></trkpt><trkpt lat="43.7983482" lon="11.5215929"><ele>641.0</ele><time>2026-04-11T12:03:48.817Z</time></trkpt><trkpt lat="43.7984331" lon="11.5216649"><ele>641.0</ele><time>2026-04-11T12:03:49.836Z</time></trkpt><trkpt lat="43.7985095" lon="11.5217524"><ele>641.0</ele><time>2026-04-11T12:03:50.827Z</time></trkpt><trkpt lat="43.798573" lon="11.5218105"><ele>641.0</ele><time>2026-04-11T12:03:51.82Z</time></trkpt><trkpt lat="43.7986525" lon="11.5219095"><ele>641.0</ele><time>2026-04-11T12:03:53.822Z</time></trkpt><trkpt lat="43.7987626" lon="11.5220099"><ele>639.6666666666666</ele><time>2026-04-11T12:03:55.837Z</time></trkpt><trkpt lat="43.7988238" lon="11.5220607"><ele>638.3333333333333</ele><time>2026-04-11T12:03:56.821Z</time></trkpt><trkpt lat="43.7988731" lon="11.5221249"><ele>637.0</ele><time>2026-04-11T12:03:57.836Z</time></trkpt><trkpt lat="43.7989159" lon="11.5222352"><ele>635.6666666666666</ele><time>2026-04-11T12:03:59.828Z</time></trkpt><trkpt lat="43.7989428" lon="11.5223439"><ele>634.3333333333334</ele><time>2026-04-11T12:04:02.831Z</time></trkpt><trkpt lat="43.7989633" lon="11.5224393"><ele>633.0</ele><time>2026-04-11T12:04:10.831Z</time></trkpt><trkpt lat="43.7990098" lon="11.52257"><ele>633.0</ele><time>2026-04-11T12:04:13.827Z</time></trkpt><trkpt lat="43.799041" lon="11.522684"><ele>633.0</ele><time>2026-04-11T12:04:15.828Z</time></trkpt><trkpt lat="43.7990836" lon="11.5228152"><ele>633.0</ele><time>2026-04-11T12:04:17.832Z</time></trkpt><trkpt lat="43.7991255" lon="11.5229602"><ele>633.0</ele><time>2026-04-11T12:04:19.829Z</time></trkpt><trkpt lat="43.7991373" lon="11.5231035"><ele>633.0</ele><time>2026-04-11T12:04:21.829Z</time></trkpt><trkpt lat="43.7991715" lon="11.5232575"><ele>633.8</ele><time>2026-04-11T12:04:23.834Z</time></trkpt><trkpt lat="43.7992267" lon="11.5233925"><ele>634.5999999999999</ele><time>2026-04-11T12:04:25.835Z</time></trkpt><trkpt lat="43.7992814" lon="11.5235123"><ele>635.4000000000001</ele><time>2026-04-11T12:04:27.835Z</time></trkpt><trkpt lat="43.7993494" lon="11.5236577"><ele>636.2</ele><time>2026-04-11T12:04:29.832Z</time></trkpt><trkpt lat="43.7993899" lon="11.5237497"><ele>637.0</ele><time>2026-04-11T12:04:30.852Z</time></trkpt><trkpt lat="43.7994346" lon="11.5238421"><ele>635.5</ele><time>2026-04-11T12:04:31.831Z</time></trkpt><trkpt lat="43.7994796" lon="11.5239296"><ele>634.0</ele><time>2026-04-11T12:04:32.827Z</time></trkpt><trkpt lat="43.7995336" lon="11.5240364"><ele>632.5</ele><time>2026-04-11T12:04:34.835Z</time></trkpt><trkpt lat="43.7995711" lon="11.524119"><ele>631.0</ele><time>2026-04-11T12:04:36.834Z</time></trkpt><trkpt lat="43.7996338" lon="11.5241788"><ele>629.5</ele><time>2026-04-11T12:04:38.832Z</time></trkpt><trkpt lat="43.79974" lon="11.5240793"><ele>628.0</ele><time>2026-04-11T12:04:40.833Z</time></trkpt><trkpt lat="43.7997963" lon="11.5240271"><ele>628.0</ele><time>2026-04-11T12:04:41.822Z</time></trkpt><trkpt lat="43.7998867" lon="11.5239814"><ele>628.0</ele><time>2026-04-11T12:04:43.835Z</time></trkpt><trkpt lat="43.7999909" lon="11.5240291"><ele>628.0</ele><time>2026-04-11T12:04:45.819Z</time></trkpt><trkpt lat="43.8000133" lon="11.5241265"><ele>628.0</ele><time>2026-04-11T12:04:47.832Z</time></trkpt><trkpt lat="43.8000081" lon="11.5242549"><ele>628.0</ele><time>2026-04-11T12:04:49.827Z</time></trkpt><trkpt lat="43.8000815" lon="11.5243721"><ele>628.0</ele><time>2026-04-11T12:04:51.826Z</time></trkpt><trkpt lat="43.8001329" lon="11.5244362"><ele>628.0</ele><time>2026-04-11T12:04:52.828Z</time></trkpt><trkpt lat="43.8001856" lon="11.524492"><ele>628.0</ele><time>2026-04-11T12:04:53.83Z</time></trkpt><trkpt lat="43.8002577" lon="11.5245943"><ele>628.0</ele><time>2026-04-11T12:04:55.836Z</time></trkpt><trkpt lat="43.8003039" lon="11.5247348"><ele>628.0</ele><time>2026-04-11T12:04:57.839Z</time></trkpt><trkpt lat="43.8003148" lon="11.524834"><ele>628.0</ele><time>2026-04-11T12:04:58.83Z</time></trkpt><trkpt lat="43.8003054" lon="11.5249526"><ele>626.6666666666667</ele><time>2026-04-11T12:04:59.828Z</time></trkpt><trkpt lat="43.8002926" lon="11.5250734"><ele>625.3333333333334</ele><time>2026-04-11T12:05:00.835Z</time></trkpt><trkpt lat="43.8002785" lon="11.525203"><ele>624.0</ele><time>2026-04-11T12:05:01.825Z</time></trkpt><trkpt lat="43.8002642" lon="11.5253359"><ele>622.6666666666666</ele><time>2026-04-11T12:05:02.839Z</time></trkpt><trkpt lat="43.8002603" lon="11.5254552"><ele>621.3333333333333</ele><time>2026-04-11T12:05:03.846Z</time></trkpt><trkpt lat="43.8002684" lon="11.5255497"><ele>620.0</ele><time>2026-04-11T12:05:04.836Z</time></trkpt><trkpt lat="43.8002798" lon="11.525637"><ele>620.0</ele><time>2026-04-11T12:05:05.839Z</time></trkpt><trkpt lat="43.8002946" lon="11.525788"><ele>620.0</ele><time>2026-04-11T12:05:07.83Z</time></trkpt><trkpt lat="43.8003293" lon="11.5259172"><ele>620.0</ele><time>2026-04-11T12:05:09.841Z</time></trkpt><trkpt lat="43.8003672" lon="11.5260369"><ele>620.0</ele><time>2026-04-11T12:05:11.834Z</time></trkpt><trkpt lat="43.8003935" lon="11.5261289"><ele>620.0</ele><time>2026-04-11T12:05:13.83Z</time></trkpt><trkpt lat="43.8004065" lon="11.5262238"><ele>620.0</ele><time>2026-04-11T12:05:15.829Z</time></trkpt><trkpt lat="43.8004115" lon="11.526327"><ele>620.1666666666666</ele><time>2026-04-11T12:05:17.833Z</time></trkpt><trkpt lat="43.800408" lon="11.5264514"><ele>620.3333333333333</ele><time>2026-04-11T12:05:19.824Z</time></trkpt><trkpt lat="43.8003864" lon="11.5265724"><ele>620.5</ele><time>2026-04-11T12:05:21.835Z</time></trkpt><trkpt lat="43.8003651" lon="11.5266678"><ele>620.6666666666666</ele><time>2026-04-11T12:05:23.832Z</time></trkpt><trkpt lat="43.8003336" lon="11.5267517"><ele>620.8333333333334</ele><time>2026-04-11T12:05:25.83Z</time></trkpt><trkpt lat="43.8003647" lon="11.5268437"><ele>621.0</ele><time>2026-04-11T12:05:37.826Z</time></trkpt><trkpt lat="43.8003001" lon="11.5268254"><ele>621.0</ele><time>2026-04-11T12:05:40.831Z</time></trkpt><trkpt lat="43.8003473" lon="11.5267411"><ele>621.0</ele><time>2026-04-11T12:06:33.896Z</time></trkpt><trkpt lat="43.8003847" lon="11.5266153"><ele>621.0</ele><time>2026-04-11T12:06:36.879Z</time></trkpt><trkpt lat="43.8003923" lon="11.5264738"><ele>621.0</ele><time>2026-04-11T12:06:38.849Z</time></trkpt><trkpt lat="43.8003936" lon="11.5263099"><ele>621.0</ele><time>2026-04-11T12:06:40.876Z</time></trkpt><trkpt lat="43.8003809" lon="11.5261429"><ele>620.8333333333334</ele><time>2026-04-11T12:06:42.866Z</time></trkpt><trkpt lat="43.80036" lon="11.5260505"><ele>620.6666666666666</ele><time>2026-04-11T12:06:43.909Z</time></trkpt><trkpt lat="43.8003457" lon="11.5259631"><ele>620.5</ele><time>2026-04-11T12:06:44.879Z</time></trkpt><trkpt lat="43.8003299" lon="11.5258773"><ele>620.3333333333333</ele><time>2026-04-11T12:06:45.878Z</time></trkpt><trkpt lat="43.8002852" lon="11.5257233"><ele>620.1666666666666</ele><time>2026-04-11T12:06:47.879Z</time></trkpt><trkpt lat="43.8002659" lon="11.5256011"><ele>620.0</ele><time>2026-04-11T12:06:49.852Z</time></trkpt><trkpt lat="43.8002427" lon="11.5254652"><ele>619.6666666666666</ele><time>2026-04-11T12:06:51.866Z</time></trkpt><trkpt lat="43.80024" lon="11.5253289"><ele>619.3333333333333</ele><time>2026-04-11T12:06:53.92Z</time></trkpt><trkpt lat="43.8002712" lon="11.5251832"><ele>619.0</ele><time>2026-04-11T12:06:55.891Z</time></trkpt><trkpt lat="43.8002884" lon="11.5250796"><ele>618.6666666666666</ele><time>2026-04-11T12:06:56.86Z</time></trkpt><trkpt lat="43.8003038" lon="11.5249819"><ele>618.3333333333334</ele><time>2026-04-11T12:06:57.874Z</time></trkpt><trkpt lat="43.8003108" lon="11.5248785"><ele>618.0</ele><time>2026-04-11T12:06:58.878Z</time></trkpt><trkpt lat="43.8003072" lon="11.5247785"><ele>618.0</ele><time>2026-04-11T12:06:59.88Z</time></trkpt><trkpt lat="43.8002963" lon="11.5246906"><ele>618.0</ele><time>2026-04-11T12:07:00.896Z</time></trkpt><trkpt lat="43.8002745" lon="11.5245747"><ele>618.0</ele><time>2026-04-11T12:07:02.882Z</time></trkpt><trkpt lat="43.8002097" lon="11.5244948"><ele>618.0</ele><time>2026-04-11T12:07:05.891Z</time></trkpt><trkpt lat="43.800125" lon="11.5244203"><ele>618.0</ele><time>2026-04-11T12:07:07.892Z</time></trkpt><trkpt lat="43.8000459" lon="11.5243476"><ele>618.0</ele><time>2026-04-11T12:07:09.827Z</time></trkpt><trkpt lat="43.7999785" lon="11.5242893"><ele>618.0</ele><time>2026-04-11T12:07:11.885Z</time></trkpt><trkpt lat="43.8000533" lon="11.524316"><ele>618.0</ele><time>2026-04-11T12:07:20.892Z</time></trkpt><trkpt lat="43.8001104" lon="11.5243684"><ele>618.0</ele><time>2026-04-11T12:07:22.886Z</time></trkpt><trkpt lat="43.8001702" lon="11.5244179"><ele>618.0</ele><time>2026-04-11T12:08:18.837Z</time></trkpt><trkpt lat="43.800257" lon="11.5244875"><ele>618.0</ele><time>2026-04-11T12:08:20.827Z</time></trkpt><trkpt lat="43.8003071" lon="11.5245681"><ele>618.0</ele><time>2026-04-11T12:08:22.836Z</time></trkpt><trkpt lat="43.8003274" lon="11.5247222"><ele>618.0</ele><time>2026-04-11T12:08:28.84Z</time></trkpt><trkpt lat="43.8003325" lon="11.5248248"><ele>618.0</ele><time>2026-04-11T12:08:29.845Z</time></trkpt><trkpt lat="43.8003306" lon="11.5249374"><ele>618.0</ele><time>2026-04-11T12:08:30.837Z</time></trkpt><trkpt lat="43.8003164" lon="11.5250395"><ele>618.0</ele><time>2026-04-11T12:08:31.835Z</time></trkpt><trkpt lat="43.8002998" lon="11.5251725"><ele>618.0</ele><time>2026-04-11T12:08:33.83Z</time></trkpt><trkpt lat="43.8002932" lon="11.5252909"><ele>618.0</ele><time>2026-04-11T12:08:35.828Z</time></trkpt><trkpt lat="43.800263" lon="11.5253961"><ele>618.0</ele><time>2026-04-11T12:08:38.825Z</time></trkpt><trkpt lat="43.8002568" lon="11.52549"><ele>618.0</ele><time>2026-04-11T12:08:41.83Z</time></trkpt><trkpt lat="43.8002376" lon="11.5254055"><ele>618.0</ele><time>2026-04-11T12:08:58.855Z</time></trkpt><trkpt lat="43.8002627" lon="11.5252458"><ele>618.0</ele><time>2026-04-11T12:09:11.833Z</time></trkpt><trkpt lat="43.8002797" lon="11.5251247"><ele>618.0</ele><time>2026-04-11T12:09:12.844Z</time></trkpt><trkpt lat="43.8002975" lon="11.5249968"><ele>618.0</ele><time>2026-04-11T12:09:13.832Z</time></trkpt><trkpt lat="43.8003117" lon="11.52487"><ele>618.0</ele><time>2026-04-11T12:09:14.844Z</time></trkpt><trkpt lat="43.8003083" lon="11.5247289"><ele>618.0</ele><time>2026-04-11T12:09:15.829Z</time></trkpt><trkpt lat="43.8002899" lon="11.5246187"><ele>618.0</ele><time>2026-04-11T12:09:16.836Z</time></trkpt><trkpt lat="43.8002359" lon="11.5244876"><ele>618.0</ele><time>2026-04-11T12:09:18.835Z</time></trkpt><trkpt lat="43.8001719" lon="11.5244395"><ele>618.0</ele><time>2026-04-11T12:09:19.826Z</time></trkpt><trkpt lat="43.8000996" lon="11.5243911"><ele>618.0</ele><time>2026-04-11T12:09:20.827Z</time></trkpt><trkpt lat="43.8000431" lon="11.5243438"><ele>618.0</ele><time>2026-04-11T12:09:21.835Z</time></trkpt><trkpt lat="43.7999684" lon="11.5242616"><ele>618.0</ele><time>2026-04-11T12:09:23.836Z</time></trkpt><trkpt lat="43.800046" lon="11.5243299"><ele>618.0</ele><time>2026-04-11T12:09:43.825Z</time></trkpt><trkpt lat="43.8001715" lon="11.5244399"><ele>618.0</ele><time>2026-04-11T12:09:45.834Z</time></trkpt><trkpt lat="43.8002501" lon="11.5245031"><ele>618.0</ele><time>2026-04-11T12:09:46.851Z</time></trkpt><trkpt lat="43.8003048" lon="11.5245709"><ele>618.0</ele><time>2026-04-11T12:09:47.844Z</time></trkpt><trkpt lat="43.800322" lon="11.5246859"><ele>618.0</ele><time>2026-04-11T12:09:48.826Z</time></trkpt><trkpt lat="43.8003192" lon="11.5248506"><ele>618.0</ele><time>2026-04-11T12:09:49.827Z</time></trkpt><trkpt lat="43.8003076" lon="11.5250235"><ele>618.0</ele><time>2026-04-11T12:09:50.827Z</time></trkpt><trkpt lat="43.8002898" lon="11.5251776"><ele>618.0</ele><time>2026-04-11T12:09:51.836Z</time></trkpt><trkpt lat="43.8002656" lon="11.5253251"><ele>618.4</ele><time>2026-04-11T12:09:52.839Z</time></trkpt><trkpt lat="43.8002459" lon="11.5254694"><ele>618.8</ele><time>2026-04-11T12:09:53.832Z</time></trkpt><trkpt lat="43.8002532" lon="11.52561"><ele>619.2</ele><time>2026-04-11T12:09:54.834Z</time></trkpt><trkpt lat="43.8002819" lon="11.5257395"><ele>619.6</ele><time>2026-04-11T12:09:55.851Z</time></trkpt><trkpt lat="43.8003248" lon="11.5258605"><ele>620.0</ele><time>2026-04-11T12:09:56.838Z</time></trkpt><trkpt lat="43.8003526" lon="11.5259681"><ele>620.0</ele><time>2026-04-11T12:09:57.842Z</time></trkpt><trkpt lat="43.8003706" lon="11.5260535"><ele>620.0</ele><time>2026-04-11T12:09:58.836Z</time></trkpt><trkpt lat="43.8003837" lon="11.5261484"><ele>620.0</ele><time>2026-04-11T12:09:59.835Z</time></trkpt><trkpt lat="43.8003982" lon="11.5262436"><ele>620.0</ele><time>2026-04-11T12:10:00.826Z</time></trkpt><trkpt lat="43.8003984" lon="11.5264179"><ele>620.0</ele><time>2026-04-11T12:10:02.834Z</time></trkpt><trkpt lat="43.8003835" lon="11.5265193"><ele>620.0</ele><time>2026-04-11T12:10:03.826Z</time></trkpt><trkpt lat="43.8003574" lon="11.5266614"><ele>620.1666666666666</ele><time>2026-04-11T12:10:05.823Z</time></trkpt><trkpt lat="43.8003244" lon="11.5267512"><ele>620.3333333333333</ele><time>2026-04-11T12:10:07.839Z</time></trkpt><trkpt lat="43.8002868" lon="11.5268298"><ele>620.5</ele><time>2026-04-11T12:10:10.833Z</time></trkpt><trkpt lat="43.8001956" lon="11.5268118"><ele>620.6666666666666</ele><time>2026-04-11T12:19:34.817Z</time></trkpt><trkpt lat="43.8000858" lon="11.5268576"><ele>620.8333333333334</ele><time>2026-04-11T12:19:36.83Z</time></trkpt><trkpt lat="43.8000223" lon="11.5268804"><ele>621.0</ele><time>2026-04-11T12:19:37.825Z</time></trkpt><trkpt lat="43.7999582" lon="11.5269084"><ele>621.6666666666666</ele><time>2026-04-11T12:19:38.837Z</time></trkpt><trkpt lat="43.7998898" lon="11.5269421"><ele>622.3333333333334</ele><time>2026-04-11T12:19:39.835Z</time></trkpt><trkpt lat="43.7998203" lon="11.5269819"><ele>623.0</ele><time>2026-04-11T12:19:40.834Z</time></trkpt><trkpt lat="43.7997578" lon="11.5270194"><ele>623.6666666666667</ele><time>2026-04-11T12:19:41.833Z</time></trkpt><trkpt lat="43.7996453" lon="11.5270617"><ele>624.3333333333334</ele><time>2026-04-11T12:19:43.834Z</time></trkpt><trkpt lat="43.7995327" lon="11.5270968"><ele>625.0</ele><time>2026-04-11T12:19:45.826Z</time></trkpt><trkpt lat="43.7994132" lon="11.5271344"><ele>626.8</ele><time>2026-04-11T12:19:47.832Z</time></trkpt><trkpt lat="43.7993256" lon="11.5272174"><ele>628.6</ele><time>2026-04-11T12:19:49.832Z</time></trkpt><trkpt lat="43.7992547" lon="11.5273331"><ele>630.4</ele><time>2026-04-11T12:19:51.829Z</time></trkpt><trkpt lat="43.7992195" lon="11.5274065"><ele>632.2</ele><time>2026-04-11T12:19:52.833Z</time></trkpt><trkpt lat="43.7991451" lon="11.5275416"><ele>634.0</ele><time>2026-04-11T12:19:54.825Z</time></trkpt><trkpt lat="43.7990967" lon="11.5276136"><ele>634.0</ele><time>2026-04-11T12:19:55.834Z</time></trkpt><trkpt lat="43.7990317" lon="11.5276733"><ele>634.0</ele><time>2026-04-11T12:19:56.824Z</time></trkpt><trkpt lat="43.7989595" lon="11.5277414"><ele>634.0</ele><time>2026-04-11T12:19:57.83Z</time></trkpt><trkpt lat="43.7989028" lon="11.527818"><ele>634.0</ele><time>2026-04-11T12:19:58.825Z</time></trkpt><trkpt lat="43.7988655" lon="11.5279045"><ele>634.0</ele><time>2026-04-11T12:19:59.827Z</time></trkpt><trkpt lat="43.7988328" lon="11.5279988"><ele>634.0</ele><time>2026-04-11T12:20:00.835Z</time></trkpt><trkpt lat="43.7988014" lon="11.5280887"><ele>633.1666666666667</ele><time>2026-04-11T12:20:01.831Z</time></trkpt><trkpt lat="43.7987726" lon="11.5281912"><ele>632.3333333333334</ele><time>2026-04-11T12:20:02.827Z</time></trkpt><trkpt lat="43.7987439" lon="11.5283054"><ele>631.5</ele><time>2026-04-11T12:20:03.843Z</time></trkpt><trkpt lat="43.7987115" lon="11.5284265"><ele>630.6666666666666</ele><time>2026-04-11T12:20:04.83Z</time></trkpt><trkpt lat="43.7986888" lon="11.5285432"><ele>629.8333333333333</ele><time>2026-04-11T12:20:05.832Z</time></trkpt><trkpt lat="43.7986838" lon="11.5286707"><ele>629.0</ele><time>2026-04-11T12:20:06.826Z</time></trkpt><trkpt lat="43.798685" lon="11.5288035"><ele>629.0</ele><time>2026-04-11T12:20:07.827Z</time></trkpt><trkpt lat="43.7987107" lon="11.5289416"><ele>629.0</ele><time>2026-04-11T12:20:08.827Z</time></trkpt><trkpt lat="43.798737" lon="11.5290833"><ele>629.0</ele><time>2026-04-11T12:20:09.82Z</time></trkpt><trkpt lat="43.7987688" lon="11.5292235"><ele>629.0</ele><time>2026-04-11T12:20:10.83Z</time></trkpt><trkpt lat="43.7988118" lon="11.5293646"><ele>629.0</ele><time>2026-04-11T12:20:11.834Z</time></trkpt><trkpt lat="43.7988593" lon="11.5294919"><ele>630.2</ele><time>2026-04-11T12:20:12.836Z</time></trkpt><trkpt lat="43.7988989" lon="11.529613"><ele>631.4</ele><time>2026-04-11T12:20:13.83Z</time></trkpt><trkpt lat="43.7989305" lon="11.5297459"><ele>632.6</ele><time>2026-04-11T12:20:14.828Z</time></trkpt><trkpt lat="43.798944" lon="11.5298711"><ele>633.8</ele><time>2026-04-11T12:20:15.821Z</time></trkpt><trkpt lat="43.7989428" lon="11.5300106"><ele>635.0</ele><time>2026-04-11T12:20:16.834Z</time></trkpt><trkpt lat="43.7989553" lon="11.530138"><ele>635.0</ele><time>2026-04-11T12:20:17.831Z</time></trkpt><trkpt lat="43.7989817" lon="11.5302539"><ele>635.0</ele><time>2026-04-11T12:20:18.821Z</time></trkpt><trkpt lat="43.7990029" lon="11.5303654"><ele>635.0</ele><time>2026-04-11T12:20:19.822Z</time></trkpt><trkpt lat="43.7990063" lon="11.5304535"><ele>635.0</ele><time>2026-04-11T12:20:20.832Z</time></trkpt><trkpt lat="43.7989951" lon="11.5305488"><ele>635.0</ele><time>2026-04-11T12:20:21.835Z</time></trkpt><trkpt lat="43.7989789" lon="11.5306576"><ele>635.0</ele><time>2026-04-11T12:20:22.828Z</time></trkpt><trkpt lat="43.798963" lon="11.5307757"><ele>636.1666666666666</ele><time>2026-04-11T12:20:23.819Z</time></trkpt><trkpt lat="43.7989423" lon="11.5308911"><ele>637.3333333333333</ele><time>2026-04-11T12:20:24.831Z</time></trkpt><trkpt lat="43.7989262" lon="11.5310155"><ele>638.5</ele><time>2026-04-11T12:20:25.824Z</time></trkpt><trkpt lat="43.7989094" lon="11.5311316"><ele>639.6666666666666</ele><time>2026-04-11T12:20:26.83Z</time></trkpt><trkpt lat="43.79889" lon="11.53125"><ele>640.8333333333334</ele><time>2026-04-11T12:20:27.825Z</time></trkpt><trkpt lat="43.7988706" lon="11.5313767"><ele>642.0</ele><time>2026-04-11T12:20:28.822Z</time></trkpt><trkpt lat="43.7988537" lon="11.5314996"><ele>641.9999999999999</ele><time>2026-04-11T12:20:29.817Z</time></trkpt><trkpt lat="43.798832" lon="11.5316221"><ele>642.0</ele><time>2026-04-11T12:20:30.818Z</time></trkpt><trkpt lat="43.7988118" lon="11.5317239"><ele>642.0</ele><time>2026-04-11T12:20:31.825Z</time></trkpt><trkpt lat="43.7987802" lon="11.5318024"><ele>642.0</ele><time>2026-04-11T12:20:32.812Z</time></trkpt><trkpt lat="43.7987377" lon="11.5318847"><ele>642.0</ele><time>2026-04-11T12:20:33.843Z</time></trkpt><trkpt lat="43.7986871" lon="11.5319558"><ele>641.9999999999999</ele><time>2026-04-11T12:20:34.826Z</time></trkpt><trkpt lat="43.798632" lon="11.532011"><ele>642.0</ele><time>2026-04-11T12:20:35.825Z</time></trkpt><trkpt lat="43.7985649" lon="11.5320396"><ele>644.0</ele><time>2026-04-11T12:20:36.831Z</time></trkpt><trkpt lat="43.7984886" lon="11.5320659"><ele>646.0</ele><time>2026-04-11T12:20:37.831Z</time></trkpt><trkpt lat="43.7984005" lon="11.532102"><ele>648.0</ele><time>2026-04-11T12:20:38.825Z</time></trkpt><trkpt lat="43.7983071" lon="11.532151"><ele>650.0</ele><time>2026-04-11T12:20:39.828Z</time></trkpt><trkpt lat="43.7982192" lon="11.532208"><ele>652.0</ele><time>2026-04-11T12:20:40.831Z</time></trkpt><trkpt lat="43.7981311" lon="11.5322365"><ele>652.0</ele><time>2026-04-11T12:20:41.829Z</time></trkpt><trkpt lat="43.7980254" lon="11.5322611"><ele>652.0</ele><time>2026-04-11T12:20:42.839Z</time></trkpt><trkpt lat="43.7979138" lon="11.5322975"><ele>652.0</ele><time>2026-04-11T12:20:43.836Z</time></trkpt><trkpt lat="43.7978075" lon="11.5323402"><ele>652.0</ele><time>2026-04-11T12:20:44.824Z</time></trkpt><trkpt lat="43.7977131" lon="11.532395"><ele>652.0</ele><time>2026-04-11T12:20:45.821Z</time></trkpt><trkpt lat="43.7976316" lon="11.5324734"><ele>658.0</ele><time>2026-04-11T12:20:46.822Z</time></trkpt><trkpt lat="43.797553" lon="11.5325612"><ele>664.0</ele><time>2026-04-11T12:20:47.824Z</time></trkpt><trkpt lat="43.7974733" lon="11.5326386"><ele>670.0</ele><time>2026-04-11T12:20:48.826Z</time></trkpt><trkpt lat="43.7973924" lon="11.5327006"><ele>676.0</ele><time>2026-04-11T12:20:49.836Z</time></trkpt><trkpt lat="43.7973057" lon="11.5327632"><ele>682.0</ele><time>2026-04-11T12:20:50.841Z</time></trkpt><trkpt lat="43.7972171" lon="11.5328078"><ele>682.0</ele><time>2026-04-11T12:20:51.822Z</time></trkpt><trkpt lat="43.7971363" lon="11.5328761"><ele>682.0</ele><time>2026-04-11T12:20:52.832Z</time></trkpt><trkpt lat="43.7970607" lon="11.5329501"><ele>682.0</ele><time>2026-04-11T12:20:53.826Z</time></trkpt><trkpt lat="43.7969932" lon="11.5330357"><ele>682.0</ele><time>2026-04-11T12:20:54.828Z</time></trkpt><trkpt lat="43.7969222" lon="11.5331202"><ele>682.0</ele><time>2026-04-11T12:20:55.833Z</time></trkpt><trkpt lat="43.7968479" lon="11.533211"><ele>684.8</ele><time>2026-04-11T12:20:56.826Z</time></trkpt><trkpt lat="43.7967652" lon="11.5332959"><ele>687.6</ele><time>2026-04-11T12:20:57.837Z</time></trkpt><trkpt lat="43.7966856" lon="11.5333946"><ele>690.4</ele><time>2026-04-11T12:20:58.822Z</time></trkpt><trkpt lat="43.7966348" lon="11.5335039"><ele>693.1999999999999</ele><time>2026-04-11T12:20:59.824Z</time></trkpt><trkpt lat="43.7966074" lon="11.5336232"><ele>696.0</ele><time>2026-04-11T12:21:00.827Z</time></trkpt><trkpt lat="43.7965847" lon="11.5337418"><ele>696.0</ele><time>2026-04-11T12:21:01.823Z</time></trkpt><trkpt lat="43.7965695" lon="11.5338738"><ele>696.0</ele><time>2026-04-11T12:21:02.827Z</time></trkpt><trkpt lat="43.7965473" lon="11.5340237"><ele>696.0</ele><time>2026-04-11T12:21:03.833Z</time></trkpt><trkpt lat="43.7965254" lon="11.5341568"><ele>696.0</ele><time>2026-04-11T12:21:04.832Z</time></trkpt><trkpt lat="43.7964987" lon="11.5343007"><ele>696.0</ele><time>2026-04-11T12:21:05.827Z</time></trkpt><trkpt lat="43.796472" lon="11.5344388"><ele>695.25</ele><time>2026-04-11T12:21:06.831Z</time></trkpt><trkpt lat="43.7964467" lon="11.5345887"><ele>694.5</ele><time>2026-04-11T12:21:07.845Z</time></trkpt><trkpt lat="43.7964172" lon="11.5347478"><ele>693.75</ele><time>2026-04-11T12:21:08.832Z</time></trkpt><trkpt lat="43.7963683" lon="11.5349069"><ele>693.0</ele><time>2026-04-11T12:21:09.833Z</time></trkpt><trkpt lat="43.796321" lon="11.5350591"><ele>693.0</ele><time>2026-04-11T12:21:10.825Z</time></trkpt><trkpt lat="43.7962584" lon="11.535209"><ele>693.0</ele><time>2026-04-11T12:21:11.824Z</time></trkpt><trkpt lat="43.7961938" lon="11.5353506"><ele>693.0</ele><time>2026-04-11T12:21:12.828Z</time></trkpt><trkpt lat="43.7961385" lon="11.5354994"><ele>693.0</ele><time>2026-04-11T12:21:13.833Z</time></trkpt><trkpt lat="43.7961029" lon="11.5356459"><ele>693.5</ele><time>2026-04-11T12:21:14.82Z</time></trkpt><trkpt lat="43.7960777" lon="11.5357755"><ele>694.0</ele><time>2026-04-11T12:21:15.828Z</time></trkpt><trkpt lat="43.7960663" lon="11.5359122"><ele>694.5</ele><time>2026-04-11T12:21:16.818Z</time></trkpt><trkpt lat="43.7960598" lon="11.5360319"><ele>695.0</ele><time>2026-04-11T12:21:17.831Z</time></trkpt><trkpt lat="43.7960722" lon="11.5361411"><ele>695.5</ele><time>2026-04-11T12:21:18.824Z</time></trkpt><trkpt lat="43.7960519" lon="11.5362252"><ele>696.0</ele><time>2026-04-11T12:21:19.863Z</time></trkpt><trkpt lat="43.7960041" lon="11.5363867"><ele>700.8</ele><time>2026-04-11T12:21:21.825Z</time></trkpt><trkpt lat="43.7959754" lon="11.5364927"><ele>705.5999999999999</ele><time>2026-04-11T12:21:22.833Z</time></trkpt><trkpt lat="43.7959718" lon="11.5366492"><ele>710.4</ele><time>2026-04-11T12:21:23.826Z</time></trkpt><trkpt lat="43.7959722" lon="11.5367979"><ele>715.2</ele><time>2026-04-11T12:21:24.826Z</time></trkpt><trkpt lat="43.7959696" lon="11.5369577"><ele>720.0</ele><time>2026-04-11T12:21:25.822Z</time></trkpt><trkpt lat="43.7959619" lon="11.5371211"><ele>720.0</ele><time>2026-04-11T12:21:26.833Z</time></trkpt><trkpt lat="43.795958" lon="11.5372864"><ele>720.0</ele><time>2026-04-11T12:21:27.824Z</time></trkpt><trkpt lat="43.7959546" lon="11.5374566"><ele>720.0</ele><time>2026-04-11T12:21:28.831Z</time></trkpt><trkpt lat="43.7959671" lon="11.5376247"><ele>720.0</ele><time>2026-04-11T12:21:29.83Z</time></trkpt><trkpt lat="43.7959918" lon="11.5377926"><ele>714.75</ele><time>2026-04-11T12:21:30.826Z</time></trkpt><trkpt lat="43.7960305" lon="11.537948"><ele>709.5</ele><time>2026-04-11T12:21:31.829Z</time></trkpt><trkpt lat="43.7960888" lon="11.5381099"><ele>704.25</ele><time>2026-04-11T12:21:32.829Z</time></trkpt><trkpt lat="43.7961785" lon="11.5382721"><ele>699.0</ele><time>2026-04-11T12:21:33.83Z</time></trkpt><trkpt lat="43.7962725" lon="11.5384228"><ele>699.0</ele><time>2026-04-11T12:21:34.833Z</time></trkpt><trkpt lat="43.7963721" lon="11.5385627"><ele>699.0</ele><time>2026-04-11T12:21:35.833Z</time></trkpt><trkpt lat="43.7964722" lon="11.5387014"><ele>699.0</ele><time>2026-04-11T12:21:36.835Z</time></trkpt><trkpt lat="43.7965771" lon="11.5388326"><ele>699.0</ele><time>2026-04-11T12:21:37.822Z</time></trkpt><trkpt lat="43.7966785" lon="11.5389603"><ele>697.5</ele><time>2026-04-11T12:21:38.858Z</time></trkpt><trkpt lat="43.7967944" lon="11.5390736"><ele>696.0</ele><time>2026-04-11T12:21:39.836Z</time></trkpt><trkpt lat="43.7969116" lon="11.5391457"><ele>694.5</ele><time>2026-04-11T12:21:40.829Z</time></trkpt><trkpt lat="43.7970314" lon="11.539193"><ele>693.0</ele><time>2026-04-11T12:21:41.83Z</time></trkpt><trkpt lat="43.7971479" lon="11.5392407"><ele>693.0</ele><time>2026-04-11T12:21:42.824Z</time></trkpt><trkpt lat="43.7972618" lon="11.5392819"><ele>693.0</ele><time>2026-04-11T12:21:43.826Z</time></trkpt><trkpt lat="43.7973673" lon="11.5393378"><ele>693.0</ele><time>2026-04-11T12:21:44.823Z</time></trkpt><trkpt lat="43.7974661" lon="11.539432"><ele>693.0</ele><time>2026-04-11T12:21:45.828Z</time></trkpt><trkpt lat="43.7975566" lon="11.539542"><ele>694.0</ele><time>2026-04-11T12:21:46.822Z</time></trkpt><trkpt lat="43.7976376" lon="11.5396658"><ele>695.0</ele><time>2026-04-11T12:21:47.826Z</time></trkpt><trkpt lat="43.7977129" lon="11.539784"><ele>696.0</ele><time>2026-04-11T12:21:48.819Z</time></trkpt><trkpt lat="43.7977817" lon="11.5398989"><ele>697.0</ele><time>2026-04-11T12:21:49.828Z</time></trkpt><trkpt lat="43.7978425" lon="11.5400153"><ele>698.0</ele><time>2026-04-11T12:21:50.82Z</time></trkpt><trkpt lat="43.7978989" lon="11.5401461"><ele>693.0</ele><time>2026-04-11T12:21:51.824Z</time></trkpt><trkpt lat="43.7979265" lon="11.5402734"><ele>688.0</ele><time>2026-04-11T12:21:52.829Z</time></trkpt><trkpt lat="43.7979239" lon="11.5404029"><ele>683.0</ele><time>2026-04-11T12:21:53.819Z</time></trkpt><trkpt lat="43.797901" lon="11.5405429"><ele>678.0</ele><time>2026-04-11T12:21:54.827Z</time></trkpt><trkpt lat="43.7978534" lon="11.5406893"><ele>673.0</ele><time>2026-04-11T12:21:55.825Z</time></trkpt><trkpt lat="43.7977898" lon="11.5408329"><ele>671.5</ele><time>2026-04-11T12:21:56.827Z</time></trkpt><trkpt lat="43.7977266" lon="11.5409749"><ele>670.0</ele><time>2026-04-11T12:21:57.826Z</time></trkpt><trkpt lat="43.7976665" lon="11.541116"><ele>668.5</ele><time>2026-04-11T12:21:58.832Z</time></trkpt><trkpt lat="43.797602" lon="11.5412667"><ele>667.0</ele><time>2026-04-11T12:21:59.836Z</time></trkpt><trkpt lat="43.7975608" lon="11.5414254"><ele>670.75</ele><time>2026-04-11T12:22:00.834Z</time></trkpt><trkpt lat="43.7975439" lon="11.5415904"><ele>674.5</ele><time>2026-04-11T12:22:01.833Z</time></trkpt><trkpt lat="43.797557" lon="11.5417543"><ele>678.25</ele><time>2026-04-11T12:22:02.82Z</time></trkpt><trkpt lat="43.7975767" lon="11.5419152"><ele>682.0</ele><time>2026-04-11T12:22:03.835Z</time></trkpt><trkpt lat="43.7976028" lon="11.5420664"><ele>682.0</ele><time>2026-04-11T12:22:04.827Z</time></trkpt><trkpt lat="43.7976361" lon="11.5422229"><ele>682.0</ele><time>2026-04-11T12:22:05.826Z</time></trkpt><trkpt lat="43.797669" lon="11.5423861"><ele>682.0</ele><time>2026-04-11T12:22:06.821Z</time></trkpt><trkpt lat="43.7976963" lon="11.5425611"><ele>682.0</ele><time>2026-04-11T12:22:07.834Z</time></trkpt><trkpt lat="43.797728" lon="11.5427363"><ele>672.0</ele><time>2026-04-11T12:22:08.827Z</time></trkpt><trkpt lat="43.7977732" lon="11.5429296"><ele>662.0</ele><time>2026-04-11T12:22:09.813Z</time></trkpt><trkpt lat="43.7978379" lon="11.5431289"><ele>652.0</ele><time>2026-04-11T12:22:10.826Z</time></trkpt><trkpt lat="43.7979143" lon="11.5433161"><ele>652.0</ele><time>2026-04-11T12:22:11.82Z</time></trkpt><trkpt lat="43.7979899" lon="11.5435064"><ele>652.0</ele><time>2026-04-11T12:22:12.83Z</time></trkpt><trkpt lat="43.7980456" lon="11.5436972"><ele>652.0</ele><time>2026-04-11T12:22:13.829Z</time></trkpt><trkpt lat="43.7980586" lon="11.5438824"><ele>652.0</ele><time>2026-04-11T12:22:14.839Z</time></trkpt><trkpt lat="43.7980543" lon="11.5440775"><ele>653.0</ele><time>2026-04-11T12:22:15.823Z</time></trkpt><trkpt lat="43.7980357" lon="11.5442686"><ele>654.0</ele><time>2026-04-11T12:22:16.828Z</time></trkpt><trkpt lat="43.7980139" lon="11.5444683"><ele>655.0</ele><time>2026-04-11T12:22:17.82Z</time></trkpt><trkpt lat="43.7979972" lon="11.5446617"><ele>656.0</ele><time>2026-04-11T12:22:18.831Z</time></trkpt><trkpt lat="43.7979835" lon="11.5448483"><ele>656.75</ele><time>2026-04-11T12:22:19.82Z</time></trkpt><trkpt lat="43.797996" lon="11.5450502"><ele>657.5</ele><time>2026-04-11T12:22:20.824Z</time></trkpt><trkpt lat="43.798017" lon="11.5452396"><ele>658.25</ele><time>2026-04-11T12:22:21.826Z</time></trkpt><trkpt lat="43.7980585" lon="11.5454302"><ele>659.0</ele><time>2026-04-11T12:22:22.83Z</time></trkpt><trkpt lat="43.7981096" lon="11.5456103"><ele>660.0</ele><time>2026-04-11T12:22:23.825Z</time></trkpt><trkpt lat="43.7981626" lon="11.5457694"><ele>661.0</ele><time>2026-04-11T12:22:24.828Z</time></trkpt><trkpt lat="43.7982177" lon="11.5459058"><ele>662.0</ele><time>2026-04-11T12:22:25.822Z</time></trkpt><trkpt lat="43.7982764" lon="11.5460273"><ele>663.0</ele><time>2026-04-11T12:22:26.826Z</time></trkpt><trkpt lat="43.7983279" lon="11.5461207"><ele>664.0</ele><time>2026-04-11T12:22:27.832Z</time></trkpt><trkpt lat="43.798373" lon="11.5461941"><ele>663.8000000000001</ele><time>2026-04-11T12:22:28.83Z</time></trkpt><trkpt lat="43.7984253" lon="11.5462973"><ele>663.6</ele><time>2026-04-11T12:22:30.833Z</time></trkpt><trkpt lat="43.7984266" lon="11.5464356"><ele>663.4</ele><time>2026-04-11T12:22:32.833Z</time></trkpt><trkpt lat="43.7984042" lon="11.5465797"><ele>663.2</ele><time>2026-04-11T12:22:34.831Z</time></trkpt><trkpt lat="43.7983836" lon="11.5467195"><ele>663.0</ele><time>2026-04-11T12:22:36.831Z</time></trkpt><trkpt lat="43.7983898" lon="11.5468267"><ele>663.0</ele><time>2026-04-11T12:22:38.826Z</time></trkpt><trkpt lat="43.7983935" lon="11.5469174"><ele>663.0</ele><time>2026-04-11T12:22:40.816Z</time></trkpt><trkpt lat="43.7983766" lon="11.5470028"><ele>663.0</ele><time>2026-04-11T12:22:42.824Z</time></trkpt><trkpt lat="43.798349" lon="11.5471091"><ele>663.0</ele><time>2026-04-11T12:22:44.824Z</time></trkpt><trkpt lat="43.7982988" lon="11.5472302"><ele>663.0</ele><time>2026-04-11T12:22:46.836Z</time></trkpt><trkpt lat="43.7982682" lon="11.5473415"><ele>663.0</ele><time>2026-04-11T12:22:48.825Z</time></trkpt><trkpt lat="43.7982138" lon="11.5474669"><ele>663.5</ele><time>2026-04-11T12:22:50.82Z</time></trkpt><trkpt lat="43.7981873" lon="11.5475472"><ele>664.0</ele><time>2026-04-11T12:22:51.825Z</time></trkpt><trkpt lat="43.7981477" lon="11.5476929"><ele>664.5</ele><time>2026-04-11T12:22:53.83Z</time></trkpt><trkpt lat="43.798119" lon="11.5477734"><ele>665.0</ele><time>2026-04-11T12:22:54.827Z</time></trkpt><trkpt lat="43.7980604" lon="11.547882"><ele>665.5</ele><time>2026-04-11T12:22:56.817Z</time></trkpt><trkpt lat="43.798039" lon="11.5480069"><ele>666.0</ele><time>2026-04-11T12:22:59.831Z</time></trkpt><trkpt lat="43.7980444" lon="11.5481294"><ele>666.0</ele><time>2026-04-11T12:23:02.823Z</time></trkpt><trkpt lat="43.7980467" lon="11.5482254"><ele>666.0</ele><time>2026-04-11T12:23:04.815Z</time></trkpt><trkpt lat="43.7980547" lon="11.5483409"><ele>666.0</ele><time>2026-04-11T12:23:06.817Z</time></trkpt><trkpt lat="43.7980725" lon="11.5484357"><ele>666.0</ele><time>2026-04-11T12:23:08.816Z</time></trkpt><trkpt lat="43.7980952" lon="11.5485412"><ele>666.0</ele><time>2026-04-11T12:23:19.812Z</time></trkpt><trkpt lat="43.7981046" lon="11.5486624"><ele>666.0</ele><time>2026-04-11T12:23:22.821Z</time></trkpt><trkpt lat="43.79812" lon="11.5487568"><ele>666.5999999999999</ele><time>2026-04-11T12:23:37.823Z</time></trkpt><trkpt lat="43.7981348" lon="11.5488954"><ele>667.2</ele><time>2026-04-11T12:23:39.819Z</time></trkpt><trkpt lat="43.7981822" lon="11.549006"><ele>667.8</ele><time>2026-04-11T12:23:41.819Z</time></trkpt><trkpt lat="43.7982488" lon="11.5491079"><ele>668.4000000000001</ele><time>2026-04-11T12:23:43.822Z</time></trkpt><trkpt lat="43.7982761" lon="11.5491965"><ele>669.0</ele><time>2026-04-11T12:23:45.824Z</time></trkpt><trkpt lat="43.7982805" lon="11.5493226"><ele>669.0</ele><time>2026-04-11T12:23:48.817Z</time></trkpt><trkpt lat="43.798269" lon="11.5494128"><ele>669.0</ele><time>2026-04-11T12:23:53.831Z</time></trkpt><trkpt lat="43.7982244" lon="11.549516"><ele>669.0</ele><time>2026-04-11T12:23:57.831Z</time></trkpt><trkpt lat="43.7982081" lon="11.549612"><ele>669.0</ele><time>2026-04-11T12:23:59.828Z</time></trkpt><trkpt lat="43.7981886" lon="11.5497113"><ele>669.0</ele><time>2026-04-11T12:24:01.832Z</time></trkpt><trkpt lat="43.7981532" lon="11.5497837"><ele>669.0</ele><time>2026-04-11T12:24:03.821Z</time></trkpt><trkpt lat="43.7980953" lon="11.5498392"><ele>669.0</ele><time>2026-04-11T12:24:05.82Z</time></trkpt><trkpt lat="43.7980396" lon="11.5499068"><ele>668.5</ele><time>2026-04-11T12:24:07.826Z</time></trkpt><trkpt lat="43.7980168" lon="11.5499923"><ele>668.0</ele><time>2026-04-11T12:24:09.815Z</time></trkpt><trkpt lat="43.797982" lon="11.5500845"><ele>667.5</ele><time>2026-04-11T12:24:11.828Z</time></trkpt><trkpt lat="43.7979491" lon="11.5501789"><ele>667.0</ele><time>2026-04-11T12:24:13.816Z</time></trkpt><trkpt lat="43.7978857" lon="11.550262"><ele>666.5</ele><time>2026-04-11T12:24:15.827Z</time></trkpt><trkpt lat="43.7978098" lon="11.550315"><ele>666.0</ele><time>2026-04-11T12:24:17.82Z</time></trkpt><trkpt lat="43.7977406" lon="11.5503811"><ele>667.4</ele><time>2026-04-11T12:24:19.822Z</time></trkpt><trkpt lat="43.7976629" lon="11.5504984"><ele>668.8</ele><time>2026-04-11T12:24:21.82Z</time></trkpt><trkpt lat="43.7976263" lon="11.5505744"><ele>670.1999999999999</ele><time>2026-04-11T12:24:22.828Z</time></trkpt><trkpt lat="43.7975828" lon="11.5506679"><ele>671.5999999999999</ele><time>2026-04-11T12:24:23.835Z</time></trkpt><trkpt lat="43.7975372" lon="11.550821"><ele>673.0</ele><time>2026-04-11T12:24:25.82Z</time></trkpt><trkpt lat="43.7975273" lon="11.5509327"><ele>673.0</ele><time>2026-04-11T12:24:28.822Z</time></trkpt><trkpt lat="43.7975134" lon="11.5510355"><ele>673.0</ele><time>2026-04-11T12:24:31.826Z</time></trkpt><trkpt lat="43.7974913" lon="11.5511264"><ele>673.0</ele><time>2026-04-11T12:24:41.832Z</time></trkpt><trkpt lat="43.7975192" lon="11.5512165"><ele>673.0</ele><time>2026-04-11T12:24:45.833Z</time></trkpt><trkpt lat="43.7975279" lon="11.5513291"><ele>673.0</ele><time>2026-04-11T12:24:53.834Z</time></trkpt><trkpt lat="43.7975059" lon="11.5514191"><ele>673.0</ele><time>2026-04-11T12:24:56.819Z</time></trkpt><trkpt lat="43.797492" lon="11.5515513"><ele>673.0</ele><time>2026-04-11T12:25:14.827Z</time></trkpt><trkpt lat="43.7974904" lon="11.5516618"><ele>673.0</ele><time>2026-04-11T12:25:16.825Z</time></trkpt><trkpt lat="43.7974845" lon="11.5517905"><ele>673.0</ele><time>2026-04-11T12:25:18.832Z</time></trkpt><trkpt lat="43.7974573" lon="11.5519229"><ele>673.0</ele><time>2026-04-11T12:25:20.829Z</time></trkpt><trkpt lat="43.7974441" lon="11.5520481"><ele>673.0</ele><time>2026-04-11T12:25:22.829Z</time></trkpt><trkpt lat="43.7974498" lon="11.5521676"><ele>673.6666666666667</ele><time>2026-04-11T12:25:24.836Z</time></trkpt><trkpt lat="43.797436" lon="11.5522673"><ele>674.3333333333334</ele><time>2026-04-11T12:25:26.826Z</time></trkpt><trkpt lat="43.7974175" lon="11.5523721"><ele>675.0</ele><time>2026-04-11T12:25:28.844Z</time></trkpt><trkpt lat="43.7973869" lon="11.5524803"><ele>675.6666666666666</ele><time>2026-04-11T12:25:30.834Z</time></trkpt><trkpt lat="43.7973388" lon="11.5525693"><ele>676.3333333333333</ele><time>2026-04-11T12:25:32.84Z</time></trkpt><trkpt lat="43.7972667" lon="11.5526501"><ele>677.0</ele><time>2026-04-11T12:25:34.833Z</time></trkpt><trkpt lat="43.7972088" lon="11.5527303"><ele>677.0</ele><time>2026-04-11T12:25:36.831Z</time></trkpt><trkpt lat="43.7971521" lon="11.5528401"><ele>677.0</ele><time>2026-04-11T12:25:38.827Z</time></trkpt><trkpt lat="43.7971226" lon="11.5529215"><ele>677.0</ele><time>2026-04-11T12:25:39.821Z</time></trkpt><trkpt lat="43.7970718" lon="11.5530439"><ele>677.0</ele><time>2026-04-11T12:25:41.833Z</time></trkpt><trkpt lat="43.7970478" lon="11.5531414"><ele>677.0</ele><time>2026-04-11T12:25:43.837Z</time></trkpt><trkpt lat="43.7970498" lon="11.5532345"><ele>677.0</ele><time>2026-04-11T12:25:45.837Z</time></trkpt><trkpt lat="43.7970555" lon="11.553358"><ele>676.8</ele><time>2026-04-11T12:25:47.828Z</time></trkpt><trkpt lat="43.797047" lon="11.5535433"><ele>676.6</ele><time>2026-04-11T12:25:49.83Z</time></trkpt><trkpt lat="43.7970413" lon="11.5536468"><ele>676.4</ele><time>2026-04-11T12:25:50.837Z</time></trkpt><trkpt lat="43.797032" lon="11.5537642"><ele>676.1999999999999</ele><time>2026-04-11T12:25:51.83Z</time></trkpt><trkpt lat="43.7970176" lon="11.5538759"><ele>676.0</ele><time>2026-04-11T12:25:52.831Z</time></trkpt><trkpt lat="43.7970008" lon="11.5539778"><ele>675.3333333333334</ele><time>2026-04-11T12:25:53.823Z</time></trkpt><trkpt lat="43.7969835" lon="11.5540859"><ele>674.6666666666667</ele><time>2026-04-11T12:25:54.819Z</time></trkpt><trkpt lat="43.7969562" lon="11.5541975"><ele>674.0</ele><time>2026-04-11T12:25:55.847Z</time></trkpt><trkpt lat="43.7969183" lon="11.5543085"><ele>673.3333333333334</ele><time>2026-04-11T12:25:56.853Z</time></trkpt><trkpt lat="43.796887" lon="11.5544118"><ele>672.6666666666666</ele><time>2026-04-11T12:25:57.838Z</time></trkpt><trkpt lat="43.7968656" lon="11.5545252"><ele>672.0</ele><time>2026-04-11T12:25:58.841Z</time></trkpt><trkpt lat="43.7968431" lon="11.5546174"><ele>671.2</ele><time>2026-04-11T12:25:59.833Z</time></trkpt><trkpt lat="43.7967885" lon="11.5547716"><ele>670.4000000000001</ele><time>2026-04-11T12:26:01.838Z</time></trkpt><trkpt lat="43.7967234" lon="11.5548917"><ele>669.5999999999999</ele><time>2026-04-11T12:26:03.831Z</time></trkpt><trkpt lat="43.7967375" lon="11.5550076"><ele>668.8</ele><time>2026-04-11T12:26:06.83Z</time></trkpt><trkpt lat="43.7967976" lon="11.5550341"><ele>668.0</ele><time>2026-04-11T12:26:07.814Z</time></trkpt><trkpt lat="43.7968726" lon="11.55516"><ele>668.0</ele><time>2026-04-11T12:26:09.816Z</time></trkpt><trkpt lat="43.7969285" lon="11.555307"><ele>668.0</ele><time>2026-04-11T12:26:11.828Z</time></trkpt><trkpt lat="43.7969656" lon="11.5554189"><ele>668.0</ele><time>2026-04-11T12:26:13.833Z</time></trkpt><trkpt lat="43.7969848" lon="11.5555255"><ele>668.0</ele><time>2026-04-11T12:26:15.831Z</time></trkpt><trkpt lat="43.7969982" lon="11.5554381"><ele>668.0</ele><time>2026-04-11T12:38:46.825Z</time></trkpt><trkpt lat="43.797037" lon="11.5553514"><ele>668.0</ele><time>2026-04-11T12:38:58.825Z</time></trkpt><trkpt lat="43.7970926" lon="11.5554085"><ele>668.2857142857142</ele><time>2026-04-11T12:39:12.83Z</time></trkpt><trkpt lat="43.7970961" lon="11.555503"><ele>668.5714285714286</ele><time>2026-04-11T12:39:21.822Z</time></trkpt><trkpt lat="43.7970741" lon="11.5555859"><ele>668.8571428571429</ele><time>2026-04-11T12:40:50.852Z</time></trkpt><trkpt lat="43.7971016" lon="11.5556645"><ele>669.1428571428571</ele><time>2026-04-11T12:41:27.832Z</time></trkpt><trkpt lat="43.7970917" lon="11.555765"><ele>669.4285714285714</ele><time>2026-04-11T12:44:10.83Z</time></trkpt><trkpt lat="43.7970601" lon="11.5558436"><ele>669.7142857142857</ele><time>2026-04-11T12:49:26.816Z</time></trkpt><trkpt lat="43.7970409" lon="11.5559271"><ele>670.0</ele><time>2026-04-11T12:50:42.816Z</time></trkpt><trkpt lat="43.7970769" lon="11.5560177"><ele>670.0</ele><time>2026-04-11T13:02:08.806Z</time></trkpt><trkpt lat="43.7971215" lon="11.5561652"><ele>670.0</ele><time>2026-04-11T13:02:10.813Z</time></trkpt><trkpt lat="43.7971458" lon="11.5562488"><ele>670.0</ele><time>2026-04-11T13:02:11.821Z</time></trkpt><trkpt lat="43.7971862" lon="11.5564018"><ele>670.0</ele><time>2026-04-11T13:02:13.82Z</time></trkpt><trkpt lat="43.7971961" lon="11.5564976"><ele>670.0</ele><time>2026-04-11T13:02:15.816Z</time></trkpt><trkpt lat="43.7972065" lon="11.5565946"><ele>670.0</ele><time>2026-04-11T13:02:17.82Z</time></trkpt><trkpt lat="43.7972358" lon="11.5567205"><ele>671.0</ele><time>2026-04-11T13:02:19.818Z</time></trkpt><trkpt lat="43.797249" lon="11.5568101"><ele>672.0</ele><time>2026-04-11T13:02:20.819Z</time></trkpt><trkpt lat="43.79725" lon="11.5569636"><ele>673.0</ele><time>2026-04-11T13:02:22.818Z</time></trkpt><trkpt lat="43.7972413" lon="11.5571134"><ele>674.0</ele><time>2026-04-11T13:02:24.828Z</time></trkpt><trkpt lat="43.7972172" lon="11.5572572"><ele>675.0</ele><time>2026-04-11T13:02:26.821Z</time></trkpt><trkpt lat="43.7972231" lon="11.5573637"><ele>675.2857142857142</ele><time>2026-04-11T13:04:57.812Z</time></trkpt><trkpt lat="43.7972316" lon="11.5574513"><ele>675.5714285714286</ele><time>2026-04-11T13:05:05.815Z</time></trkpt><trkpt lat="43.7972027" lon="11.5575361"><ele>675.8571428571429</ele><time>2026-04-11T13:09:04.822Z</time></trkpt><trkpt lat="43.7971703" lon="11.5576215"><ele>676.1428571428571</ele><time>2026-04-11T13:10:31.821Z</time></trkpt><trkpt lat="43.7971337" lon="11.5576999"><ele>676.4285714285714</ele><time>2026-04-11T13:10:35.818Z</time></trkpt><trkpt lat="43.7970918" lon="11.557809"><ele>676.7142857142857</ele><time>2026-04-11T13:10:38.816Z</time></trkpt><trkpt lat="43.7970602" lon="11.5579034"><ele>677.0</ele><time>2026-04-11T13:10:43.826Z</time></trkpt><trkpt lat="43.7970592" lon="11.5579934"><ele>677.0</ele><time>2026-04-11T13:11:23.814Z</time></trkpt><trkpt lat="43.7971009" lon="11.5580622"><ele>677.0</ele><time>2026-04-11T13:44:29.799Z</time></trkpt><trkpt lat="43.7970517" lon="11.5579983"><ele>677.0</ele><time>2026-04-11T13:54:48.791Z</time></trkpt><trkpt lat="43.7970606" lon="11.557876"><ele>677.0</ele><time>2026-04-11T13:55:04.803Z</time></trkpt><trkpt lat="43.7971099" lon="11.5577802"><ele>677.0</ele><time>2026-04-11T13:55:07.792Z</time></trkpt><trkpt lat="43.7971586" lon="11.5576767"><ele>677.0</ele><time>2026-04-11T13:55:10.795Z</time></trkpt><trkpt lat="43.7971874" lon="11.55759"><ele>677.0</ele><time>2026-04-11T13:55:13.802Z</time></trkpt><trkpt lat="43.7972142" lon="11.5574778"><ele>677.0</ele><time>2026-04-11T13:56:48.803Z</time></trkpt><trkpt lat="43.797227" lon="11.557388"><ele>677.0</ele><time>2026-04-11T13:57:06.795Z</time></trkpt><trkpt lat="43.797194" lon="11.5573102"><ele>677.0</ele><time>2026-04-11T13:57:10.796Z</time></trkpt><trkpt lat="43.7971967" lon="11.5572084"><ele>677.0</ele><time>2026-04-11T13:59:01.788Z</time></trkpt><trkpt lat="43.797204" lon="11.5570864"><ele>677.0</ele><time>2026-04-11T13:59:03.793Z</time></trkpt><trkpt lat="43.7972254" lon="11.5569715"><ele>676.6</ele><time>2026-04-11T13:59:05.803Z</time></trkpt><trkpt lat="43.7972268" lon="11.5568261"><ele>676.2</ele><time>2026-04-11T13:59:07.804Z</time></trkpt><trkpt lat="43.797202" lon="11.5566875"><ele>675.8</ele><time>2026-04-11T13:59:09.812Z</time></trkpt><trkpt lat="43.7971946" lon="11.5565503"><ele>675.4</ele><time>2026-04-11T13:59:11.788Z</time></trkpt><trkpt lat="43.7971718" lon="11.5563925"><ele>675.0</ele><time>2026-04-11T13:59:13.801Z</time></trkpt><trkpt lat="43.7971397" lon="11.5562493"><ele>674.1666666666666</ele><time>2026-04-11T13:59:15.801Z</time></trkpt><trkpt lat="43.7971022" lon="11.556128"><ele>673.3333333333334</ele><time>2026-04-11T13:59:17.803Z</time></trkpt><trkpt lat="43.7970803" lon="11.5560175"><ele>672.5</ele><time>2026-04-11T13:59:19.797Z</time></trkpt><trkpt lat="43.7970525" lon="11.5559057"><ele>671.6666666666667</ele><time>2026-04-11T13:59:22.803Z</time></trkpt><trkpt lat="43.7970793" lon="11.5558145"><ele>670.8333333333334</ele><time>2026-04-11T13:59:27.791Z</time></trkpt><trkpt lat="43.7971254" lon="11.5557386"><ele>670.0</ele><time>2026-04-11T13:59:31.794Z</time></trkpt><trkpt lat="43.7971287" lon="11.5556412"><ele>669.9999999999999</ele><time>2026-04-11T13:59:38.795Z</time></trkpt><trkpt lat="43.7971125" lon="11.5555409"><ele>670.0</ele><time>2026-04-11T13:59:42.794Z</time></trkpt><trkpt lat="43.7971132" lon="11.5554395"><ele>670.0</ele><time>2026-04-11T13:59:51.789Z</time></trkpt><trkpt lat="43.7970488" lon="11.555406"><ele>670.0</ele><time>2026-04-11T14:00:08.807Z</time></trkpt><trkpt lat="43.7969817" lon="11.5554223"><ele>670.0</ele><time>2026-04-11T14:00:40.801Z</time></trkpt><trkpt lat="43.7969192" lon="11.5553934"><ele>669.9999999999999</ele><time>2026-04-11T14:09:14.783Z</time></trkpt><trkpt lat="43.796907" lon="11.555291"><ele>670.0</ele><time>2026-04-11T14:10:24.791Z</time></trkpt><trkpt lat="43.796905" lon="11.5551718"><ele>669.6</ele><time>2026-04-11T14:10:27.796Z</time></trkpt><trkpt lat="43.7968404" lon="11.5550843"><ele>669.2</ele><time>2026-04-11T14:10:30.791Z</time></trkpt><trkpt lat="43.7968311" lon="11.5549503"><ele>668.8</ele><time>2026-04-11T14:10:33.786Z</time></trkpt><trkpt lat="43.7968571" lon="11.5548177"><ele>668.4</ele><time>2026-04-11T14:10:35.791Z</time></trkpt><trkpt lat="43.7968984" lon="11.5546776"><ele>668.0</ele><time>2026-04-11T14:10:37.798Z</time></trkpt><trkpt lat="43.7969291" lon="11.5545512"><ele>668.6666666666666</ele><time>2026-04-11T14:10:39.8Z</time></trkpt><trkpt lat="43.7969517" lon="11.5544114"><ele>669.3333333333333</ele><time>2026-04-11T14:10:41.79Z</time></trkpt><trkpt lat="43.7969781" lon="11.5543011"><ele>670.0</ele><time>2026-04-11T14:10:43.785Z</time></trkpt><trkpt lat="43.7970163" lon="11.554156"><ele>670.6666666666666</ele><time>2026-04-11T14:10:45.791Z</time></trkpt><trkpt lat="43.797042" lon="11.5540659"><ele>671.3333333333334</ele><time>2026-04-11T14:10:46.791Z</time></trkpt><trkpt lat="43.7970603" lon="11.5539719"><ele>672.0</ele><time>2026-04-11T14:10:47.795Z</time></trkpt><trkpt lat="43.7970752" lon="11.5538815"><ele>672.0</ele><time>2026-04-11T14:10:48.786Z</time></trkpt><trkpt lat="43.7970855" lon="11.5537773"><ele>672.0</ele><time>2026-04-11T14:10:49.787Z</time></trkpt><trkpt lat="43.7971008" lon="11.5536717"><ele>672.0</ele><time>2026-04-11T14:10:50.785Z</time></trkpt><trkpt lat="43.7971177" lon="11.553565"><ele>672.0</ele><time>2026-04-11T14:10:51.792Z</time></trkpt><trkpt lat="43.7971308" lon="11.5534747"><ele>672.0</ele><time>2026-04-11T14:10:52.795Z</time></trkpt><trkpt lat="43.7971344" lon="11.5533368"><ele>672.0</ele><time>2026-04-11T14:10:54.79Z</time></trkpt><trkpt lat="43.7970891" lon="11.5532247"><ele>672.8</ele><time>2026-04-11T14:10:56.785Z</time></trkpt><trkpt lat="43.7970801" lon="11.5530983"><ele>673.6</ele><time>2026-04-11T14:10:58.793Z</time></trkpt><trkpt lat="43.7971289" lon="11.5529831"><ele>674.4</ele><time>2026-04-11T14:11:00.793Z</time></trkpt><trkpt lat="43.7971797" lon="11.5528503"><ele>675.1999999999999</ele><time>2026-04-11T14:11:02.792Z</time></trkpt><trkpt lat="43.7972335" lon="11.5527109"><ele>676.0</ele><time>2026-04-11T14:11:04.785Z</time></trkpt><trkpt lat="43.7972969" lon="11.5526292"><ele>676.1666666666667</ele><time>2026-04-11T14:11:06.783Z</time></trkpt><trkpt lat="43.7973704" lon="11.5525427"><ele>676.3333333333334</ele><time>2026-04-11T14:11:09.79Z</time></trkpt><trkpt lat="43.7974246" lon="11.5524499"><ele>676.5</ele><time>2026-04-11T14:11:11.79Z</time></trkpt><trkpt lat="43.7974644" lon="11.5523264"><ele>676.6666666666666</ele><time>2026-04-11T14:11:13.796Z</time></trkpt><trkpt lat="43.7974464" lon="11.552231"><ele>676.8333333333333</ele><time>2026-04-11T14:11:15.789Z</time></trkpt><trkpt lat="43.7974344" lon="11.5521321"><ele>677.0</ele><time>2026-04-11T14:11:18.788Z</time></trkpt><trkpt lat="43.7974432" lon="11.5520181"><ele>676.3333333333333</ele><time>2026-04-11T14:11:20.798Z</time></trkpt><trkpt lat="43.7974542" lon="11.5519316"><ele>675.6666666666666</ele><time>2026-04-11T14:11:21.799Z</time></trkpt><trkpt lat="43.797487" lon="11.5518121"><ele>675.0</ele><time>2026-04-11T14:11:23.786Z</time></trkpt><trkpt lat="43.7974961" lon="11.5516994"><ele>674.3333333333334</ele><time>2026-04-11T14:11:25.787Z</time></trkpt><trkpt lat="43.797502" lon="11.5515821"><ele>673.6666666666667</ele><time>2026-04-11T14:11:27.783Z</time></trkpt><trkpt lat="43.7975062" lon="11.5514635"><ele>673.0</ele><time>2026-04-11T14:11:29.792Z</time></trkpt><trkpt lat="43.797527" lon="11.5513603"><ele>673.0</ele><time>2026-04-11T14:11:31.784Z</time></trkpt><trkpt lat="43.7975471" lon="11.5512676"><ele>673.0</ele><time>2026-04-11T14:11:34.783Z</time></trkpt><trkpt lat="43.7975025" lon="11.5511935"><ele>673.0</ele><time>2026-04-11T14:11:45.798Z</time></trkpt><trkpt lat="43.7974968" lon="11.5510889"><ele>673.0</ele><time>2026-04-11T14:11:50.777Z</time></trkpt><trkpt lat="43.7975231" lon="11.5510054"><ele>673.0</ele><time>2026-04-11T14:11:57.786Z</time></trkpt><trkpt lat="43.7975518" lon="11.5509119"><ele>673.0</ele><time>2026-04-11T14:12:00.78Z</time></trkpt><trkpt lat="43.7975485" lon="11.5508196"><ele>673.0</ele><time>2026-04-11T14:12:02.791Z</time></trkpt><trkpt lat="43.7975817" lon="11.5507141"><ele>673.0</ele><time>2026-04-11T14:12:04.798Z</time></trkpt><trkpt lat="43.7976152" lon="11.5505785"><ele>673.0</ele><time>2026-04-11T14:12:06.782Z</time></trkpt><trkpt lat="43.7976637" lon="11.550452"><ele>673.0</ele><time>2026-04-11T14:12:08.811Z</time></trkpt><trkpt lat="43.7977267" lon="11.5503459"><ele>673.0</ele><time>2026-04-11T14:12:10.788Z</time></trkpt><trkpt lat="43.7977926" lon="11.5503042"><ele>673.0</ele><time>2026-04-11T14:12:12.786Z</time></trkpt><trkpt lat="43.7978682" lon="11.5502559"><ele>671.8333333333334</ele><time>2026-04-11T14:12:14.785Z</time></trkpt><trkpt lat="43.7979269" lon="11.5501959"><ele>670.6666666666667</ele><time>2026-04-11T14:12:16.784Z</time></trkpt><trkpt lat="43.797978" lon="11.5500954"><ele>669.5</ele><time>2026-04-11T14:12:18.788Z</time></trkpt><trkpt lat="43.7980105" lon="11.5499648"><ele>668.3333333333334</ele><time>2026-04-11T14:12:20.786Z</time></trkpt><trkpt lat="43.7980514" lon="11.5498866"><ele>667.1666666666666</ele><time>2026-04-11T14:12:22.796Z</time></trkpt><trkpt lat="43.79812" lon="11.5498122"><ele>666.0</ele><time>2026-04-11T14:12:24.795Z</time></trkpt><trkpt lat="43.7981774" lon="11.5496974"><ele>666.0</ele><time>2026-04-11T14:12:26.809Z</time></trkpt><trkpt lat="43.7982091" lon="11.5495529"><ele>666.0</ele><time>2026-04-11T14:12:28.789Z</time></trkpt><trkpt lat="43.7982432" lon="11.5494706"><ele>666.0</ele><time>2026-04-11T14:12:31.782Z</time></trkpt><trkpt lat="43.7982749" lon="11.5493784"><ele>666.0</ele><time>2026-04-11T14:12:35.79Z</time></trkpt><trkpt lat="43.7982951" lon="11.5492794"><ele>666.0</ele><time>2026-04-11T14:12:41.78Z</time></trkpt><trkpt lat="43.7982822" lon="11.5491535"><ele>666.0</ele><time>2026-04-11T14:12:44.797Z</time></trkpt><trkpt lat="43.7982486" lon="11.5490764"><ele>666.0</ele><time>2026-04-11T14:12:46.791Z</time></trkpt><trkpt lat="43.7982144" lon="11.5489963"><ele>666.0</ele><time>2026-04-11T14:12:48.798Z</time></trkpt><trkpt lat="43.7981709" lon="11.5488861"><ele>666.0</ele><time>2026-04-11T14:12:50.791Z</time></trkpt><trkpt lat="43.7981265" lon="11.548731"><ele>666.0</ele><time>2026-04-11T14:12:52.797Z</time></trkpt><trkpt lat="43.7981044" lon="11.5485962"><ele>666.0</ele><time>2026-04-11T14:12:54.8Z</time></trkpt><trkpt lat="43.7980917" lon="11.5485086"><ele>666.0</ele><time>2026-04-11T14:13:02.793Z</time></trkpt><trkpt lat="43.7980631" lon="11.5484033"><ele>666.0</ele><time>2026-04-11T14:13:07.792Z</time></trkpt><trkpt lat="43.7980586" lon="11.5483144"><ele>666.0</ele><time>2026-04-11T14:13:09.798Z</time></trkpt><trkpt lat="43.7980516" lon="11.5481879"><ele>666.0</ele><time>2026-04-11T14:13:12.796Z</time></trkpt><trkpt lat="43.7980416" lon="11.5480913"><ele>666.0</ele><time>2026-04-11T14:13:14.791Z</time></trkpt><trkpt lat="43.7980351" lon="11.5479658"><ele>666.0</ele><time>2026-04-11T14:13:16.792Z</time></trkpt><trkpt lat="43.7980627" lon="11.547851"><ele>666.0</ele><time>2026-04-11T14:13:18.792Z</time></trkpt><trkpt lat="43.7981085" lon="11.5477066"><ele>666.0</ele><time>2026-04-11T14:13:20.791Z</time></trkpt><trkpt lat="43.7981589" lon="11.547573"><ele>666.0</ele><time>2026-04-11T14:13:22.794Z</time></trkpt><trkpt lat="43.7982118" lon="11.5474328"><ele>666.0</ele><time>2026-04-11T14:13:24.801Z</time></trkpt><trkpt lat="43.7982505" lon="11.5473025"><ele>666.0</ele><time>2026-04-11T14:13:26.807Z</time></trkpt><trkpt lat="43.798279" lon="11.547214"><ele>666.0</ele><time>2026-04-11T14:13:29.794Z</time></trkpt><trkpt lat="43.7983078" lon="11.5471251"><ele>665.5</ele><time>2026-04-11T14:13:32.802Z</time></trkpt><trkpt lat="43.7983314" lon="11.5470401"><ele>665.0</ele><time>2026-04-11T14:13:34.801Z</time></trkpt><trkpt lat="43.7983567" lon="11.5469559"><ele>664.5</ele><time>2026-04-11T14:13:36.792Z</time></trkpt><trkpt lat="43.7983639" lon="11.5468603"><ele>664.0</ele><time>2026-04-11T14:13:40.79Z</time></trkpt><trkpt lat="43.7983896" lon="11.5467165"><ele>663.5</ele><time>2026-04-11T14:13:44.803Z</time></trkpt><trkpt lat="43.7984023" lon="11.5465594"><ele>663.0</ele><time>2026-04-11T14:13:46.793Z</time></trkpt><trkpt lat="43.7984169" lon="11.5464103"><ele>663.0</ele><time>2026-04-11T14:13:48.803Z</time></trkpt><trkpt lat="43.7984334" lon="11.5463212"><ele>663.0</ele><time>2026-04-11T14:13:50.805Z</time></trkpt><trkpt lat="43.7984422" lon="11.5462166"><ele>663.0</ele><time>2026-04-11T14:14:09.791Z</time></trkpt><trkpt lat="43.7983586" lon="11.5461331"><ele>664.0</ele><time>2026-04-11T14:14:11.789Z</time></trkpt></trkseg></trk></gpx>